DAL295 KATL-RJTT
Flight info
| Callsign | DAL295 |
|---|---|
| Flight time | 14h 9m |
| Altitude | 34000 |
| Route | PENCL2 EMAHH DCT BWG DCT TTH DCT DONVE DCT JVL DCT MSN DCT DLL DCT DLH DCT 50N096W 53N100W 55N103W 58N110W/N0495F360 60N116W 62N120W DCT GOATS DCT BTT/N0497F380 NCA30 OME R338 NATES/N0486F390 R220 NYMPH/N0491F400 R220 NUBDA/N0493F410 R220 NANAC/N0488F400 Y810 AKRIT Y807 POLIX |
| Aircraft | A359/H-SDE2E3GHIJ1J3J4J5LM1ORWXY/LB1D1 |
Departure
| Time | 2026-05-04 22:27 |
|---|---|
| Airport | Hartsfield Jackson Atlanta International Airport (KATL) |
Arrival
| Time | 2026-05-05 12:37 |
|---|---|
| Airport | Tokyo Haneda International Airport (RJTT) |
| Time | Latitude | Longitude | Altitude | Speed | Heading |
|---|---|---|---|---|---|
| 2026-05-04 21:00 | 33.63800 | -84.42047 | 1013 ft | 0 kts | 89° |
| 2026-05-04 22:14 | 33.63800 | -84.42059 | 1012 ft | 4 kts | 82° |
| 2026-05-04 22:14 | 33.63798 | -84.42091 | 1012 ft | 4 kts | 88° |
| 2026-05-04 22:14 | 33.63797 | -84.42123 | 1012 ft | 3 kts | 88° |
| 2026-05-04 22:14 | 33.63799 | -84.42147 | 1012 ft | 4 kts | 147° |
| 2026-05-04 22:15 | 33.63821 | -84.42149 | 1012 ft | 4 kts | 189° |
| 2026-05-04 22:15 | 33.63842 | -84.42146 | 1012 ft | 1 kts | 180° |
| 2026-05-04 22:15 | 33.63846 | -84.42146 | 1012 ft | 0 kts | 180° |
| 2026-05-04 22:18 | 33.63845 | -84.42146 | 1012 ft | 0 kts | 180° |
| 2026-05-04 22:18 | 33.63839 | -84.42146 | 1012 ft | 2 kts | 180° |
| 2026-05-04 22:19 | 33.63807 | -84.42146 | 1012 ft | 6 kts | 180° |
| 2026-05-04 22:19 | 33.63770 | -84.42146 | 1012 ft | 3 kts | 180° |
| 2026-05-04 22:19 | 33.63766 | -84.42146 | 1012 ft | 0 kts | 180° |
| 2026-05-04 22:20 | 33.63752 | -84.42146 | 1012 ft | 5 kts | 180° |
| 2026-05-04 22:21 | 33.63702 | -84.42145 | 1013 ft | 9 kts | 173° |
| 2026-05-04 22:21 | 33.63660 | -84.42085 | 1013 ft | 11 kts | 103° |
| 2026-05-04 22:21 | 33.63654 | -84.41983 | 1012 ft | 14 kts | 91° |
| 2026-05-04 22:21 | 33.63654 | -84.41863 | 1012 ft | 15 kts | 90° |
| 2026-05-04 22:22 | 33.63654 | -84.41743 | 1012 ft | 14 kts | 90° |
| 2026-05-04 22:22 | 33.63654 | -84.41626 | 1012 ft | 14 kts | 90° |
| 2026-05-04 22:22 | 33.63654 | -84.41508 | 1012 ft | 14 kts | 91° |
| 2026-05-04 22:22 | 33.63655 | -84.41392 | 1012 ft | 14 kts | 89° |
| 2026-05-04 22:23 | 33.63656 | -84.41277 | 1012 ft | 14 kts | 90° |
| 2026-05-04 22:23 | 33.63655 | -84.41166 | 1012 ft | 13 kts | 90° |
| 2026-05-04 22:23 | 33.63655 | -84.41057 | 1012 ft | 13 kts | 91° |
| 2026-05-04 22:23 | 33.63655 | -84.40950 | 1012 ft | 13 kts | 90° |
| 2026-05-04 22:24 | 33.63655 | -84.40845 | 1012 ft | 12 kts | 89° |
| 2026-05-04 22:24 | 33.63635 | -84.40754 | 1013 ft | 10 kts | 141° |
| 2026-05-04 22:24 | 33.63586 | -84.40744 | 1013 ft | 0 kts | 179° |
| 2026-05-04 22:25 | 33.63583 | -84.40744 | 1013 ft | 1 kts | 179° |
| 2026-05-04 22:25 | 33.63552 | -84.40744 | 1013 ft | 7 kts | 179° |
| 2026-05-04 22:25 | 33.63505 | -84.40744 | 1013 ft | 7 kts | 186° |
| 2026-05-04 22:26 | 33.63480 | -84.40778 | 1013 ft | 5 kts | 244° |
| 2026-05-04 22:26 | 33.63474 | -84.40809 | 1013 ft | 0 kts | 265° |
| 2026-05-04 22:26 | 33.63474 | -84.40813 | 1013 ft | 6 kts | 265° |
| 2026-05-04 22:26 | 33.63466 | -84.41125 | 1011 ft | 69 kts | 270° |
| 2026-05-04 22:27 | 33.63471 | -84.41930 | 1013 ft | 124 kts | 270° |
| 2026-05-04 22:27 | 33.63472 | -84.43171 | 1012 ft | 173 kts | 270° |
| 2026-05-04 22:27 | 33.63508 | -84.44633 | 1625 ft | 170 kts | 271° |
| 2026-05-04 22:27 | 33.63514 | -84.46069 | 2143 ft | 173 kts | 268° |
| 2026-05-04 22:28 | 33.63495 | -84.47532 | 2421 ft | 178 kts | 268° |
| 2026-05-04 22:28 | 33.63485 | -84.49006 | 2721 ft | 180 kts | 269° |
| 2026-05-04 22:28 | 33.63525 | -84.50523 | 3015 ft | 185 kts | 276° |
| 2026-05-04 22:28 | 33.64032 | -84.51938 | 3328 ft | 188 kts | 308° |
| 2026-05-04 22:29 | 33.64923 | -84.53090 | 3705 ft | 189 kts | 313° |
| 2026-05-04 22:29 | 33.65869 | -84.54189 | 4003 ft | 192 kts | 314° |
| 2026-05-04 22:29 | 33.66859 | -84.55338 | 4227 ft | 204 kts | 314° |
| 2026-05-04 22:29 | 33.67903 | -84.56557 | 4390 ft | 215 kts | 314° |
| 2026-05-04 22:30 | 33.69116 | -84.57714 | 4485 ft | 233 kts | 331° |
| 2026-05-04 22:30 | 33.70719 | -84.58237 | 4637 ft | 248 kts | 355° |
| 2026-05-04 22:30 | 33.72492 | -84.58260 | 4845 ft | 262 kts | 0° |
| 2026-05-04 22:30 | 33.74356 | -84.58206 | 5108 ft | 272 kts | 0° |
| 2026-05-04 22:31 | 33.76270 | -84.58163 | 5533 ft | 276 kts | 360° |
| 2026-05-04 22:31 | 33.78203 | -84.58119 | 6012 ft | 279 kts | 360° |
| 2026-05-04 22:31 | 33.80148 | -84.58091 | 6463 ft | 281 kts | 359° |
| 2026-05-04 22:31 | 33.82108 | -84.58068 | 6955 ft | 283 kts | 359° |
| 2026-05-04 22:32 | 33.84086 | -84.58106 | 7403 ft | 285 kts | 355° |
| 2026-05-04 22:32 | 33.86046 | -84.58520 | 7868 ft | 287 kts | 344° |
| 2026-05-04 22:32 | 33.87981 | -84.59138 | 8350 ft | 289 kts | 343° |
| 2026-05-04 22:32 | 33.89926 | -84.59776 | 8789 ft | 291 kts | 343° |
| 2026-05-04 22:33 | 33.91890 | -84.60418 | 9229 ft | 293 kts | 343° |
| 2026-05-04 22:33 | 33.93870 | -84.61063 | 9670 ft | 296 kts | 343° |
| 2026-05-04 22:33 | 33.95863 | -84.61710 | 10128 ft | 299 kts | 343° |
| 2026-05-04 22:33 | 33.97905 | -84.62371 | 10360 ft | 310 kts | 343° |
| 2026-05-04 22:34 | 34.00022 | -84.63057 | 10570 ft | 321 kts | 343° |
| 2026-05-04 22:34 | 34.02217 | -84.63767 | 10794 ft | 332 kts | 343° |
| 2026-05-04 22:34 | 34.04486 | -84.64503 | 11006 ft | 343 kts | 343° |
| 2026-05-04 22:34 | 34.06824 | -84.65261 | 11220 ft | 354 kts | 343° |
| 2026-05-04 22:35 | 34.09238 | -84.66043 | 11427 ft | 364 kts | 343° |
| 2026-05-04 22:35 | 34.11716 | -84.66847 | 11612 ft | 374 kts | 343° |
| 2026-05-04 22:35 | 34.14259 | -84.67670 | 11811 ft | 383 kts | 343° |
| 2026-05-04 22:35 | 34.16849 | -84.68509 | 12115 ft | 388 kts | 343° |
| 2026-05-04 22:36 | 34.19460 | -84.69356 | 12492 ft | 390 kts | 343° |
| 2026-05-04 22:36 | 34.22081 | -84.70206 | 12911 ft | 391 kts | 343° |
| 2026-05-04 22:36 | 34.24711 | -84.71059 | 13336 ft | 392 kts | 342° |
| 2026-05-04 22:36 | 34.27333 | -84.71958 | 13742 ft | 392 kts | 339° |
| 2026-05-04 22:37 | 34.29909 | -84.73052 | 14175 ft | 392 kts | 338° |
| 2026-05-04 22:37 | 34.32473 | -84.74180 | 14606 ft | 393 kts | 338° |
| 2026-05-04 22:37 | 34.35052 | -84.75301 | 15017 ft | 394 kts | 338° |
| 2026-05-04 22:37 | 34.37636 | -84.76411 | 15399 ft | 395 kts | 338° |
| 2026-05-04 22:38 | 34.40236 | -84.77521 | 15789 ft | 396 kts | 338° |
| 2026-05-04 22:38 | 34.42837 | -84.78629 | 16172 ft | 397 kts | 338° |
| 2026-05-04 22:38 | 34.45412 | -84.79724 | 16554 ft | 398 kts | 338° |
| 2026-05-04 22:38 | 34.48032 | -84.80837 | 16925 ft | 399 kts | 338° |
| 2026-05-04 22:39 | 34.50656 | -84.81952 | 17280 ft | 400 kts | 338° |
| 2026-05-04 22:39 | 34.53290 | -84.83071 | 17640 ft | 402 kts | 338° |
| 2026-05-04 22:39 | 34.55930 | -84.84194 | 18005 ft | 403 kts | 338° |
| 2026-05-04 22:39 | 34.58578 | -84.85320 | 18361 ft | 404 kts | 338° |
| 2026-05-04 22:40 | 34.61234 | -84.86449 | 18687 ft | 405 kts | 338° |
| 2026-05-04 22:40 | 34.63905 | -84.87584 | 18987 ft | 408 kts | 338° |
| 2026-05-04 22:40 | 34.66587 | -84.88727 | 19295 ft | 409 kts | 337° |
| 2026-05-04 22:40 | 34.69282 | -84.89877 | 19587 ft | 411 kts | 337° |
| 2026-05-04 22:41 | 34.71986 | -84.91032 | 19909 ft | 413 kts | 337° |
| 2026-05-04 22:41 | 34.74701 | -84.92190 | 20228 ft | 414 kts | 337° |
| 2026-05-04 22:41 | 34.77422 | -84.93355 | 20526 ft | 416 kts | 337° |
| 2026-05-04 22:41 | 34.80160 | -84.94525 | 20818 ft | 418 kts | 337° |
| 2026-05-04 22:42 | 34.82908 | -84.95700 | 21128 ft | 419 kts | 337° |
| 2026-05-04 22:42 | 34.85664 | -84.96880 | 21419 ft | 421 kts | 337° |
| 2026-05-04 22:42 | 34.88433 | -84.98073 | 21765 ft | 422 kts | 336° |
| 2026-05-04 22:42 | 34.91211 | -84.99254 | 22042 ft | 424 kts | 336° |
| 2026-05-04 22:43 | 34.93056 | -85.00044 | 22243 ft | 425 kts | 337° |
| 2026-05-04 22:43 | 34.96796 | -85.01648 | 22611 ft | 427 kts | 336° |
| 2026-05-04 22:43 | 34.98657 | -85.02449 | 22789 ft | 428 kts | 336° |
| 2026-05-04 22:43 | 35.01472 | -85.03661 | 23057 ft | 430 kts | 336° |
| 2026-05-04 22:44 | 35.04294 | -85.04874 | 23337 ft | 430 kts | 336° |
| 2026-05-04 22:44 | 35.07123 | -85.06091 | 23566 ft | 433 kts | 336° |
| 2026-05-04 22:44 | 35.09962 | -85.07350 | 23861 ft | 433 kts | 334° |
| 2026-05-04 22:44 | 35.12649 | -85.08967 | 24120 ft | 430 kts | 325° |
| 2026-05-04 22:45 | 35.15176 | -85.10922 | 24380 ft | 430 kts | 323° |
| 2026-05-04 22:45 | 35.20176 | -85.14976 | 24896 ft | 433 kts | 323° |
| 2026-05-04 22:45 | 35.22685 | -85.17014 | 25151 ft | 434 kts | 323° |
| 2026-05-04 22:46 | 35.25204 | -85.19058 | 25415 ft | 435 kts | 323° |
| 2026-05-04 22:46 | 35.27731 | -85.21111 | 25635 ft | 436 kts | 323° |
| 2026-05-04 22:46 | 35.30263 | -85.23166 | 25896 ft | 438 kts | 322° |
| 2026-05-04 22:46 | 35.32803 | -85.25226 | 26182 ft | 439 kts | 322° |
| 2026-05-04 22:47 | 35.35353 | -85.27297 | 26392 ft | 440 kts | 322° |
| 2026-05-04 22:47 | 35.37909 | -85.29378 | 26648 ft | 442 kts | 322° |
| 2026-05-04 22:47 | 35.40477 | -85.31467 | 26917 ft | 443 kts | 322° |
| 2026-05-04 22:47 | 35.43047 | -85.33559 | 27169 ft | 444 kts | 322° |
| 2026-05-04 22:48 | 35.45622 | -85.35657 | 27403 ft | 446 kts | 322° |
| 2026-05-04 22:48 | 35.48210 | -85.37767 | 27648 ft | 447 kts | 322° |
| 2026-05-04 22:48 | 35.50805 | -85.39884 | 27870 ft | 448 kts | 322° |
| 2026-05-04 22:48 | 35.53403 | -85.42006 | 28103 ft | 450 kts | 322° |
| 2026-05-04 22:49 | 35.56011 | -85.44137 | 28321 ft | 451 kts | 322° |
| 2026-05-04 22:49 | 35.58619 | -85.46273 | 28564 ft | 451 kts | 322° |
| 2026-05-04 22:49 | 35.61246 | -85.48403 | 28760 ft | 453 kts | 324° |
| 2026-05-04 22:49 | 35.63968 | -85.50387 | 28938 ft | 457 kts | 326° |
| 2026-05-04 22:50 | 35.66764 | -85.52263 | 29144 ft | 458 kts | 327° |
| 2026-05-04 22:50 | 35.69584 | -85.54105 | 29321 ft | 460 kts | 328° |
| 2026-05-04 22:50 | 35.72415 | -85.55957 | 29489 ft | 461 kts | 328° |
| 2026-05-04 22:50 | 35.75249 | -85.57833 | 29646 ft | 463 kts | 327° |
| 2026-05-04 22:51 | 35.78076 | -85.59734 | 29835 ft | 463 kts | 327° |
| 2026-05-04 22:51 | 35.80892 | -85.61651 | 30047 ft | 463 kts | 327° |
| 2026-05-04 22:51 | 35.83703 | -85.63578 | 30297 ft | 462 kts | 326° |
| 2026-05-04 22:51 | 35.86501 | -85.65504 | 30547 ft | 461 kts | 326° |
| 2026-05-04 22:52 | 35.89303 | -85.67435 | 30773 ft | 460 kts | 326° |
| 2026-05-04 22:52 | 35.92095 | -85.69360 | 31012 ft | 459 kts | 326° |
| 2026-05-04 22:52 | 35.94882 | -85.71281 | 31244 ft | 459 kts | 326° |
| 2026-05-04 22:52 | 35.97666 | -85.73199 | 31459 ft | 458 kts | 326° |
| 2026-05-04 22:53 | 36.00448 | -85.75116 | 31649 ft | 457 kts | 326° |
| 2026-05-04 22:53 | 36.03222 | -85.77027 | 31867 ft | 457 kts | 326° |
| 2026-05-04 22:53 | 36.05994 | -85.78942 | 32072 ft | 456 kts | 326° |
| 2026-05-04 22:53 | 36.08756 | -85.80854 | 32331 ft | 454 kts | 326° |
| 2026-05-04 22:54 | 36.11469 | -85.82733 | 32536 ft | 453 kts | 326° |
| 2026-05-04 22:54 | 36.14217 | -85.84638 | 32703 ft | 453 kts | 326° |
| 2026-05-04 22:54 | 36.16960 | -85.86541 | 32874 ft | 452 kts | 326° |
| 2026-05-04 22:54 | 36.19741 | -85.88470 | 33039 ft | 452 kts | 326° |
| 2026-05-04 22:55 | 36.22445 | -85.90346 | 33200 ft | 452 kts | 326° |
| 2026-05-04 22:55 | 36.25184 | -85.92250 | 33362 ft | 451 kts | 326° |
| 2026-05-04 22:55 | 36.27914 | -85.94149 | 33557 ft | 450 kts | 326° |
| 2026-05-04 22:55 | 36.30642 | -85.96047 | 33734 ft | 449 kts | 326° |
| 2026-05-04 22:56 | 36.33361 | -85.97939 | 33893 ft | 449 kts | 326° |
| 2026-05-04 22:56 | 36.36124 | -85.99865 | 33934 ft | 451 kts | 326° |
| 2026-05-04 22:56 | 36.41586 | -86.03677 | 33918 ft | 455 kts | 326° |
| 2026-05-04 22:57 | 36.47101 | -86.07537 | 33929 ft | 455 kts | 326° |
| 2026-05-04 22:57 | 36.52611 | -86.11403 | 33934 ft | 455 kts | 326° |
| 2026-05-04 22:58 | 36.58119 | -86.15271 | 33935 ft | 455 kts | 326° |
| 2026-05-04 22:58 | 36.63633 | -86.19140 | 33933 ft | 455 kts | 326° |
| 2026-05-04 22:59 | 36.69141 | -86.23014 | 33925 ft | 455 kts | 326° |
| 2026-05-04 22:59 | 36.74656 | -86.26901 | 33922 ft | 455 kts | 326° |
| 2026-05-04 23:00 | 36.80171 | -86.30794 | 33916 ft | 455 kts | 326° |
| 2026-05-04 23:00 | 36.85680 | -86.34689 | 33913 ft | 455 kts | 326° |
| 2026-05-04 23:01 | 36.91182 | -86.38589 | 33910 ft | 455 kts | 326° |
| 2026-05-04 23:01 | 36.96843 | -86.42165 | 33900 ft | 460 kts | 335° |
| 2026-05-04 23:02 | 37.03019 | -86.44454 | 33897 ft | 465 kts | 340° |
| 2026-05-04 23:02 | 37.09294 | -86.46452 | 33898 ft | 466 kts | 341° |
| 2026-05-04 23:03 | 37.15578 | -86.48402 | 33898 ft | 465 kts | 341° |
| 2026-05-04 23:03 | 37.21857 | -86.50376 | 33885 ft | 465 kts | 341° |
| 2026-05-04 23:04 | 37.28130 | -86.52368 | 33879 ft | 465 kts | 341° |
| 2026-05-04 23:04 | 37.34405 | -86.54369 | 33879 ft | 465 kts | 341° |
| 2026-05-04 23:05 | 37.40676 | -86.56374 | 33869 ft | 465 kts | 341° |
| 2026-05-04 23:05 | 37.46947 | -86.58381 | 33870 ft | 465 kts | 341° |
| 2026-05-04 23:06 | 37.53180 | -86.60372 | 33861 ft | 465 kts | 341° |
| 2026-05-04 23:06 | 37.59443 | -86.62382 | 33859 ft | 464 kts | 341° |
| 2026-05-04 23:07 | 37.65695 | -86.64396 | 33859 ft | 464 kts | 341° |
| 2026-05-04 23:07 | 37.71958 | -86.66415 | 33858 ft | 464 kts | 341° |
| 2026-05-04 23:08 | 37.78217 | -86.68432 | 33851 ft | 464 kts | 341° |
| 2026-05-04 23:08 | 37.84480 | -86.70456 | 33842 ft | 464 kts | 341° |
| 2026-05-04 23:09 | 37.90739 | -86.72482 | 33842 ft | 464 kts | 341° |
| 2026-05-04 23:09 | 37.96995 | -86.74509 | 33830 ft | 464 kts | 341° |
| 2026-05-04 23:10 | 38.03256 | -86.76544 | 33830 ft | 465 kts | 341° |
| 2026-05-04 23:10 | 38.09519 | -86.78583 | 33834 ft | 465 kts | 341° |
| 2026-05-04 23:11 | 38.15779 | -86.80624 | 33823 ft | 465 kts | 341° |
| 2026-05-04 23:11 | 38.22047 | -86.82668 | 33816 ft | 465 kts | 341° |
| 2026-05-04 23:12 | 38.28315 | -86.84718 | 33814 ft | 465 kts | 341° |
| 2026-05-04 23:12 | 38.34583 | -86.86772 | 33813 ft | 465 kts | 341° |
| 2026-05-04 23:13 | 38.40848 | -86.88830 | 33813 ft | 465 kts | 341° |
| 2026-05-04 23:13 | 38.47110 | -86.90893 | 33804 ft | 465 kts | 341° |
| 2026-05-04 23:14 | 38.53377 | -86.92958 | 33803 ft | 465 kts | 341° |
| 2026-05-04 23:14 | 38.59641 | -86.95024 | 33794 ft | 465 kts | 341° |
| 2026-05-04 23:15 | 38.65910 | -86.97096 | 33786 ft | 466 kts | 341° |
| 2026-05-04 23:15 | 38.72184 | -86.99175 | 33781 ft | 466 kts | 341° |
| 2026-05-04 23:16 | 38.78459 | -87.01258 | 33763 ft | 466 kts | 341° |
| 2026-05-04 23:16 | 38.84702 | -87.03332 | 33763 ft | 467 kts | 341° |
| 2026-05-04 23:17 | 38.90986 | -87.05425 | 33763 ft | 467 kts | 341° |
| 2026-05-04 23:17 | 38.97277 | -87.07524 | 33775 ft | 467 kts | 341° |
| 2026-05-04 23:18 | 39.03566 | -87.09627 | 33763 ft | 467 kts | 341° |
| 2026-05-04 23:18 | 39.09859 | -87.11735 | 33757 ft | 468 kts | 341° |
| 2026-05-04 23:19 | 39.16159 | -87.13849 | 33757 ft | 468 kts | 342° |
| 2026-05-04 23:19 | 39.22464 | -87.15968 | 33743 ft | 469 kts | 342° |
| 2026-05-04 23:20 | 39.28777 | -87.18094 | 33737 ft | 469 kts | 342° |
| 2026-05-04 23:20 | 39.35092 | -87.20226 | 33738 ft | 469 kts | 342° |
| 2026-05-04 23:21 | 39.41420 | -87.22364 | 33738 ft | 470 kts | 342° |
| 2026-05-04 23:21 | 39.47705 | -87.24659 | 33729 ft | 468 kts | 336° |
| 2026-05-04 23:22 | 39.53511 | -87.28351 | 33730 ft | 465 kts | 328° |
| 2026-05-04 23:22 | 39.59127 | -87.32518 | 33732 ft | 465 kts | 327° |
| 2026-05-04 23:23 | 39.64709 | -87.36769 | 33731 ft | 466 kts | 327° |
| 2026-05-04 23:23 | 39.70303 | -87.41025 | 33729 ft | 466 kts | 327° |
| 2026-05-04 23:24 | 39.75908 | -87.45278 | 33729 ft | 467 kts | 327° |
| 2026-05-04 23:24 | 39.81482 | -87.49505 | 33729 ft | 467 kts | 327° |
| 2026-05-04 23:25 | 39.87102 | -87.53774 | 33724 ft | 468 kts | 327° |
| 2026-05-04 23:25 | 39.92725 | -87.58058 | 33720 ft | 468 kts | 327° |
| 2026-05-04 23:26 | 39.98388 | -87.62269 | 33714 ft | 471 kts | 332° |
| 2026-05-04 23:26 | 40.04379 | -87.65765 | 33712 ft | 472 kts | 334° |
| 2026-05-04 23:27 | 40.10431 | -87.69121 | 33701 ft | 473 kts | 334° |
| 2026-05-04 23:27 | 40.16502 | -87.72463 | 33700 ft | 473 kts | 334° |
| 2026-05-04 23:28 | 40.22563 | -87.75813 | 33700 ft | 473 kts | 334° |
| 2026-05-04 23:28 | 40.28621 | -87.79182 | 33700 ft | 473 kts | 334° |
| 2026-05-04 23:29 | 40.34682 | -87.82558 | 33689 ft | 473 kts | 334° |
| 2026-05-04 23:29 | 40.39717 | -87.85370 | 33686 ft | 473 kts | 334° |
| 2026-05-04 23:30 | 40.45773 | -87.88755 | 33685 ft | 473 kts | 334° |
| 2026-05-04 23:30 | 40.51812 | -87.92139 | 33667 ft | 472 kts | 334° |
| 2026-05-04 23:31 | 40.57850 | -87.95531 | 33683 ft | 472 kts | 334° |
| 2026-05-04 23:31 | 40.63887 | -87.98922 | 33665 ft | 472 kts | 334° |
| 2026-05-04 23:32 | 40.69920 | -88.02317 | 33646 ft | 472 kts | 334° |
| 2026-05-04 23:32 | 40.75955 | -88.05728 | 33647 ft | 472 kts | 334° |
| 2026-05-04 23:33 | 40.81984 | -88.09138 | 33635 ft | 472 kts | 334° |
| 2026-05-04 23:33 | 40.88017 | -88.12556 | 33630 ft | 471 kts | 333° |
| 2026-05-04 23:34 | 40.94042 | -88.15983 | 33628 ft | 471 kts | 333° |
| 2026-05-04 23:34 | 41.00063 | -88.19411 | 33615 ft | 471 kts | 333° |
| 2026-05-04 23:35 | 41.06076 | -88.22838 | 33618 ft | 471 kts | 333° |
| 2026-05-04 23:35 | 41.12092 | -88.26276 | 33608 ft | 470 kts | 333° |
| 2026-05-04 23:36 | 41.18063 | -88.29691 | 33609 ft | 470 kts | 333° |
| 2026-05-04 23:36 | 41.24067 | -88.33138 | 33608 ft | 470 kts | 333° |
| 2026-05-04 23:37 | 41.30071 | -88.36588 | 33608 ft | 470 kts | 333° |
| 2026-05-04 23:37 | 41.36073 | -88.40047 | 33608 ft | 470 kts | 333° |
| 2026-05-04 23:38 | 41.42068 | -88.43506 | 33608 ft | 470 kts | 333° |
| 2026-05-04 23:38 | 41.48060 | -88.46974 | 33608 ft | 469 kts | 333° |
| 2026-05-04 23:39 | 41.54047 | -88.50446 | 33608 ft | 469 kts | 333° |
| 2026-05-04 23:39 | 41.60037 | -88.53927 | 33600 ft | 469 kts | 333° |
| 2026-05-04 23:40 | 41.66023 | -88.57409 | 33599 ft | 469 kts | 333° |
| 2026-05-04 23:40 | 41.72010 | -88.60898 | 33592 ft | 469 kts | 333° |
| 2026-05-04 23:41 | 41.77993 | -88.64396 | 33599 ft | 469 kts | 333° |
| 2026-05-04 23:41 | 41.83976 | -88.67897 | 33598 ft | 469 kts | 333° |
| 2026-05-04 23:42 | 41.89954 | -88.71402 | 33608 ft | 469 kts | 332° |
| 2026-05-04 23:42 | 41.95928 | -88.74914 | 33608 ft | 469 kts | 332° |
| 2026-05-04 23:43 | 42.01895 | -88.78429 | 33602 ft | 469 kts | 332° |
| 2026-05-04 23:43 | 42.07862 | -88.81949 | 33599 ft | 467 kts | 332° |
| 2026-05-04 23:44 | 42.13812 | -88.85469 | 33584 ft | 467 kts | 332° |
| 2026-05-04 23:44 | 42.19753 | -88.88994 | 33575 ft | 467 kts | 332° |
| 2026-05-04 23:45 | 42.25697 | -88.92524 | 33561 ft | 467 kts | 332° |
| 2026-05-04 23:45 | 42.31604 | -88.96034 | 33562 ft | 466 kts | 331° |
| 2026-05-04 23:46 | 42.37542 | -88.99574 | 33561 ft | 466 kts | 331° |
| 2026-05-04 23:46 | 42.43482 | -89.03123 | 33556 ft | 466 kts | 331° |
| 2026-05-04 23:47 | 42.49416 | -89.06680 | 33549 ft | 466 kts | 331° |
| 2026-05-04 23:47 | 42.55383 | -89.10167 | 33546 ft | 469 kts | 335° |
| 2026-05-04 23:48 | 42.61632 | -89.12850 | 33541 ft | 472 kts | 338° |
| 2026-05-04 23:48 | 42.67933 | -89.15363 | 33545 ft | 472 kts | 338° |
| 2026-05-04 23:49 | 42.74243 | -89.17851 | 33540 ft | 472 kts | 338° |
| 2026-05-04 23:49 | 42.80549 | -89.20351 | 33545 ft | 472 kts | 338° |
| 2026-05-04 23:50 | 42.86847 | -89.22860 | 33546 ft | 472 kts | 338° |
| 2026-05-04 23:50 | 42.93139 | -89.25378 | 33547 ft | 471 kts | 338° |
| 2026-05-04 23:51 | 42.99424 | -89.27901 | 33535 ft | 470 kts | 337° |
| 2026-05-04 23:51 | 43.05707 | -89.30427 | 33528 ft | 470 kts | 337° |
| 2026-05-04 23:52 | 43.11953 | -89.33062 | 33537 ft | 466 kts | 332° |
| 2026-05-04 23:52 | 43.17548 | -89.37221 | 33530 ft | 453 kts | 319° |
| 2026-05-04 23:53 | 43.22596 | -89.42267 | 33543 ft | 452 kts | 317° |
| 2026-05-04 23:53 | 43.27586 | -89.47493 | 33549 ft | 450 kts | 317° |
| 2026-05-04 23:54 | 43.32557 | -89.52720 | 33560 ft | 450 kts | 316° |
| 2026-05-04 23:54 | 43.37530 | -89.57933 | 33571 ft | 449 kts | 316° |
| 2026-05-04 23:55 | 43.42501 | -89.63135 | 33581 ft | 449 kts | 316° |
| 2026-05-04 23:56 | 43.49945 | -89.70940 | 33581 ft | 448 kts | 316° |
| 2026-05-04 23:56 | 43.54976 | -89.76019 | 33579 ft | 452 kts | 322° |
| 2026-05-04 23:57 | 43.60519 | -89.80213 | 33580 ft | 456 kts | 325° |
| 2026-05-04 23:57 | 43.66165 | -89.84211 | 33589 ft | 456 kts | 326° |
| 2026-05-04 23:58 | 43.71825 | -89.88181 | 33590 ft | 456 kts | 326° |
| 2026-05-04 23:58 | 43.77469 | -89.92161 | 33589 ft | 455 kts | 325° |
| 2026-05-04 23:59 | 43.83102 | -89.96159 | 33589 ft | 455 kts | 325° |
| 2026-05-04 23:59 | 43.88725 | -90.00168 | 33579 ft | 455 kts | 325° |
| 2026-05-05 00:00 | 43.94347 | -90.04181 | 33587 ft | 454 kts | 325° |
| 2026-05-05 00:00 | 43.99967 | -90.08193 | 33590 ft | 454 kts | 325° |
| 2026-05-05 00:01 | 44.05584 | -90.12215 | 33582 ft | 454 kts | 325° |
| 2026-05-05 00:01 | 44.11200 | -90.16246 | 33562 ft | 454 kts | 325° |
| 2026-05-05 00:02 | 44.16813 | -90.20283 | 33569 ft | 454 kts | 325° |
| 2026-05-05 00:02 | 44.22419 | -90.24326 | 33581 ft | 453 kts | 325° |
| 2026-05-05 00:03 | 44.28020 | -90.28371 | 33582 ft | 453 kts | 324° |
| 2026-05-05 00:03 | 44.33619 | -90.32424 | 33590 ft | 453 kts | 324° |
| 2026-05-05 00:04 | 44.39166 | -90.36451 | 33598 ft | 452 kts | 324° |
| 2026-05-05 00:04 | 44.44750 | -90.40511 | 33598 ft | 452 kts | 324° |
| 2026-05-05 00:05 | 44.50323 | -90.44572 | 33599 ft | 451 kts | 324° |
| 2026-05-05 00:05 | 44.55891 | -90.48636 | 33598 ft | 451 kts | 324° |
| 2026-05-05 00:06 | 44.61451 | -90.52706 | 33599 ft | 450 kts | 324° |
| 2026-05-05 00:06 | 44.67000 | -90.56777 | 33599 ft | 450 kts | 324° |
| 2026-05-05 00:07 | 44.72541 | -90.60849 | 33604 ft | 449 kts | 323° |
| 2026-05-05 00:07 | 44.78070 | -90.64922 | 33607 ft | 448 kts | 323° |
| 2026-05-05 00:08 | 44.83593 | -90.68999 | 33609 ft | 448 kts | 323° |
| 2026-05-05 00:08 | 44.89104 | -90.73076 | 33607 ft | 447 kts | 323° |
| 2026-05-05 00:09 | 44.94608 | -90.77160 | 33608 ft | 447 kts | 323° |
| 2026-05-05 00:09 | 45.00102 | -90.81243 | 33616 ft | 446 kts | 323° |
| 2026-05-05 00:10 | 45.05556 | -90.85303 | 33616 ft | 446 kts | 323° |
| 2026-05-05 00:10 | 45.11039 | -90.89395 | 33626 ft | 445 kts | 323° |
| 2026-05-05 00:11 | 45.16513 | -90.93486 | 33628 ft | 444 kts | 323° |
| 2026-05-05 00:11 | 45.21976 | -90.97583 | 33636 ft | 444 kts | 323° |
| 2026-05-05 00:12 | 45.27439 | -91.01691 | 33638 ft | 444 kts | 322° |
| 2026-05-05 00:12 | 45.32894 | -91.05796 | 33655 ft | 444 kts | 322° |
| 2026-05-05 00:13 | 45.38343 | -91.09909 | 33655 ft | 443 kts | 322° |
| 2026-05-05 00:13 | 45.43793 | -91.14030 | 33656 ft | 443 kts | 322° |
| 2026-05-05 00:14 | 45.49221 | -91.18141 | 33653 ft | 441 kts | 322° |
| 2026-05-05 00:14 | 45.54637 | -91.22257 | 33652 ft | 441 kts | 322° |
| 2026-05-05 00:15 | 45.60049 | -91.26377 | 33656 ft | 441 kts | 322° |
| 2026-05-05 00:15 | 45.65452 | -91.30499 | 33657 ft | 440 kts | 322° |
| 2026-05-05 00:16 | 45.70844 | -91.34624 | 33655 ft | 439 kts | 322° |
| 2026-05-05 00:16 | 45.76230 | -91.38754 | 33663 ft | 438 kts | 322° |
| 2026-05-05 00:17 | 45.81593 | -91.42868 | 33666 ft | 436 kts | 321° |
| 2026-05-05 00:17 | 45.86936 | -91.46978 | 33662 ft | 436 kts | 321° |
| 2026-05-05 00:18 | 45.92278 | -91.51104 | 33663 ft | 436 kts | 321° |
| 2026-05-05 00:18 | 45.97615 | -91.55229 | 33667 ft | 435 kts | 321° |
| 2026-05-05 00:19 | 46.02905 | -91.59323 | 33664 ft | 435 kts | 321° |
| 2026-05-05 00:19 | 46.08241 | -91.63470 | 33664 ft | 436 kts | 321° |
| 2026-05-05 00:20 | 46.13580 | -91.67623 | 33668 ft | 436 kts | 321° |
| 2026-05-05 00:20 | 46.18052 | -91.71111 | 33668 ft | 436 kts | 321° |
| 2026-05-05 00:21 | 46.23384 | -91.75278 | 33683 ft | 436 kts | 321° |
| 2026-05-05 00:21 | 46.28716 | -91.79449 | 33682 ft | 436 kts | 321° |
| 2026-05-05 00:22 | 46.34048 | -91.83638 | 33683 ft | 436 kts | 321° |
| 2026-05-05 00:22 | 46.39347 | -91.87811 | 33686 ft | 436 kts | 321° |
| 2026-05-05 00:23 | 46.44688 | -91.92023 | 33681 ft | 437 kts | 321° |
| 2026-05-05 00:23 | 46.50037 | -91.96249 | 33667 ft | 438 kts | 321° |
| 2026-05-05 00:24 | 46.55393 | -92.00490 | 33680 ft | 439 kts | 321° |
| 2026-05-05 00:24 | 46.60754 | -92.04747 | 33682 ft | 441 kts | 322° |
| 2026-05-05 00:25 | 46.66142 | -92.09035 | 33669 ft | 442 kts | 322° |
| 2026-05-05 00:25 | 46.71538 | -92.13339 | 33684 ft | 443 kts | 322° |
| 2026-05-05 00:26 | 46.76957 | -92.17669 | 33671 ft | 445 kts | 322° |
| 2026-05-05 00:26 | 46.82143 | -92.22450 | 33662 ft | 438 kts | 316° |
| 2026-05-05 00:27 | 46.87053 | -92.27725 | 33658 ft | 438 kts | 315° |
| 2026-05-05 00:27 | 46.91928 | -92.33104 | 33657 ft | 440 kts | 315° |
| 2026-05-05 00:28 | 46.96819 | -92.38517 | 33658 ft | 442 kts | 315° |
| 2026-05-05 00:28 | 47.01730 | -92.43948 | 33656 ft | 443 kts | 316° |
| 2026-05-05 00:29 | 47.06656 | -92.49401 | 33654 ft | 444 kts | 316° |
| 2026-05-05 00:29 | 47.11587 | -92.54871 | 33663 ft | 445 kts | 316° |
| 2026-05-05 00:30 | 47.16529 | -92.60371 | 33660 ft | 446 kts | 316° |
| 2026-05-05 00:30 | 47.21482 | -92.65894 | 33662 ft | 447 kts | 316° |
| 2026-05-05 00:31 | 47.26441 | -92.71435 | 33660 ft | 448 kts | 316° |
| 2026-05-05 00:31 | 47.31414 | -92.77009 | 33660 ft | 450 kts | 316° |
| 2026-05-05 00:32 | 47.36359 | -92.82563 | 33661 ft | 450 kts | 316° |
| 2026-05-05 00:32 | 47.41336 | -92.88167 | 33666 ft | 450 kts | 316° |
| 2026-05-05 00:33 | 47.46318 | -92.93791 | 33660 ft | 450 kts | 316° |
| 2026-05-05 00:33 | 47.51301 | -92.99429 | 33664 ft | 451 kts | 316° |
| 2026-05-05 00:34 | 47.56293 | -93.05090 | 33664 ft | 452 kts | 316° |
| 2026-05-05 00:34 | 47.61286 | -93.10770 | 33663 ft | 453 kts | 317° |
| 2026-05-05 00:35 | 47.66282 | -93.16464 | 33663 ft | 453 kts | 317° |
| 2026-05-05 00:35 | 47.71283 | -93.22181 | 33665 ft | 454 kts | 317° |
| 2026-05-05 00:36 | 47.76292 | -93.27920 | 33663 ft | 455 kts | 317° |
| 2026-05-05 00:36 | 47.81307 | -93.33677 | 33668 ft | 456 kts | 317° |
| 2026-05-05 00:37 | 47.86331 | -93.39458 | 33662 ft | 457 kts | 317° |
| 2026-05-05 00:37 | 47.91368 | -93.45269 | 33663 ft | 458 kts | 317° |
| 2026-05-05 00:38 | 47.96398 | -93.51095 | 33670 ft | 458 kts | 317° |
| 2026-05-05 00:38 | 48.01437 | -93.56942 | 33670 ft | 459 kts | 317° |
| 2026-05-05 00:39 | 48.06491 | -93.62819 | 33667 ft | 462 kts | 318° |
| 2026-05-05 00:39 | 48.11566 | -93.68736 | 33670 ft | 463 kts | 318° |
| 2026-05-05 00:40 | 48.16640 | -93.74666 | 33674 ft | 463 kts | 318° |
| 2026-05-05 00:40 | 48.21710 | -93.80608 | 33680 ft | 463 kts | 318° |
| 2026-05-05 00:41 | 48.26778 | -93.86566 | 33685 ft | 463 kts | 318° |
| 2026-05-05 00:41 | 48.31808 | -93.92489 | 33681 ft | 463 kts | 317° |
| 2026-05-05 00:42 | 48.36866 | -93.98468 | 33683 ft | 462 kts | 317° |
| 2026-05-05 00:42 | 48.41920 | -94.04454 | 33682 ft | 463 kts | 318° |
| 2026-05-05 00:43 | 48.46976 | -94.10459 | 33691 ft | 463 kts | 317° |
| 2026-05-05 00:43 | 48.52034 | -94.16480 | 33692 ft | 463 kts | 318° |
| 2026-05-05 00:44 | 48.57085 | -94.22510 | 33693 ft | 463 kts | 318° |
| 2026-05-05 00:44 | 48.62144 | -94.28566 | 33704 ft | 464 kts | 318° |
| 2026-05-05 00:45 | 48.67202 | -94.34633 | 33701 ft | 464 kts | 318° |
| 2026-05-05 00:45 | 48.72264 | -94.40723 | 33706 ft | 465 kts | 318° |
| 2026-05-05 00:46 | 48.77329 | -94.46831 | 33711 ft | 466 kts | 318° |
| 2026-05-05 00:46 | 48.82402 | -94.52963 | 33710 ft | 466 kts | 318° |
| 2026-05-05 00:47 | 48.87471 | -94.59112 | 33712 ft | 467 kts | 318° |
| 2026-05-05 00:47 | 48.92548 | -94.65286 | 33718 ft | 468 kts | 318° |
| 2026-05-05 00:48 | 48.97595 | -94.71439 | 33725 ft | 468 kts | 319° |
| 2026-05-05 00:48 | 49.02680 | -94.77654 | 33727 ft | 468 kts | 319° |
| 2026-05-05 00:49 | 49.07766 | -94.83884 | 33741 ft | 469 kts | 319° |
| 2026-05-05 00:49 | 49.12846 | -94.90131 | 33739 ft | 469 kts | 319° |
| 2026-05-05 00:50 | 49.17933 | -94.96403 | 33738 ft | 470 kts | 319° |
| 2026-05-05 00:50 | 49.23019 | -95.02689 | 33737 ft | 470 kts | 319° |
| 2026-05-05 00:51 | 49.28105 | -95.08993 | 33738 ft | 471 kts | 319° |
| 2026-05-05 00:51 | 49.33188 | -95.15308 | 33741 ft | 471 kts | 319° |
| 2026-05-05 00:52 | 49.38277 | -95.21647 | 33740 ft | 471 kts | 319° |
| 2026-05-05 00:52 | 49.43361 | -95.28000 | 33740 ft | 471 kts | 319° |
| 2026-05-05 00:53 | 49.48444 | -95.34370 | 33740 ft | 472 kts | 319° |
| 2026-05-05 00:53 | 49.53528 | -95.40757 | 33740 ft | 472 kts | 319° |
| 2026-05-05 00:54 | 49.58615 | -95.47166 | 33740 ft | 472 kts | 319° |
| 2026-05-05 00:54 | 49.63699 | -95.53588 | 33742 ft | 473 kts | 319° |
| 2026-05-05 00:55 | 49.68787 | -95.60034 | 33752 ft | 473 kts | 319° |
| 2026-05-05 00:55 | 49.73877 | -95.66500 | 33763 ft | 473 kts | 319° |
| 2026-05-05 00:56 | 49.78925 | -95.72934 | 33763 ft | 474 kts | 319° |
| 2026-05-05 00:56 | 49.84015 | -95.79438 | 33786 ft | 474 kts | 319° |
| 2026-05-05 00:57 | 49.89102 | -95.85952 | 33785 ft | 475 kts | 319° |
| 2026-05-05 00:57 | 49.94185 | -95.92483 | 33786 ft | 475 kts | 319° |
| 2026-05-05 00:58 | 49.99272 | -95.99038 | 33785 ft | 475 kts | 319° |
| 2026-05-05 00:58 | 50.04404 | -96.05512 | 33785 ft | 475 kts | 320° |
| 2026-05-05 00:59 | 50.09611 | -96.11832 | 33786 ft | 475 kts | 321° |
| 2026-05-05 00:59 | 50.14818 | -96.18170 | 33794 ft | 475 kts | 320° |
| 2026-05-05 01:00 | 50.20006 | -96.24548 | 33794 ft | 475 kts | 320° |
| 2026-05-05 01:00 | 50.25189 | -96.30960 | 33794 ft | 476 kts | 320° |
| 2026-05-05 01:01 | 50.30373 | -96.37392 | 33795 ft | 475 kts | 320° |
| 2026-05-05 01:01 | 50.35546 | -96.43830 | 33794 ft | 475 kts | 320° |
| 2026-05-05 01:02 | 50.40720 | -96.50289 | 33796 ft | 475 kts | 320° |
| 2026-05-05 01:02 | 50.45891 | -96.56756 | 33795 ft | 475 kts | 320° |
| 2026-05-05 01:03 | 50.51057 | -96.63237 | 33795 ft | 476 kts | 320° |
| 2026-05-05 01:03 | 50.56224 | -96.69742 | 33794 ft | 476 kts | 320° |
| 2026-05-05 01:04 | 50.61350 | -96.76209 | 33795 ft | 475 kts | 320° |
| 2026-05-05 01:04 | 50.69086 | -96.86010 | 33795 ft | 476 kts | 321° |
| 2026-05-05 01:05 | 50.74245 | -96.92565 | 33794 ft | 476 kts | 321° |
| 2026-05-05 01:05 | 50.79400 | -96.99135 | 33804 ft | 476 kts | 321° |
| 2026-05-05 01:06 | 50.84549 | -97.05718 | 33804 ft | 476 kts | 321° |
| 2026-05-05 01:06 | 50.89692 | -97.12317 | 33803 ft | 476 kts | 321° |
| 2026-05-05 01:07 | 50.94830 | -97.18928 | 33804 ft | 476 kts | 321° |
| 2026-05-05 01:07 | 50.99972 | -97.25558 | 33811 ft | 476 kts | 321° |
| 2026-05-05 01:08 | 51.04242 | -97.31079 | 33813 ft | 477 kts | 321° |
| 2026-05-05 01:08 | 51.09380 | -97.37746 | 33814 ft | 476 kts | 321° |
| 2026-05-05 01:09 | 51.14513 | -97.44425 | 33819 ft | 476 kts | 321° |
| 2026-05-05 01:09 | 51.19637 | -97.51108 | 33813 ft | 476 kts | 321° |
| 2026-05-05 01:10 | 51.24770 | -97.57829 | 33813 ft | 477 kts | 321° |
| 2026-05-05 01:10 | 51.29892 | -97.64549 | 33813 ft | 477 kts | 321° |
| 2026-05-05 01:11 | 51.35015 | -97.71291 | 33813 ft | 477 kts | 321° |
| 2026-05-05 01:11 | 51.40138 | -97.78053 | 33814 ft | 478 kts | 321° |
| 2026-05-05 01:12 | 51.45260 | -97.84835 | 33819 ft | 478 kts | 321° |
| 2026-05-05 01:12 | 51.50377 | -97.91634 | 33831 ft | 477 kts | 321° |
| 2026-05-05 01:13 | 51.55493 | -97.98453 | 33831 ft | 478 kts | 321° |
| 2026-05-05 01:13 | 51.60607 | -98.05284 | 33832 ft | 478 kts | 321° |
| 2026-05-05 01:14 | 51.65717 | -98.12132 | 33831 ft | 478 kts | 321° |
| 2026-05-05 01:14 | 51.70825 | -98.18997 | 33834 ft | 478 kts | 321° |
| 2026-05-05 01:15 | 51.75928 | -98.25878 | 33832 ft | 478 kts | 321° |
| 2026-05-05 01:15 | 51.81022 | -98.32768 | 33840 ft | 478 kts | 321° |
| 2026-05-05 01:16 | 51.86081 | -98.39635 | 33842 ft | 478 kts | 321° |
| 2026-05-05 01:16 | 51.91173 | -98.46564 | 33849 ft | 478 kts | 320° |
| 2026-05-05 01:17 | 51.96258 | -98.53503 | 33860 ft | 478 kts | 320° |
| 2026-05-05 01:17 | 52.01331 | -98.60450 | 33860 ft | 477 kts | 320° |
| 2026-05-05 01:18 | 52.06401 | -98.67415 | 33860 ft | 477 kts | 320° |
| 2026-05-05 01:18 | 52.11468 | -98.74397 | 33860 ft | 478 kts | 320° |
| 2026-05-05 01:19 | 52.16537 | -98.81400 | 33860 ft | 478 kts | 320° |
| 2026-05-05 01:19 | 52.21599 | -98.88418 | 33860 ft | 477 kts | 320° |
| 2026-05-05 01:20 | 52.26648 | -98.95444 | 33860 ft | 477 kts | 320° |
| 2026-05-05 01:20 | 52.31697 | -99.02484 | 33860 ft | 477 kts | 320° |
| 2026-05-05 01:21 | 52.36743 | -99.09541 | 33860 ft | 477 kts | 320° |
| 2026-05-05 01:21 | 52.41772 | -99.16602 | 33860 ft | 476 kts | 320° |
| 2026-05-05 01:22 | 52.46793 | -99.23673 | 33860 ft | 476 kts | 320° |
| 2026-05-05 01:22 | 52.51814 | -99.30762 | 33868 ft | 476 kts | 320° |
| 2026-05-05 01:23 | 52.56830 | -99.37869 | 33869 ft | 476 kts | 320° |
| 2026-05-05 01:23 | 52.61839 | -99.44996 | 33869 ft | 476 kts | 320° |
| 2026-05-05 01:24 | 52.66839 | -99.52124 | 33868 ft | 475 kts | 320° |
| 2026-05-05 01:24 | 52.71797 | -99.59213 | 33869 ft | 475 kts | 320° |
| 2026-05-05 01:25 | 52.76787 | -99.66370 | 33869 ft | 475 kts | 320° |
| 2026-05-05 01:25 | 52.81765 | -99.73533 | 33870 ft | 475 kts | 320° |
| 2026-05-05 01:26 | 52.86745 | -99.80724 | 33869 ft | 475 kts | 320° |
| 2026-05-05 01:26 | 52.91722 | -99.87934 | 33878 ft | 476 kts | 320° |
| 2026-05-05 01:27 | 52.96702 | -99.95169 | 33878 ft | 476 kts | 320° |
| 2026-05-05 01:27 | 53.01682 | -100.02417 | 33879 ft | 476 kts | 320° |
| 2026-05-05 01:28 | 53.06716 | -100.09528 | 33882 ft | 474 kts | 321° |
| 2026-05-05 01:28 | 53.11766 | -100.16593 | 33885 ft | 474 kts | 321° |
| 2026-05-05 01:29 | 53.16800 | -100.23689 | 34054 ft | 473 kts | 321° |
| 2026-05-05 01:29 | 53.19297 | -100.27231 | 34364 ft | 470 kts | 321° |
| 2026-05-05 01:29 | 53.21780 | -100.30762 | 34590 ft | 468 kts | 321° |
| 2026-05-05 01:30 | 53.24259 | -100.34294 | 34735 ft | 469 kts | 321° |
| 2026-05-05 01:30 | 53.26741 | -100.37833 | 34857 ft | 469 kts | 321° |
| 2026-05-05 01:30 | 53.29222 | -100.41379 | 35006 ft | 470 kts | 321° |
| 2026-05-05 01:30 | 53.31706 | -100.44935 | 35095 ft | 470 kts | 321° |
| 2026-05-05 01:31 | 53.34192 | -100.48500 | 35221 ft | 471 kts | 321° |
| 2026-05-05 01:31 | 53.36674 | -100.52067 | 35369 ft | 471 kts | 321° |
| 2026-05-05 01:31 | 53.39157 | -100.55639 | 35497 ft | 471 kts | 321° |
| 2026-05-05 01:31 | 53.41642 | -100.59216 | 35627 ft | 471 kts | 321° |
| 2026-05-05 01:32 | 53.44121 | -100.62794 | 35730 ft | 471 kts | 321° |
| 2026-05-05 01:32 | 53.46605 | -100.66385 | 35836 ft | 471 kts | 321° |
| 2026-05-05 01:32 | 53.51544 | -100.73540 | 35917 ft | 474 kts | 320° |
| 2026-05-05 01:33 | 53.56594 | -100.80875 | 35916 ft | 478 kts | 320° |
| 2026-05-05 01:33 | 53.61583 | -100.88151 | 35916 ft | 477 kts | 320° |
| 2026-05-05 01:34 | 53.66597 | -100.95485 | 35920 ft | 477 kts | 320° |
| 2026-05-05 01:34 | 53.71604 | -101.02834 | 35924 ft | 477 kts | 320° |
| 2026-05-05 01:35 | 53.76598 | -101.10190 | 35926 ft | 476 kts | 320° |
| 2026-05-05 01:35 | 53.81589 | -101.17564 | 35924 ft | 476 kts | 320° |
| 2026-05-05 01:36 | 53.86577 | -101.24955 | 35924 ft | 476 kts | 320° |
| 2026-05-05 01:36 | 53.91556 | -101.32364 | 35925 ft | 476 kts | 320° |
| 2026-05-05 01:37 | 53.96532 | -101.39785 | 35925 ft | 476 kts | 320° |
| 2026-05-05 01:37 | 54.01499 | -101.47216 | 35923 ft | 476 kts | 320° |
| 2026-05-05 01:38 | 54.06470 | -101.54682 | 35924 ft | 477 kts | 320° |
| 2026-05-05 01:38 | 54.11443 | -101.62174 | 35925 ft | 477 kts | 320° |
| 2026-05-05 01:39 | 54.16403 | -101.69672 | 35927 ft | 476 kts | 320° |
| 2026-05-05 01:39 | 54.21355 | -101.77184 | 35925 ft | 476 kts | 320° |
| 2026-05-05 01:40 | 54.26301 | -101.84717 | 35917 ft | 476 kts | 320° |
| 2026-05-05 01:40 | 54.31213 | -101.92219 | 35916 ft | 476 kts | 320° |
| 2026-05-05 01:41 | 54.36153 | -101.99787 | 35915 ft | 476 kts | 320° |
| 2026-05-05 01:41 | 54.41088 | -102.07374 | 35917 ft | 476 kts | 320° |
| 2026-05-05 01:42 | 54.46017 | -102.14976 | 35916 ft | 476 kts | 320° |
| 2026-05-05 01:42 | 54.50943 | -102.22597 | 35916 ft | 476 kts | 320° |
| 2026-05-05 01:43 | 54.55866 | -102.30244 | 35915 ft | 477 kts | 320° |
| 2026-05-05 01:43 | 54.60783 | -102.37909 | 35915 ft | 477 kts | 320° |
| 2026-05-05 01:44 | 54.65700 | -102.45598 | 35915 ft | 477 kts | 319° |
| 2026-05-05 01:44 | 54.70610 | -102.53299 | 35926 ft | 477 kts | 320° |
| 2026-05-05 01:45 | 54.75518 | -102.61024 | 35926 ft | 477 kts | 320° |
| 2026-05-05 01:45 | 54.80422 | -102.68774 | 35930 ft | 477 kts | 319° |
| 2026-05-05 01:46 | 54.85317 | -102.76534 | 35934 ft | 477 kts | 319° |
| 2026-05-05 01:46 | 54.90205 | -102.84311 | 35932 ft | 477 kts | 319° |
| 2026-05-05 01:47 | 54.95064 | -102.92066 | 35943 ft | 477 kts | 319° |
| 2026-05-05 01:47 | 54.99892 | -103.00005 | 35944 ft | 478 kts | 314° |
| 2026-05-05 01:48 | 55.04311 | -103.08679 | 35953 ft | 479 kts | 313° |
| 2026-05-05 01:48 | 55.08655 | -103.17511 | 35960 ft | 480 kts | 313° |
| 2026-05-05 01:49 | 55.12977 | -103.26386 | 35962 ft | 479 kts | 313° |
| 2026-05-05 01:49 | 55.17294 | -103.35261 | 35970 ft | 479 kts | 313° |
| 2026-05-05 01:50 | 55.21604 | -103.44147 | 35982 ft | 479 kts | 313° |
| 2026-05-05 01:50 | 55.25911 | -103.53049 | 35988 ft | 479 kts | 313° |
| 2026-05-05 01:51 | 55.30212 | -103.61963 | 35999 ft | 479 kts | 313° |
| 2026-05-05 01:51 | 55.34507 | -103.70901 | 35999 ft | 479 kts | 312° |
| 2026-05-05 01:52 | 55.38790 | -103.79858 | 36007 ft | 479 kts | 312° |
| 2026-05-05 01:52 | 55.43071 | -103.88843 | 36008 ft | 479 kts | 312° |
| 2026-05-05 01:53 | 55.47347 | -103.97842 | 36017 ft | 479 kts | 312° |
| 2026-05-05 01:53 | 55.51619 | -104.06871 | 36032 ft | 479 kts | 312° |
| 2026-05-05 01:54 | 55.55880 | -104.15909 | 36036 ft | 479 kts | 312° |
| 2026-05-05 01:54 | 55.60107 | -104.24910 | 36036 ft | 479 kts | 312° |
| 2026-05-05 01:55 | 55.64357 | -104.33996 | 36036 ft | 479 kts | 312° |
| 2026-05-05 01:55 | 55.68603 | -104.43113 | 36036 ft | 479 kts | 312° |
| 2026-05-05 01:56 | 55.72837 | -104.52228 | 36036 ft | 479 kts | 312° |
| 2026-05-05 01:56 | 55.77061 | -104.61356 | 36035 ft | 478 kts | 312° |
| 2026-05-05 01:57 | 55.81274 | -104.70500 | 36037 ft | 478 kts | 311° |
| 2026-05-05 01:57 | 55.85475 | -104.79643 | 36034 ft | 477 kts | 311° |
| 2026-05-05 01:58 | 55.88987 | -104.87317 | 36036 ft | 477 kts | 311° |
| 2026-05-05 01:58 | 55.93144 | -104.96428 | 36035 ft | 477 kts | 311° |
| 2026-05-05 01:59 | 55.97317 | -105.05617 | 36035 ft | 476 kts | 311° |
| 2026-05-05 01:59 | 56.01479 | -105.14813 | 36035 ft | 476 kts | 311° |
| 2026-05-05 02:00 | 56.05637 | -105.24039 | 36036 ft | 477 kts | 311° |
| 2026-05-05 02:00 | 56.09789 | -105.33287 | 36047 ft | 476 kts | 311° |
| 2026-05-05 02:01 | 56.13933 | -105.42547 | 36046 ft | 476 kts | 311° |
| 2026-05-05 02:01 | 56.18071 | -105.51827 | 36042 ft | 476 kts | 311° |
| 2026-05-05 02:02 | 56.22198 | -105.61121 | 36062 ft | 476 kts | 311° |
| 2026-05-05 02:02 | 56.26315 | -105.70431 | 36070 ft | 475 kts | 311° |
| 2026-05-05 02:03 | 56.30419 | -105.79746 | 36072 ft | 475 kts | 311° |
| 2026-05-05 02:03 | 56.34515 | -105.89078 | 36079 ft | 475 kts | 311° |
| 2026-05-05 02:04 | 56.38603 | -105.98430 | 36082 ft | 475 kts | 311° |
| 2026-05-05 02:04 | 56.42685 | -106.07802 | 36084 ft | 475 kts | 311° |
| 2026-05-05 02:05 | 56.46763 | -106.17202 | 36081 ft | 475 kts | 310° |
| 2026-05-05 02:05 | 56.50831 | -106.26618 | 36082 ft | 475 kts | 310° |
| 2026-05-05 02:06 | 56.54892 | -106.36049 | 36083 ft | 475 kts | 310° |
| 2026-05-05 02:06 | 56.58948 | -106.45507 | 36083 ft | 475 kts | 310° |
| 2026-05-05 02:07 | 56.62968 | -106.54915 | 36082 ft | 475 kts | 310° |
| 2026-05-05 02:07 | 56.67002 | -106.64401 | 36081 ft | 474 kts | 310° |
| 2026-05-05 02:08 | 56.71029 | -106.73903 | 36081 ft | 474 kts | 310° |
| 2026-05-05 02:08 | 56.75054 | -106.83439 | 36089 ft | 474 kts | 310° |
| 2026-05-05 02:09 | 56.79067 | -106.92983 | 36083 ft | 474 kts | 310° |
| 2026-05-05 02:09 | 56.83076 | -107.02554 | 36092 ft | 474 kts | 310° |
| 2026-05-05 02:10 | 56.87064 | -107.12127 | 36091 ft | 474 kts | 310° |
| 2026-05-05 02:10 | 56.91054 | -107.21727 | 36090 ft | 474 kts | 310° |
| 2026-05-05 02:11 | 56.95035 | -107.31343 | 36092 ft | 474 kts | 310° |
| 2026-05-05 02:11 | 56.99004 | -107.40971 | 36091 ft | 473 kts | 310° |
| 2026-05-05 02:12 | 57.04945 | -107.55457 | 36099 ft | 474 kts | 310° |
| 2026-05-05 02:13 | 57.08901 | -107.65147 | 36100 ft | 474 kts | 310° |
| 2026-05-05 02:13 | 57.12851 | -107.74867 | 36100 ft | 474 kts | 309° |
| 2026-05-05 02:14 | 57.16765 | -107.84540 | 36101 ft | 474 kts | 309° |
| 2026-05-05 02:14 | 57.20700 | -107.94297 | 36111 ft | 474 kts | 309° |
| 2026-05-05 02:15 | 57.24623 | -108.04071 | 36112 ft | 474 kts | 309° |
| 2026-05-05 02:15 | 57.28530 | -108.13844 | 36112 ft | 472 kts | 309° |
| 2026-05-05 02:16 | 57.32429 | -108.23633 | 36128 ft | 472 kts | 309° |
| 2026-05-05 02:16 | 57.36318 | -108.33433 | 36126 ft | 472 kts | 309° |
| 2026-05-05 02:17 | 57.40201 | -108.43251 | 36149 ft | 472 kts | 309° |
| 2026-05-05 02:17 | 57.44073 | -108.53096 | 36170 ft | 472 kts | 309° |
| 2026-05-05 02:18 | 57.47938 | -108.62967 | 36202 ft | 473 kts | 309° |
| 2026-05-05 02:18 | 57.51800 | -108.72866 | 36202 ft | 473 kts | 309° |
| 2026-05-05 02:19 | 57.55648 | -108.82774 | 36210 ft | 472 kts | 309° |
| 2026-05-05 02:19 | 57.59488 | -108.92696 | 36211 ft | 472 kts | 309° |
| 2026-05-05 02:20 | 57.63312 | -109.02618 | 36211 ft | 471 kts | 309° |
| 2026-05-05 02:20 | 57.67130 | -109.12563 | 36211 ft | 471 kts | 309° |
| 2026-05-05 02:21 | 57.70936 | -109.22514 | 36211 ft | 470 kts | 309° |
| 2026-05-05 02:21 | 57.74704 | -109.32413 | 36220 ft | 470 kts | 308° |
| 2026-05-05 02:22 | 57.78490 | -109.42406 | 36220 ft | 470 kts | 308° |
| 2026-05-05 02:22 | 57.82265 | -109.52410 | 36220 ft | 470 kts | 308° |
| 2026-05-05 02:23 | 57.86030 | -109.62429 | 36221 ft | 470 kts | 308° |
| 2026-05-05 02:23 | 57.89782 | -109.72455 | 36219 ft | 469 kts | 308° |
| 2026-05-05 02:24 | 57.93531 | -109.82500 | 36230 ft | 469 kts | 308° |
| 2026-05-05 02:24 | 57.97270 | -109.92573 | 36229 ft | 469 kts | 308° |
| 2026-05-05 02:25 | 58.01004 | -110.02669 | 36229 ft | 470 kts | 308° |
| 2026-05-05 02:25 | 58.04776 | -110.12725 | 36228 ft | 469 kts | 309° |
| 2026-05-05 02:26 | 58.08559 | -110.22772 | 36229 ft | 469 kts | 308° |
| 2026-05-05 02:26 | 58.12327 | -110.32845 | 36238 ft | 469 kts | 308° |
| 2026-05-05 02:27 | 58.16082 | -110.42949 | 36238 ft | 469 kts | 308° |
| 2026-05-05 02:27 | 58.19821 | -110.53069 | 36238 ft | 468 kts | 308° |
| 2026-05-05 02:28 | 58.23549 | -110.63194 | 36238 ft | 468 kts | 308° |
| 2026-05-05 02:28 | 58.27270 | -110.73330 | 36246 ft | 468 kts | 308° |
| 2026-05-05 02:29 | 58.30977 | -110.83479 | 36248 ft | 467 kts | 308° |
| 2026-05-05 02:29 | 58.34665 | -110.93622 | 36244 ft | 465 kts | 308° |
| 2026-05-05 02:30 | 58.38313 | -111.03699 | 36245 ft | 464 kts | 308° |
| 2026-05-05 02:30 | 58.41968 | -111.13839 | 36246 ft | 463 kts | 308° |
| 2026-05-05 02:31 | 58.45609 | -111.23983 | 36244 ft | 463 kts | 308° |
| 2026-05-05 02:31 | 58.49241 | -111.34138 | 36249 ft | 463 kts | 308° |
| 2026-05-05 02:32 | 58.52857 | -111.44292 | 36249 ft | 462 kts | 308° |
| 2026-05-05 02:32 | 58.56461 | -111.54459 | 36248 ft | 461 kts | 308° |
| 2026-05-05 02:33 | 58.60053 | -111.64638 | 36250 ft | 461 kts | 308° |
| 2026-05-05 02:33 | 58.63634 | -111.74830 | 36247 ft | 460 kts | 308° |
| 2026-05-05 02:34 | 58.67205 | -111.85033 | 36244 ft | 460 kts | 307° |
| 2026-05-05 02:34 | 58.70762 | -111.95243 | 36248 ft | 460 kts | 307° |
| 2026-05-05 02:35 | 58.74311 | -112.05475 | 36251 ft | 459 kts | 307° |
| 2026-05-05 02:35 | 58.77837 | -112.15686 | 36249 ft | 456 kts | 307° |
| 2026-05-05 02:36 | 58.81341 | -112.25876 | 36247 ft | 456 kts | 307° |
| 2026-05-05 02:36 | 58.84838 | -112.36090 | 36247 ft | 456 kts | 307° |
| 2026-05-05 02:37 | 58.88332 | -112.46331 | 36252 ft | 456 kts | 307° |
| 2026-05-05 02:37 | 58.91816 | -112.56588 | 36256 ft | 456 kts | 307° |
| 2026-05-05 02:38 | 58.95289 | -112.66863 | 36256 ft | 455 kts | 307° |
| 2026-05-05 02:38 | 58.98718 | -112.77054 | 36257 ft | 455 kts | 307° |
| 2026-05-05 02:39 | 59.02164 | -112.87338 | 36256 ft | 454 kts | 307° |
| 2026-05-05 02:39 | 59.05600 | -112.97634 | 36257 ft | 454 kts | 307° |
| 2026-05-05 02:40 | 59.09022 | -113.07937 | 36256 ft | 453 kts | 307° |
| 2026-05-05 02:40 | 59.12428 | -113.18238 | 36257 ft | 452 kts | 307° |
| 2026-05-05 02:41 | 59.15821 | -113.28542 | 36257 ft | 452 kts | 307° |
| 2026-05-05 02:41 | 59.19205 | -113.38860 | 36257 ft | 451 kts | 307° |
| 2026-05-05 02:42 | 59.22571 | -113.49178 | 36257 ft | 451 kts | 307° |
| 2026-05-05 02:42 | 59.25933 | -113.59526 | 36257 ft | 451 kts | 307° |
| 2026-05-05 02:43 | 59.29283 | -113.69881 | 36257 ft | 450 kts | 307° |
| 2026-05-05 02:43 | 59.32623 | -113.80251 | 36256 ft | 450 kts | 306° |
| 2026-05-05 02:44 | 59.35953 | -113.90633 | 36256 ft | 450 kts | 306° |
| 2026-05-05 02:44 | 59.39276 | -114.01041 | 36258 ft | 450 kts | 306° |
| 2026-05-05 02:45 | 59.42586 | -114.11452 | 36256 ft | 448 kts | 306° |
| 2026-05-05 02:45 | 59.45844 | -114.21757 | 36257 ft | 446 kts | 306° |
| 2026-05-05 02:46 | 59.49113 | -114.32132 | 36257 ft | 446 kts | 306° |
| 2026-05-05 02:46 | 59.52375 | -114.42529 | 36257 ft | 446 kts | 306° |
| 2026-05-05 02:47 | 59.55623 | -114.52929 | 36257 ft | 445 kts | 306° |
| 2026-05-05 02:47 | 59.58852 | -114.63319 | 36257 ft | 444 kts | 306° |
| 2026-05-05 02:48 | 59.61544 | -114.72018 | 36257 ft | 443 kts | 306° |
| 2026-05-05 02:48 | 59.64741 | -114.82394 | 36258 ft | 441 kts | 306° |
| 2026-05-05 02:49 | 59.67923 | -114.92761 | 36257 ft | 440 kts | 306° |
| 2026-05-05 02:49 | 59.71066 | -115.03048 | 36265 ft | 439 kts | 306° |
| 2026-05-05 02:50 | 59.74206 | -115.13375 | 36265 ft | 437 kts | 306° |
| 2026-05-05 02:50 | 59.77329 | -115.23686 | 36266 ft | 435 kts | 306° |
| 2026-05-05 02:51 | 59.80432 | -115.33978 | 36266 ft | 434 kts | 306° |
| 2026-05-05 02:51 | 59.83518 | -115.44250 | 36267 ft | 432 kts | 306° |
| 2026-05-05 02:52 | 59.86588 | -115.54528 | 36265 ft | 432 kts | 306° |
| 2026-05-05 02:52 | 59.89646 | -115.64806 | 36266 ft | 431 kts | 306° |
| 2026-05-05 02:53 | 59.92688 | -115.75077 | 36266 ft | 430 kts | 306° |
| 2026-05-05 02:53 | 59.95720 | -115.85362 | 36266 ft | 430 kts | 306° |
| 2026-05-05 02:54 | 59.98779 | -115.95603 | 36265 ft | 427 kts | 309° |
| 2026-05-05 02:54 | 60.02579 | -116.04554 | 36266 ft | 420 kts | 319° |
| 2026-05-05 02:55 | 60.06823 | -116.12581 | 36266 ft | 420 kts | 320° |
| 2026-05-05 02:55 | 60.11133 | -116.20463 | 36265 ft | 420 kts | 321° |
| 2026-05-05 02:56 | 60.15444 | -116.28362 | 36276 ft | 420 kts | 320° |
| 2026-05-05 02:56 | 60.19741 | -116.36299 | 36275 ft | 420 kts | 320° |
| 2026-05-05 02:57 | 60.24027 | -116.44271 | 36275 ft | 419 kts | 320° |
| 2026-05-05 02:57 | 60.28271 | -116.52200 | 36275 ft | 419 kts | 320° |
| 2026-05-05 02:58 | 60.32537 | -116.60191 | 36276 ft | 418 kts | 320° |
| 2026-05-05 02:58 | 60.36793 | -116.68198 | 36275 ft | 418 kts | 320° |
| 2026-05-05 02:59 | 60.41040 | -116.76216 | 36275 ft | 417 kts | 320° |
| 2026-05-05 02:59 | 60.45272 | -116.84233 | 36275 ft | 417 kts | 320° |
| 2026-05-05 03:00 | 60.49493 | -116.92262 | 36275 ft | 415 kts | 320° |
| 2026-05-05 03:00 | 60.53697 | -117.00286 | 36275 ft | 414 kts | 319° |
| 2026-05-05 03:01 | 60.57886 | -117.08317 | 36275 ft | 414 kts | 319° |
| 2026-05-05 03:01 | 60.62067 | -117.16355 | 36276 ft | 413 kts | 319° |
| 2026-05-05 03:02 | 60.66235 | -117.24401 | 36275 ft | 413 kts | 319° |
| 2026-05-05 03:02 | 60.70391 | -117.32454 | 36275 ft | 412 kts | 319° |
| 2026-05-05 03:03 | 60.74539 | -117.40520 | 36266 ft | 411 kts | 319° |
| 2026-05-05 03:03 | 60.78671 | -117.48596 | 36265 ft | 411 kts | 319° |
| 2026-05-05 03:04 | 60.82801 | -117.56685 | 36256 ft | 411 kts | 319° |
| 2026-05-05 03:04 | 60.86894 | -117.64733 | 36266 ft | 410 kts | 319° |
| 2026-05-05 03:05 | 60.91006 | -117.72853 | 36257 ft | 410 kts | 319° |
| 2026-05-05 03:05 | 60.95112 | -117.80987 | 36256 ft | 410 kts | 319° |
| 2026-05-05 03:06 | 60.99211 | -117.89145 | 36257 ft | 410 kts | 319° |
| 2026-05-05 03:06 | 61.03313 | -117.97336 | 36257 ft | 410 kts | 319° |
| 2026-05-05 03:07 | 61.07409 | -118.05546 | 36252 ft | 410 kts | 318° |
| 2026-05-05 03:07 | 61.11477 | -118.13735 | 36249 ft | 407 kts | 318° |
| 2026-05-05 03:08 | 61.15523 | -118.21908 | 36249 ft | 407 kts | 318° |
| 2026-05-05 03:08 | 61.19565 | -118.30108 | 36247 ft | 407 kts | 318° |
| 2026-05-05 03:09 | 61.23604 | -118.38321 | 36244 ft | 407 kts | 318° |
| 2026-05-05 03:09 | 61.27636 | -118.46556 | 36244 ft | 407 kts | 318° |
| 2026-05-05 03:10 | 61.31636 | -118.54757 | 36237 ft | 406 kts | 318° |
| 2026-05-05 03:10 | 61.35660 | -118.63043 | 36229 ft | 407 kts | 318° |
| 2026-05-05 03:11 | 61.39677 | -118.71344 | 36229 ft | 406 kts | 318° |
| 2026-05-05 03:11 | 61.43687 | -118.79661 | 36228 ft | 406 kts | 318° |
| 2026-05-05 03:12 | 61.47682 | -118.87979 | 36230 ft | 405 kts | 317° |
| 2026-05-05 03:12 | 61.51667 | -118.96312 | 36222 ft | 405 kts | 317° |
| 2026-05-05 03:13 | 61.55640 | -119.04648 | 36220 ft | 404 kts | 317° |
| 2026-05-05 03:13 | 61.59606 | -119.13002 | 36220 ft | 403 kts | 317° |
| 2026-05-05 03:14 | 61.63557 | -119.21361 | 36220 ft | 403 kts | 317° |
| 2026-05-05 03:14 | 61.67504 | -119.29734 | 36221 ft | 403 kts | 317° |
| 2026-05-05 03:15 | 61.71435 | -119.38109 | 36220 ft | 402 kts | 317° |
| 2026-05-05 03:15 | 61.75361 | -119.46503 | 36211 ft | 401 kts | 317° |
| 2026-05-05 03:16 | 61.79270 | -119.54901 | 36211 ft | 401 kts | 317° |
| 2026-05-05 03:16 | 61.83146 | -119.63255 | 36211 ft | 400 kts | 316° |
| 2026-05-05 03:17 | 61.87026 | -119.71658 | 36202 ft | 397 kts | 316° |
| 2026-05-05 03:17 | 61.90882 | -119.80031 | 36201 ft | 396 kts | 316° |
| 2026-05-05 03:18 | 61.94726 | -119.88412 | 36204 ft | 396 kts | 316° |
| 2026-05-05 03:18 | 61.98564 | -119.96818 | 36202 ft | 396 kts | 316° |
| 2026-05-05 03:19 | 62.03789 | -120.10540 | 36201 ft | 398 kts | 310° |
| 2026-05-05 03:19 | 62.07135 | -120.19946 | 36187 ft | 398 kts | 310° |
| 2026-05-05 03:20 | 62.10469 | -120.29398 | 36191 ft | 398 kts | 310° |
| 2026-05-05 03:20 | 62.13795 | -120.38854 | 36192 ft | 399 kts | 310° |
| 2026-05-05 03:21 | 62.17127 | -120.48353 | 36196 ft | 399 kts | 309° |
| 2026-05-05 03:21 | 62.20451 | -120.57872 | 36191 ft | 400 kts | 309° |
| 2026-05-05 03:22 | 62.23779 | -120.67429 | 36193 ft | 400 kts | 309° |
| 2026-05-05 03:22 | 62.27091 | -120.77001 | 36187 ft | 399 kts | 309° |
| 2026-05-05 03:23 | 62.30399 | -120.86588 | 36194 ft | 399 kts | 309° |
| 2026-05-05 03:23 | 62.33705 | -120.96194 | 36192 ft | 400 kts | 309° |
| 2026-05-05 03:24 | 62.37001 | -121.05828 | 36194 ft | 399 kts | 309° |
| 2026-05-05 03:24 | 62.40291 | -121.15486 | 36195 ft | 400 kts | 308° |
| 2026-05-05 03:25 | 62.43552 | -121.25096 | 36192 ft | 400 kts | 308° |
| 2026-05-05 03:25 | 62.46827 | -121.34789 | 36192 ft | 399 kts | 308° |
| 2026-05-05 03:26 | 62.50090 | -121.44494 | 36191 ft | 399 kts | 308° |
| 2026-05-05 03:26 | 62.53347 | -121.54220 | 36192 ft | 399 kts | 308° |
| 2026-05-05 03:27 | 62.56597 | -121.63953 | 36195 ft | 399 kts | 308° |
| 2026-05-05 03:27 | 62.59840 | -121.73714 | 36192 ft | 399 kts | 308° |
| 2026-05-05 03:28 | 62.63074 | -121.83491 | 36190 ft | 399 kts | 308° |
| 2026-05-05 03:28 | 62.66301 | -121.93294 | 36196 ft | 398 kts | 308° |
| 2026-05-05 03:29 | 62.69520 | -122.03106 | 36195 ft | 398 kts | 307° |
| 2026-05-05 03:29 | 62.72735 | -122.12952 | 36196 ft | 399 kts | 307° |
| 2026-05-05 03:30 | 62.75949 | -122.22843 | 36188 ft | 400 kts | 307° |
| 2026-05-05 03:30 | 62.79159 | -122.32761 | 36192 ft | 400 kts | 307° |
| 2026-05-05 03:31 | 62.82365 | -122.42702 | 36194 ft | 400 kts | 307° |
| 2026-05-05 03:31 | 62.85561 | -122.52672 | 36187 ft | 400 kts | 307° |
| 2026-05-05 03:32 | 62.88750 | -122.62656 | 36190 ft | 400 kts | 306° |
| 2026-05-05 03:32 | 62.91911 | -122.72592 | 36182 ft | 400 kts | 306° |
| 2026-05-05 03:33 | 62.95091 | -122.82640 | 36185 ft | 401 kts | 306° |
| 2026-05-05 03:33 | 62.98266 | -122.92704 | 36179 ft | 401 kts | 306° |
| 2026-05-05 03:34 | 63.01432 | -123.02784 | 36190 ft | 401 kts | 306° |
| 2026-05-05 03:34 | 63.04601 | -123.12893 | 36184 ft | 401 kts | 306° |
| 2026-05-05 03:35 | 63.07742 | -123.23033 | 36180 ft | 401 kts | 306° |
| 2026-05-05 03:35 | 63.10888 | -123.33195 | 36181 ft | 401 kts | 305° |
| 2026-05-05 03:36 | 63.14030 | -123.43381 | 36173 ft | 401 kts | 305° |
| 2026-05-05 03:36 | 63.17165 | -123.53584 | 36175 ft | 401 kts | 305° |
| 2026-05-05 03:37 | 63.20291 | -123.63816 | 36172 ft | 401 kts | 305° |
| 2026-05-05 03:37 | 63.22883 | -123.72333 | 36175 ft | 401 kts | 305° |
| 2026-05-05 03:38 | 63.25992 | -123.82599 | 36175 ft | 401 kts | 304° |
| 2026-05-05 03:38 | 63.29097 | -123.92897 | 36173 ft | 401 kts | 304° |
| 2026-05-05 03:39 | 63.32195 | -124.03209 | 36174 ft | 401 kts | 304° |
| 2026-05-05 03:39 | 63.35293 | -124.13567 | 36165 ft | 402 kts | 304° |
| 2026-05-05 03:40 | 63.38388 | -124.23971 | 36164 ft | 403 kts | 304° |
| 2026-05-05 03:40 | 63.41478 | -124.34396 | 36164 ft | 403 kts | 304° |
| 2026-05-05 03:41 | 63.44557 | -124.44838 | 36165 ft | 403 kts | 304° |
| 2026-05-05 03:41 | 63.47628 | -124.55305 | 36167 ft | 403 kts | 303° |
| 2026-05-05 03:42 | 63.50692 | -124.65801 | 36165 ft | 403 kts | 303° |
| 2026-05-05 03:42 | 63.53749 | -124.76316 | 36157 ft | 403 kts | 303° |
| 2026-05-05 03:43 | 63.56805 | -124.86880 | 36156 ft | 404 kts | 303° |
| 2026-05-05 03:43 | 63.59864 | -124.97448 | 36156 ft | 404 kts | 303° |
| 2026-05-05 03:44 | 63.62912 | -125.08077 | 36156 ft | 405 kts | 302° |
| 2026-05-05 03:44 | 63.65949 | -125.18713 | 36157 ft | 404 kts | 302° |
| 2026-05-05 03:45 | 63.68975 | -125.29390 | 36157 ft | 404 kts | 302° |
| 2026-05-05 03:45 | 63.71999 | -125.40104 | 36154 ft | 405 kts | 302° |
| 2026-05-05 03:46 | 63.74997 | -125.50774 | 36148 ft | 405 kts | 302° |
| 2026-05-05 03:46 | 63.78011 | -125.61540 | 36147 ft | 406 kts | 301° |
| 2026-05-05 03:47 | 63.81034 | -125.72352 | 36144 ft | 407 kts | 301° |
| 2026-05-05 03:47 | 63.84034 | -125.83135 | 36502 ft | 402 kts | 301° |
| 2026-05-05 03:48 | 63.85513 | -125.88509 | 36661 ft | 402 kts | 301° |
| 2026-05-05 03:48 | 63.86988 | -125.93886 | 36835 ft | 401 kts | 301° |
| 2026-05-05 03:48 | 63.88457 | -125.99251 | 36993 ft | 400 kts | 301° |
| 2026-05-05 03:48 | 63.89920 | -126.04597 | 37184 ft | 398 kts | 301° |
| 2026-05-05 03:49 | 63.91377 | -126.09920 | 37360 ft | 396 kts | 301° |
| 2026-05-05 03:49 | 63.92826 | -126.15221 | 37505 ft | 395 kts | 301° |
| 2026-05-05 03:49 | 63.94278 | -126.20515 | 37632 ft | 394 kts | 301° |
| 2026-05-05 03:49 | 63.95720 | -126.25809 | 37699 ft | 395 kts | 301° |
| 2026-05-05 03:50 | 63.98592 | -126.36453 | 37858 ft | 395 kts | 301° |
| 2026-05-05 03:50 | 64.01467 | -126.47139 | 37994 ft | 396 kts | 301° |
| 2026-05-05 03:51 | 64.04338 | -126.57866 | 38122 ft | 397 kts | 301° |
| 2026-05-05 03:51 | 64.07219 | -126.68682 | 38131 ft | 400 kts | 300° |
| 2026-05-05 03:52 | 64.10127 | -126.79608 | 38124 ft | 404 kts | 300° |
| 2026-05-05 03:52 | 64.13043 | -126.90604 | 38130 ft | 404 kts | 300° |
| 2026-05-05 03:53 | 64.15940 | -127.01624 | 38128 ft | 404 kts | 300° |
| 2026-05-05 03:53 | 64.18829 | -127.12679 | 38129 ft | 404 kts | 300° |
| 2026-05-05 03:54 | 64.21712 | -127.23753 | 38129 ft | 404 kts | 300° |
| 2026-05-05 03:54 | 64.24567 | -127.34772 | 38127 ft | 404 kts | 299° |
| 2026-05-05 03:55 | 64.27430 | -127.45873 | 38125 ft | 404 kts | 299° |
| 2026-05-05 03:55 | 64.30297 | -127.57021 | 38129 ft | 405 kts | 299° |
| 2026-05-05 03:56 | 64.33156 | -127.68206 | 38129 ft | 405 kts | 299° |
| 2026-05-05 03:56 | 64.35994 | -127.79445 | 38131 ft | 405 kts | 298° |
| 2026-05-05 03:57 | 64.38822 | -127.90702 | 38127 ft | 405 kts | 299° |
| 2026-05-05 03:57 | 64.41661 | -128.01943 | 38129 ft | 405 kts | 299° |
| 2026-05-05 03:58 | 64.44493 | -128.13221 | 38127 ft | 405 kts | 298° |
| 2026-05-05 03:58 | 64.47302 | -128.24533 | 38128 ft | 405 kts | 298° |
| 2026-05-05 03:59 | 64.50104 | -128.35868 | 38128 ft | 405 kts | 298° |
| 2026-05-05 03:59 | 64.52904 | -128.47227 | 38127 ft | 406 kts | 298° |
| 2026-05-05 04:00 | 64.55696 | -128.58630 | 38129 ft | 406 kts | 297° |
| 2026-05-05 04:00 | 64.58480 | -128.70060 | 38124 ft | 406 kts | 297° |
| 2026-05-05 04:01 | 64.61262 | -128.81533 | 38133 ft | 407 kts | 297° |
| 2026-05-05 04:01 | 64.64041 | -128.93036 | 38125 ft | 408 kts | 297° |
| 2026-05-05 04:02 | 64.66819 | -129.04567 | 38116 ft | 408 kts | 297° |
| 2026-05-05 04:02 | 64.69570 | -129.16137 | 38119 ft | 407 kts | 296° |
| 2026-05-05 04:03 | 64.72312 | -129.27726 | 38125 ft | 407 kts | 296° |
| 2026-05-05 04:03 | 64.75054 | -129.39339 | 38118 ft | 407 kts | 296° |
| 2026-05-05 04:04 | 64.77786 | -129.50970 | 38122 ft | 408 kts | 296° |
| 2026-05-05 04:04 | 64.80504 | -129.62640 | 38121 ft | 408 kts | 296° |
| 2026-05-05 04:05 | 64.83221 | -129.74338 | 38101 ft | 408 kts | 296° |
| 2026-05-05 04:05 | 64.85935 | -129.86068 | 38093 ft | 408 kts | 296° |
| 2026-05-05 04:06 | 64.88633 | -129.97805 | 38093 ft | 408 kts | 296° |
| 2026-05-05 04:06 | 64.91323 | -130.09568 | 38091 ft | 408 kts | 295° |
| 2026-05-05 04:07 | 64.94010 | -130.21392 | 38090 ft | 409 kts | 295° |
| 2026-05-05 04:07 | 64.96694 | -130.33247 | 38090 ft | 410 kts | 295° |
| 2026-05-05 04:08 | 64.99349 | -130.45060 | 38081 ft | 410 kts | 295° |
| 2026-05-05 04:08 | 65.02012 | -130.56982 | 38093 ft | 411 kts | 295° |
| 2026-05-05 04:09 | 65.04678 | -130.68996 | 38075 ft | 412 kts | 294° |
| 2026-05-05 04:09 | 65.07349 | -130.81031 | 38080 ft | 412 kts | 294° |
| 2026-05-05 04:10 | 65.09993 | -130.93071 | 38072 ft | 412 kts | 294° |
| 2026-05-05 04:10 | 65.12630 | -131.05157 | 38072 ft | 412 kts | 294° |
| 2026-05-05 04:11 | 65.15262 | -131.17271 | 38073 ft | 413 kts | 294° |
| 2026-05-05 04:11 | 65.17888 | -131.29431 | 38071 ft | 413 kts | 294° |
| 2026-05-05 04:12 | 65.20507 | -131.41612 | 38067 ft | 413 kts | 294° |
| 2026-05-05 04:12 | 65.23119 | -131.53832 | 38064 ft | 415 kts | 294° |
| 2026-05-05 04:13 | 65.25727 | -131.66106 | 38070 ft | 415 kts | 294° |
| 2026-05-05 04:13 | 65.28325 | -131.78398 | 38068 ft | 415 kts | 293° |
| 2026-05-05 04:14 | 65.30903 | -131.90685 | 38062 ft | 414 kts | 293° |
| 2026-05-05 04:14 | 65.33476 | -132.03009 | 38063 ft | 414 kts | 293° |
| 2026-05-05 04:15 | 65.36045 | -132.15402 | 38048 ft | 416 kts | 293° |
| 2026-05-05 04:15 | 65.38595 | -132.27772 | 38071 ft | 417 kts | 293° |
| 2026-05-05 04:16 | 65.41157 | -132.40261 | 38077 ft | 417 kts | 292° |
| 2026-05-05 04:16 | 65.43712 | -132.52749 | 38056 ft | 417 kts | 292° |
| 2026-05-05 04:17 | 65.46252 | -132.65298 | 38055 ft | 417 kts | 292° |
| 2026-05-05 04:17 | 65.48782 | -132.77907 | 38057 ft | 418 kts | 292° |
| 2026-05-05 04:18 | 65.51306 | -132.90512 | 38056 ft | 418 kts | 292° |
| 2026-05-05 04:18 | 65.53825 | -133.03175 | 38053 ft | 419 kts | 292° |
| 2026-05-05 04:19 | 65.56340 | -133.15892 | 38042 ft | 420 kts | 292° |
| 2026-05-05 04:19 | 65.58849 | -133.28661 | 38044 ft | 421 kts | 291° |
| 2026-05-05 04:20 | 65.61350 | -133.41469 | 38045 ft | 422 kts | 291° |
| 2026-05-05 04:20 | 65.63845 | -133.54318 | 38045 ft | 423 kts | 291° |
| 2026-05-05 04:21 | 65.66336 | -133.67223 | 38017 ft | 423 kts | 291° |
| 2026-05-05 04:21 | 65.68816 | -133.80166 | 38017 ft | 423 kts | 291° |
| 2026-05-05 04:22 | 65.71289 | -133.93154 | 38009 ft | 424 kts | 291° |
| 2026-05-05 04:22 | 65.73750 | -134.06167 | 38009 ft | 424 kts | 291° |
| 2026-05-05 04:23 | 65.76207 | -134.19223 | 38009 ft | 425 kts | 291° |
| 2026-05-05 04:23 | 65.78653 | -134.32320 | 38007 ft | 425 kts | 291° |
| 2026-05-05 04:24 | 65.81089 | -134.45450 | 38008 ft | 425 kts | 290° |
| 2026-05-05 04:25 | 65.84310 | -134.62940 | 38008 ft | 425 kts | 290° |
| 2026-05-05 04:25 | 65.86721 | -134.76127 | 37988 ft | 425 kts | 290° |
| 2026-05-05 04:26 | 65.89123 | -134.89353 | 37989 ft | 426 kts | 290° |
| 2026-05-05 04:26 | 65.91518 | -135.02640 | 37989 ft | 427 kts | 289° |
| 2026-05-05 04:27 | 65.93905 | -135.15966 | 37991 ft | 427 kts | 289° |
| 2026-05-05 04:27 | 65.96284 | -135.29330 | 37991 ft | 428 kts | 289° |
| 2026-05-05 04:28 | 65.98657 | -135.42757 | 37988 ft | 429 kts | 289° |
| 2026-05-05 04:28 | 66.01024 | -135.56227 | 37987 ft | 429 kts | 289° |
| 2026-05-05 04:29 | 66.03364 | -135.69632 | 37992 ft | 429 kts | 289° |
| 2026-05-05 04:29 | 66.05722 | -135.83249 | 37989 ft | 430 kts | 289° |
| 2026-05-05 04:30 | 66.08037 | -135.96720 | 37954 ft | 430 kts | 289° |
| 2026-05-05 04:30 | 66.10361 | -136.10317 | 37956 ft | 430 kts | 288° |
| 2026-05-05 04:31 | 66.12672 | -136.23940 | 37950 ft | 430 kts | 288° |
| 2026-05-05 04:31 | 66.14969 | -136.37589 | 37955 ft | 430 kts | 288° |
| 2026-05-05 04:32 | 66.17257 | -136.51260 | 37955 ft | 431 kts | 288° |
| 2026-05-05 04:32 | 66.19535 | -136.64984 | 37955 ft | 432 kts | 288° |
| 2026-05-05 04:33 | 66.21806 | -136.78758 | 37953 ft | 432 kts | 288° |
| 2026-05-05 04:33 | 66.24066 | -136.92560 | 37953 ft | 433 kts | 288° |
| 2026-05-05 04:34 | 66.26321 | -137.06432 | 37952 ft | 434 kts | 288° |
| 2026-05-05 04:34 | 66.28567 | -137.20369 | 37953 ft | 435 kts | 288° |
| 2026-05-05 04:35 | 66.30811 | -137.34376 | 37941 ft | 437 kts | 287° |
| 2026-05-05 04:35 | 66.33034 | -137.48357 | 37946 ft | 438 kts | 287° |
| 2026-05-05 04:36 | 66.35264 | -137.62486 | 37941 ft | 439 kts | 287° |
| 2026-05-05 04:36 | 66.37485 | -137.76671 | 37944 ft | 440 kts | 287° |
| 2026-05-05 04:37 | 66.39696 | -137.90902 | 37949 ft | 440 kts | 287° |
| 2026-05-05 04:37 | 66.41895 | -138.05158 | 37940 ft | 440 kts | 287° |
| 2026-05-05 04:38 | 66.44080 | -138.19452 | 37941 ft | 441 kts | 287° |
| 2026-05-05 04:38 | 66.46261 | -138.33802 | 37941 ft | 441 kts | 287° |
| 2026-05-05 04:39 | 66.48429 | -138.48169 | 37946 ft | 441 kts | 286° |
| 2026-05-05 04:39 | 66.50582 | -138.62573 | 37941 ft | 442 kts | 286° |
| 2026-05-05 04:40 | 66.52723 | -138.77014 | 37942 ft | 442 kts | 286° |
| 2026-05-05 04:40 | 66.54857 | -138.91489 | 37942 ft | 443 kts | 286° |
| 2026-05-05 04:41 | 66.56977 | -139.06026 | 37943 ft | 444 kts | 285° |
| 2026-05-05 04:41 | 66.59084 | -139.20600 | 37944 ft | 445 kts | 285° |
| 2026-05-05 04:42 | 66.61187 | -139.35243 | 37942 ft | 446 kts | 285° |
| 2026-05-05 04:42 | 66.63283 | -139.49952 | 37942 ft | 446 kts | 285° |
| 2026-05-05 04:43 | 66.65368 | -139.64711 | 37947 ft | 447 kts | 285° |
| 2026-05-05 04:43 | 66.67440 | -139.79514 | 37937 ft | 448 kts | 285° |
| 2026-05-05 04:44 | 66.69492 | -139.94258 | 37942 ft | 448 kts | 285° |
| 2026-05-05 04:44 | 66.71541 | -140.09126 | 37945 ft | 448 kts | 284° |
| 2026-05-05 04:45 | 66.73578 | -140.24051 | 37944 ft | 449 kts | 284° |
| 2026-05-05 04:45 | 66.75600 | -140.38990 | 37945 ft | 449 kts | 284° |
| 2026-05-05 04:46 | 66.77614 | -140.53949 | 37944 ft | 448 kts | 284° |
| 2026-05-05 04:46 | 66.79609 | -140.68921 | 37945 ft | 448 kts | 284° |
| 2026-05-05 04:47 | 66.81584 | -140.83930 | 37943 ft | 449 kts | 284° |
| 2026-05-05 04:47 | 66.83411 | -140.99048 | 37949 ft | 445 kts | 277° |
| 2026-05-05 04:48 | 66.84267 | -141.14525 | 37938 ft | 441 kts | 272° |
| 2026-05-05 04:48 | 66.84877 | -141.30051 | 37940 ft | 442 kts | 271° |
| 2026-05-05 04:49 | 66.85438 | -141.45597 | 37938 ft | 442 kts | 271° |
| 2026-05-05 04:49 | 66.85994 | -141.61136 | 37925 ft | 442 kts | 271° |
| 2026-05-05 04:50 | 66.86547 | -141.76738 | 37923 ft | 443 kts | 271° |
| 2026-05-05 04:50 | 66.87085 | -141.92329 | 37916 ft | 443 kts | 271° |
| 2026-05-05 04:51 | 66.87610 | -142.07938 | 37915 ft | 443 kts | 270° |
| 2026-05-05 04:51 | 66.88118 | -142.23580 | 37915 ft | 444 kts | 270° |
| 2026-05-05 04:52 | 66.88608 | -142.39279 | 37904 ft | 445 kts | 270° |
| 2026-05-05 04:52 | 66.89081 | -142.54847 | 37896 ft | 444 kts | 270° |
| 2026-05-05 04:53 | 66.89543 | -142.70544 | 37895 ft | 445 kts | 270° |
| 2026-05-05 04:53 | 66.89992 | -142.86236 | 37899 ft | 445 kts | 270° |
| 2026-05-05 04:54 | 66.90426 | -143.01971 | 37891 ft | 445 kts | 270° |
| 2026-05-05 04:54 | 66.90845 | -143.17732 | 37885 ft | 446 kts | 269° |
| 2026-05-05 04:55 | 66.91251 | -143.33508 | 37885 ft | 446 kts | 269° |
| 2026-05-05 04:55 | 66.91634 | -143.49296 | 37890 ft | 447 kts | 269° |
| 2026-05-05 04:56 | 66.92001 | -143.65104 | 37876 ft | 447 kts | 269° |
| 2026-05-05 04:56 | 66.92353 | -143.80925 | 37879 ft | 447 kts | 269° |
| 2026-05-05 04:57 | 66.92695 | -143.96742 | 37876 ft | 447 kts | 269° |
| 2026-05-05 04:57 | 66.93019 | -144.12575 | 37872 ft | 448 kts | 268° |
| 2026-05-05 04:58 | 66.93326 | -144.28463 | 37867 ft | 449 kts | 268° |
| 2026-05-05 04:58 | 66.93622 | -144.44366 | 37872 ft | 449 kts | 268° |
| 2026-05-05 04:59 | 66.93902 | -144.60172 | 37870 ft | 449 kts | 268° |
| 2026-05-05 04:59 | 66.94163 | -144.76090 | 37867 ft | 450 kts | 268° |
| 2026-05-05 05:00 | 66.94409 | -144.92045 | 37870 ft | 450 kts | 268° |
| 2026-05-05 05:00 | 66.94638 | -145.08012 | 37871 ft | 450 kts | 267° |
| 2026-05-05 05:01 | 66.94855 | -145.23972 | 37870 ft | 450 kts | 267° |
| 2026-05-05 05:01 | 66.95053 | -145.39954 | 37868 ft | 450 kts | 267° |
| 2026-05-05 05:02 | 66.95233 | -145.55933 | 37842 ft | 451 kts | 266° |
| 2026-05-05 05:02 | 66.95401 | -145.71955 | 37840 ft | 451 kts | 266° |
| 2026-05-05 05:03 | 66.95545 | -145.87967 | 37841 ft | 451 kts | 266° |
| 2026-05-05 05:03 | 66.95683 | -146.03985 | 37842 ft | 451 kts | 266° |
| 2026-05-05 05:04 | 66.95801 | -146.20039 | 37843 ft | 453 kts | 266° |
| 2026-05-05 05:04 | 66.95904 | -146.36126 | 37840 ft | 453 kts | 266° |
| 2026-05-05 05:05 | 66.95992 | -146.52226 | 37841 ft | 454 kts | 266° |
| 2026-05-05 05:05 | 66.96064 | -146.68313 | 37841 ft | 454 kts | 265° |
| 2026-05-05 05:06 | 66.96116 | -146.84418 | 37842 ft | 454 kts | 265° |
| 2026-05-05 05:06 | 66.96151 | -147.00446 | 37842 ft | 455 kts | 265° |
| 2026-05-05 05:07 | 66.96170 | -147.16592 | 37841 ft | 454 kts | 265° |
| 2026-05-05 05:07 | 66.96172 | -147.32722 | 37840 ft | 455 kts | 265° |
| 2026-05-05 05:08 | 66.96167 | -147.48866 | 37842 ft | 455 kts | 265° |
| 2026-05-05 05:08 | 66.96142 | -147.64984 | 37843 ft | 453 kts | 264° |
| 2026-05-05 05:09 | 66.96096 | -147.81095 | 37840 ft | 454 kts | 264° |
| 2026-05-05 05:09 | 66.96033 | -147.97208 | 37845 ft | 454 kts | 264° |
| 2026-05-05 05:10 | 66.95958 | -148.13333 | 37852 ft | 455 kts | 264° |
| 2026-05-05 05:10 | 66.95864 | -148.29481 | 37851 ft | 455 kts | 264° |
| 2026-05-05 05:11 | 66.95751 | -148.45624 | 37850 ft | 455 kts | 264° |
| 2026-05-05 05:11 | 66.95621 | -148.61772 | 37851 ft | 455 kts | 263° |
| 2026-05-05 05:12 | 66.95476 | -148.77941 | 37850 ft | 456 kts | 263° |
| 2026-05-05 05:12 | 66.95322 | -148.94127 | 37853 ft | 456 kts | 263° |
| 2026-05-05 05:13 | 66.95146 | -149.10315 | 37848 ft | 456 kts | 263° |
| 2026-05-05 05:13 | 66.94955 | -149.26454 | 37850 ft | 455 kts | 263° |
| 2026-05-05 05:14 | 66.94739 | -149.42626 | 37853 ft | 457 kts | 263° |
| 2026-05-05 05:14 | 66.94516 | -149.58850 | 37851 ft | 457 kts | 263° |
| 2026-05-05 05:15 | 66.94321 | -149.72288 | 37849 ft | 456 kts | 263° |
| 2026-05-05 05:15 | 66.94020 | -149.91112 | 37850 ft | 457 kts | 262° |
| 2026-05-05 05:16 | 66.93743 | -150.07313 | 37850 ft | 457 kts | 262° |
| 2026-05-05 05:16 | 66.93501 | -150.20896 | 37853 ft | 458 kts | 262° |
| 2026-05-05 05:17 | 66.93194 | -150.37135 | 37851 ft | 459 kts | 262° |
| 2026-05-05 05:17 | 66.92877 | -150.53276 | 37852 ft | 459 kts | 262° |
| 2026-05-05 05:18 | 66.92538 | -150.69503 | 37848 ft | 459 kts | 262° |
| 2026-05-05 05:18 | 66.92180 | -150.85749 | 37842 ft | 459 kts | 262° |
| 2026-05-05 05:19 | 66.91809 | -151.01969 | 37841 ft | 458 kts | 261° |
| 2026-05-05 05:19 | 66.91417 | -151.18183 | 37830 ft | 458 kts | 261° |
| 2026-05-05 05:20 | 66.91008 | -151.34392 | 37832 ft | 459 kts | 261° |
| 2026-05-05 05:20 | 66.90508 | -151.50582 | 37831 ft | 456 kts | 256° |
| 2026-05-05 05:21 | 66.89027 | -151.66152 | 37833 ft | 452 kts | 249° |
| 2026-05-05 05:21 | 66.87216 | -151.81457 | 37833 ft | 452 kts | 248° |
| 2026-05-05 05:22 | 66.85340 | -151.96679 | 37832 ft | 451 kts | 248° |
| 2026-05-05 05:22 | 66.83461 | -152.11892 | 37831 ft | 452 kts | 248° |
| 2026-05-05 05:23 | 66.81569 | -152.27141 | 37832 ft | 453 kts | 248° |
| 2026-05-05 05:23 | 66.79663 | -152.42397 | 37833 ft | 454 kts | 248° |
| 2026-05-05 05:24 | 66.77762 | -152.57515 | 37832 ft | 453 kts | 248° |
| 2026-05-05 05:24 | 66.75832 | -152.72713 | 37830 ft | 453 kts | 248° |
| 2026-05-05 05:25 | 66.73883 | -152.87890 | 37833 ft | 453 kts | 248° |
| 2026-05-05 05:25 | 66.71922 | -153.03049 | 37832 ft | 454 kts | 248° |
| 2026-05-05 05:26 | 66.69938 | -153.18214 | 37832 ft | 455 kts | 248° |
| 2026-05-05 05:26 | 66.67941 | -153.33357 | 37832 ft | 454 kts | 247° |
| 2026-05-05 05:27 | 66.65931 | -153.48473 | 37830 ft | 455 kts | 247° |
| 2026-05-05 05:27 | 66.62882 | -153.71141 | 37833 ft | 456 kts | 247° |
| 2026-05-05 05:28 | 66.60823 | -153.86240 | 37833 ft | 456 kts | 247° |
| 2026-05-05 05:28 | 66.58757 | -154.01358 | 37841 ft | 458 kts | 247° |
| 2026-05-05 05:29 | 66.56667 | -154.16452 | 37842 ft | 457 kts | 247° |
| 2026-05-05 05:29 | 66.54577 | -154.31424 | 37842 ft | 457 kts | 246° |
| 2026-05-05 05:30 | 66.52461 | -154.46467 | 37842 ft | 458 kts | 246° |
| 2026-05-05 05:30 | 66.50328 | -154.61495 | 37850 ft | 458 kts | 246° |
| 2026-05-05 05:31 | 66.48184 | -154.76483 | 37860 ft | 457 kts | 246° |
| 2026-05-05 05:31 | 66.46025 | -154.91455 | 37863 ft | 457 kts | 246° |
| 2026-05-05 05:32 | 66.43851 | -155.06395 | 37865 ft | 457 kts | 246° |
| 2026-05-05 05:32 | 66.41661 | -155.21303 | 37870 ft | 457 kts | 246° |
| 2026-05-05 05:33 | 66.39460 | -155.36180 | 37883 ft | 457 kts | 246° |
| 2026-05-05 05:33 | 66.37241 | -155.51036 | 37881 ft | 457 kts | 246° |
| 2026-05-05 05:34 | 66.35010 | -155.65875 | 37905 ft | 457 kts | 246° |
| 2026-05-05 05:34 | 66.32763 | -155.80693 | 37906 ft | 458 kts | 246° |
| 2026-05-05 05:35 | 66.30500 | -155.95506 | 37909 ft | 458 kts | 246° |
| 2026-05-05 05:35 | 66.28225 | -156.10272 | 37908 ft | 458 kts | 246° |
| 2026-05-05 05:36 | 66.25931 | -156.25038 | 37904 ft | 458 kts | 245° |
| 2026-05-05 05:36 | 66.23637 | -156.39686 | 37906 ft | 458 kts | 245° |
| 2026-05-05 05:37 | 66.21303 | -156.54487 | 37906 ft | 458 kts | 245° |
| 2026-05-05 05:37 | 66.18982 | -156.69056 | 37906 ft | 459 kts | 245° |
| 2026-05-05 05:38 | 66.16627 | -156.83745 | 37908 ft | 460 kts | 245° |
| 2026-05-05 05:38 | 66.14260 | -156.98436 | 37908 ft | 460 kts | 245° |
| 2026-05-05 05:39 | 66.11878 | -157.13081 | 37915 ft | 460 kts | 245° |
| 2026-05-05 05:39 | 66.09474 | -157.27728 | 37924 ft | 462 kts | 245° |
| 2026-05-05 05:40 | 66.07056 | -157.42377 | 37928 ft | 462 kts | 245° |
| 2026-05-05 05:40 | 66.04620 | -157.57004 | 37929 ft | 462 kts | 245° |
| 2026-05-05 05:41 | 66.02171 | -157.71593 | 37927 ft | 462 kts | 245° |
| 2026-05-05 05:41 | 65.99709 | -157.86173 | 37920 ft | 462 kts | 245° |
| 2026-05-05 05:42 | 65.97231 | -158.00747 | 37956 ft | 463 kts | 244° |
| 2026-05-05 05:42 | 65.94733 | -158.15274 | 37977 ft | 461 kts | 244° |
| 2026-05-05 05:43 | 65.92228 | -158.29752 | 37957 ft | 462 kts | 244° |
| 2026-05-05 05:43 | 65.89711 | -158.44236 | 37979 ft | 463 kts | 244° |
| 2026-05-05 05:44 | 65.87173 | -158.58717 | 37963 ft | 464 kts | 244° |
| 2026-05-05 05:44 | 65.84633 | -158.73083 | 37978 ft | 463 kts | 244° |
| 2026-05-05 05:45 | 65.82042 | -158.87611 | 37979 ft | 464 kts | 244° |
| 2026-05-05 05:45 | 65.79472 | -159.01935 | 37979 ft | 465 kts | 244° |
| 2026-05-05 05:46 | 65.76868 | -159.16352 | 37979 ft | 465 kts | 244° |
| 2026-05-05 05:46 | 65.74251 | -159.30737 | 37990 ft | 465 kts | 244° |
| 2026-05-05 05:47 | 65.71619 | -159.45105 | 37986 ft | 466 kts | 244° |
| 2026-05-05 05:47 | 65.68971 | -159.59455 | 37980 ft | 466 kts | 244° |
| 2026-05-05 05:48 | 65.66308 | -159.73781 | 37980 ft | 466 kts | 244° |
| 2026-05-05 05:48 | 65.63632 | -159.88074 | 37981 ft | 466 kts | 243° |
| 2026-05-05 05:49 | 65.60947 | -160.02319 | 37978 ft | 466 kts | 243° |
| 2026-05-05 05:49 | 65.58247 | -160.16545 | 38016 ft | 465 kts | 243° |
| 2026-05-05 05:50 | 65.55532 | -160.30742 | 38016 ft | 466 kts | 243° |
| 2026-05-05 05:50 | 65.52801 | -160.44929 | 38018 ft | 466 kts | 243° |
| 2026-05-05 05:51 | 65.50051 | -160.59112 | 38008 ft | 467 kts | 243° |
| 2026-05-05 05:51 | 65.47284 | -160.73281 | 38008 ft | 468 kts | 243° |
| 2026-05-05 05:52 | 65.44519 | -160.87349 | 38008 ft | 469 kts | 243° |
| 2026-05-05 05:52 | 65.41717 | -161.01506 | 37999 ft | 469 kts | 243° |
| 2026-05-05 05:53 | 65.38902 | -161.15635 | 38000 ft | 470 kts | 243° |
| 2026-05-05 05:53 | 65.36069 | -161.29764 | 37999 ft | 470 kts | 243° |
| 2026-05-05 05:54 | 65.33219 | -161.43873 | 37993 ft | 471 kts | 243° |
| 2026-05-05 05:54 | 65.30355 | -161.57959 | 37989 ft | 471 kts | 243° |
| 2026-05-05 05:55 | 65.27476 | -161.72023 | 37989 ft | 472 kts | 243° |
| 2026-05-05 05:55 | 65.24581 | -161.86070 | 37988 ft | 472 kts | 243° |
| 2026-05-05 05:56 | 65.21673 | -162.00087 | 37990 ft | 471 kts | 242° |
| 2026-05-05 05:56 | 65.18751 | -162.14062 | 37990 ft | 471 kts | 243° |
| 2026-05-05 05:57 | 65.15818 | -162.28000 | 37989 ft | 471 kts | 242° |
| 2026-05-05 05:57 | 65.12868 | -162.41935 | 38015 ft | 472 kts | 242° |
| 2026-05-05 05:58 | 65.09904 | -162.55857 | 38018 ft | 473 kts | 242° |
| 2026-05-05 05:58 | 65.06921 | -162.69760 | 38019 ft | 473 kts | 242° |
| 2026-05-05 05:59 | 65.03924 | -162.83641 | 38008 ft | 473 kts | 242° |
| 2026-05-05 05:59 | 65.00915 | -162.97491 | 38008 ft | 473 kts | 242° |
| 2026-05-05 06:00 | 64.97912 | -163.11208 | 38016 ft | 473 kts | 242° |
| 2026-05-05 06:00 | 64.94875 | -163.25014 | 38018 ft | 474 kts | 242° |
| 2026-05-05 06:01 | 64.91801 | -163.38886 | 38018 ft | 474 kts | 242° |
| 2026-05-05 06:01 | 64.88760 | -163.52523 | 38000 ft | 474 kts | 242° |
| 2026-05-05 06:02 | 64.85684 | -163.66235 | 37998 ft | 474 kts | 242° |
| 2026-05-05 06:02 | 64.82596 | -163.79905 | 38007 ft | 473 kts | 242° |
| 2026-05-05 06:03 | 64.79496 | -163.93542 | 38009 ft | 474 kts | 242° |
| 2026-05-05 06:03 | 64.76378 | -164.07178 | 38009 ft | 475 kts | 242° |
| 2026-05-05 06:04 | 64.73241 | -164.20801 | 38017 ft | 475 kts | 242° |
| 2026-05-05 06:04 | 64.70088 | -164.34403 | 38017 ft | 475 kts | 242° |
| 2026-05-05 06:05 | 64.66929 | -164.47958 | 38025 ft | 476 kts | 241° |
| 2026-05-05 06:05 | 64.63749 | -164.61519 | 38022 ft | 476 kts | 241° |
| 2026-05-05 06:06 | 64.60560 | -164.75027 | 38037 ft | 476 kts | 241° |
| 2026-05-05 06:06 | 64.57894 | -164.86257 | 38036 ft | 476 kts | 241° |
| 2026-05-05 06:07 | 64.54680 | -164.99727 | 38045 ft | 476 kts | 241° |
| 2026-05-05 06:07 | 64.51448 | -165.13173 | 38045 ft | 477 kts | 241° |
| 2026-05-05 06:08 | 64.48208 | -165.26583 | 38045 ft | 477 kts | 241° |
| 2026-05-05 06:08 | 64.44859 | -165.39860 | 38045 ft | 477 kts | 239° |
| 2026-05-05 06:09 | 64.41414 | -165.52995 | 38045 ft | 477 kts | 239° |
| 2026-05-05 06:09 | 64.37969 | -165.66107 | 38045 ft | 476 kts | 239° |
| 2026-05-05 06:10 | 64.34534 | -165.79196 | 38045 ft | 476 kts | 239° |
| 2026-05-05 06:10 | 64.31093 | -165.92262 | 38045 ft | 477 kts | 239° |
| 2026-05-05 06:11 | 64.27642 | -166.05300 | 38045 ft | 477 kts | 239° |
| 2026-05-05 06:11 | 64.24176 | -166.18305 | 38045 ft | 477 kts | 239° |
| 2026-05-05 06:12 | 64.20720 | -166.31194 | 38045 ft | 477 kts | 239° |
| 2026-05-05 06:12 | 64.17230 | -166.44141 | 38054 ft | 477 kts | 239° |
| 2026-05-05 06:13 | 64.13727 | -166.57057 | 38054 ft | 477 kts | 239° |
| 2026-05-05 06:13 | 64.10229 | -166.69972 | 38089 ft | 478 kts | 239° |
| 2026-05-05 06:14 | 64.06733 | -166.82863 | 38091 ft | 478 kts | 239° |
| 2026-05-05 06:14 | 64.03215 | -166.95758 | 38092 ft | 478 kts | 239° |
| 2026-05-05 06:15 | 63.99687 | -167.08606 | 38092 ft | 478 kts | 239° |
| 2026-05-05 06:15 | 63.96142 | -167.21437 | 38091 ft | 479 kts | 239° |
| 2026-05-05 06:16 | 63.92585 | -167.34242 | 38089 ft | 479 kts | 239° |
| 2026-05-05 06:16 | 63.89013 | -167.47024 | 38092 ft | 480 kts | 238° |
| 2026-05-05 06:17 | 63.85421 | -167.59794 | 38089 ft | 480 kts | 238° |
| 2026-05-05 06:17 | 63.81824 | -167.72522 | 38099 ft | 480 kts | 238° |
| 2026-05-05 06:18 | 63.78208 | -167.85249 | 38101 ft | 480 kts | 238° |
| 2026-05-05 06:18 | 63.74588 | -167.97915 | 38102 ft | 480 kts | 238° |
| 2026-05-05 06:19 | 63.70952 | -168.10564 | 38102 ft | 480 kts | 238° |
| 2026-05-05 06:19 | 63.67303 | -168.23187 | 38104 ft | 480 kts | 238° |
| 2026-05-05 06:20 | 63.63642 | -168.35779 | 38110 ft | 481 kts | 238° |
| 2026-05-05 06:20 | 63.59994 | -168.48260 | 38107 ft | 481 kts | 238° |
| 2026-05-05 06:21 | 63.56312 | -168.60784 | 38110 ft | 480 kts | 238° |
| 2026-05-05 06:21 | 63.52620 | -168.73276 | 38110 ft | 480 kts | 238° |
| 2026-05-05 06:22 | 63.48915 | -168.85742 | 38112 ft | 481 kts | 238° |
| 2026-05-05 06:22 | 63.45202 | -168.98168 | 38110 ft | 480 kts | 238° |
| 2026-05-05 06:23 | 63.41474 | -169.10566 | 38120 ft | 481 kts | 238° |
| 2026-05-05 06:23 | 63.37740 | -169.22937 | 38118 ft | 481 kts | 238° |
| 2026-05-05 06:24 | 63.33990 | -169.35284 | 38118 ft | 481 kts | 238° |
| 2026-05-05 06:24 | 63.30235 | -169.47603 | 38119 ft | 481 kts | 238° |
| 2026-05-05 06:25 | 63.26472 | -169.59889 | 38119 ft | 481 kts | 238° |
| 2026-05-05 06:25 | 63.22697 | -169.72142 | 38119 ft | 481 kts | 237° |
| 2026-05-05 06:26 | 63.18913 | -169.84369 | 38119 ft | 481 kts | 237° |
| 2026-05-05 06:26 | 63.15120 | -169.96558 | 38119 ft | 481 kts | 237° |
| 2026-05-05 06:27 | 63.09412 | -170.14781 | 38119 ft | 481 kts | 237° |
| 2026-05-05 06:28 | 63.05592 | -170.26891 | 38120 ft | 481 kts | 237° |
| 2026-05-05 06:28 | 63.01758 | -170.38979 | 38119 ft | 481 kts | 237° |
| 2026-05-05 06:29 | 62.97917 | -170.51030 | 38119 ft | 481 kts | 237° |
| 2026-05-05 06:29 | 62.94067 | -170.63052 | 38128 ft | 481 kts | 237° |
| 2026-05-05 06:30 | 62.90211 | -170.75022 | 38128 ft | 481 kts | 237° |
| 2026-05-05 06:30 | 62.86336 | -170.86983 | 38128 ft | 481 kts | 237° |
| 2026-05-05 06:31 | 62.82450 | -170.98915 | 38128 ft | 481 kts | 237° |
| 2026-05-05 06:31 | 62.78555 | -171.10815 | 38129 ft | 481 kts | 237° |
| 2026-05-05 06:32 | 62.74676 | -171.22603 | 38129 ft | 481 kts | 237° |
| 2026-05-05 06:32 | 62.70759 | -171.34448 | 38128 ft | 482 kts | 237° |
| 2026-05-05 06:33 | 62.66828 | -171.46267 | 38130 ft | 482 kts | 237° |
| 2026-05-05 06:33 | 62.62886 | -171.58060 | 38128 ft | 482 kts | 237° |
| 2026-05-05 06:34 | 62.58943 | -171.69821 | 38128 ft | 482 kts | 237° |
| 2026-05-05 06:34 | 62.54983 | -171.81581 | 38133 ft | 482 kts | 236° |
| 2026-05-05 06:35 | 62.51017 | -171.93280 | 38151 ft | 482 kts | 237° |
| 2026-05-05 06:35 | 62.47040 | -172.04960 | 38150 ft | 482 kts | 236° |
| 2026-05-05 06:36 | 62.43052 | -172.16603 | 38132 ft | 482 kts | 236° |
| 2026-05-05 06:36 | 62.39056 | -172.28220 | 38132 ft | 482 kts | 236° |
| 2026-05-05 06:37 | 62.35074 | -172.39736 | 38151 ft | 482 kts | 236° |
| 2026-05-05 06:37 | 62.31063 | -172.51293 | 38133 ft | 482 kts | 236° |
| 2026-05-05 06:38 | 62.27036 | -172.62817 | 38132 ft | 482 kts | 236° |
| 2026-05-05 06:38 | 62.23001 | -172.74304 | 38134 ft | 482 kts | 236° |
| 2026-05-05 06:39 | 62.18959 | -172.85752 | 38141 ft | 481 kts | 236° |
| 2026-05-05 06:39 | 62.14913 | -172.97165 | 38133 ft | 481 kts | 236° |
| 2026-05-05 06:40 | 62.10863 | -173.08531 | 38136 ft | 480 kts | 236° |
| 2026-05-05 06:40 | 62.06806 | -173.19858 | 38148 ft | 480 kts | 236° |
| 2026-05-05 06:41 | 62.02742 | -173.31150 | 38132 ft | 480 kts | 236° |
| 2026-05-05 06:41 | 61.98672 | -173.42406 | 38133 ft | 480 kts | 236° |
| 2026-05-05 06:42 | 61.94595 | -173.53618 | 38141 ft | 480 kts | 236° |
| 2026-05-05 06:42 | 61.90507 | -173.64811 | 38134 ft | 479 kts | 236° |
| 2026-05-05 06:43 | 61.86414 | -173.75970 | 38133 ft | 479 kts | 236° |
| 2026-05-05 06:43 | 61.82314 | -173.87085 | 38146 ft | 479 kts | 235° |
| 2026-05-05 06:44 | 61.78208 | -173.98164 | 38141 ft | 479 kts | 235° |
| 2026-05-05 06:44 | 61.74092 | -174.09215 | 38133 ft | 479 kts | 235° |
| 2026-05-05 06:45 | 61.69968 | -174.20234 | 38132 ft | 479 kts | 235° |
| 2026-05-05 06:45 | 61.65831 | -174.31235 | 38147 ft | 479 kts | 235° |
| 2026-05-05 06:46 | 61.61687 | -174.42204 | 38143 ft | 480 kts | 235° |
| 2026-05-05 06:46 | 61.57527 | -174.53168 | 38132 ft | 480 kts | 234° |
| 2026-05-05 06:47 | 61.53348 | -174.64100 | 38134 ft | 481 kts | 234° |
| 2026-05-05 06:47 | 61.49151 | -174.75010 | 38151 ft | 481 kts | 234° |
| 2026-05-05 06:48 | 61.44942 | -174.85901 | 38142 ft | 481 kts | 234° |
| 2026-05-05 06:48 | 61.40722 | -174.96777 | 38134 ft | 482 kts | 234° |
| 2026-05-05 06:49 | 61.36495 | -175.07625 | 38132 ft | 482 kts | 234° |
| 2026-05-05 06:49 | 61.32285 | -175.18381 | 38148 ft | 482 kts | 234° |
| 2026-05-05 06:50 | 61.28036 | -175.29177 | 38135 ft | 482 kts | 234° |
| 2026-05-05 06:50 | 61.23776 | -175.39949 | 38132 ft | 482 kts | 234° |
| 2026-05-05 06:51 | 61.19504 | -175.50696 | 38134 ft | 483 kts | 233° |
| 2026-05-05 06:51 | 61.15229 | -175.61405 | 38148 ft | 483 kts | 233° |
| 2026-05-05 06:52 | 61.10941 | -175.72098 | 38134 ft | 483 kts | 233° |
| 2026-05-05 06:52 | 61.06642 | -175.82769 | 38132 ft | 483 kts | 233° |
| 2026-05-05 06:53 | 61.02334 | -175.93414 | 38143 ft | 483 kts | 233° |
| 2026-05-05 06:53 | 60.98012 | -176.04037 | 38151 ft | 484 kts | 233° |
| 2026-05-05 06:54 | 60.94410 | -176.12852 | 38133 ft | 484 kts | 233° |
| 2026-05-05 06:54 | 60.90076 | -176.23424 | 38148 ft | 484 kts | 233° |
| 2026-05-05 06:55 | 60.85720 | -176.33999 | 38133 ft | 485 kts | 233° |
| 2026-05-05 06:55 | 60.81363 | -176.44526 | 38132 ft | 485 kts | 233° |
| 2026-05-05 06:56 | 60.76993 | -176.55036 | 38134 ft | 485 kts | 233° |
| 2026-05-05 06:56 | 60.72609 | -176.65531 | 38143 ft | 485 kts | 233° |
| 2026-05-05 06:57 | 60.68215 | -176.75997 | 38151 ft | 485 kts | 233° |
| 2026-05-05 06:57 | 60.63809 | -176.86438 | 38133 ft | 486 kts | 232° |
| 2026-05-05 06:58 | 60.59399 | -176.96855 | 38133 ft | 486 kts | 233° |
| 2026-05-05 06:58 | 60.54983 | -177.07236 | 38147 ft | 486 kts | 232° |
| 2026-05-05 06:59 | 60.50552 | -177.17603 | 38134 ft | 486 kts | 232° |
| 2026-05-05 06:59 | 60.46115 | -177.27938 | 38132 ft | 486 kts | 232° |
| 2026-05-05 07:00 | 60.41670 | -177.38241 | 38134 ft | 486 kts | 232° |
| 2026-05-05 07:00 | 60.37215 | -177.48524 | 38139 ft | 486 kts | 232° |
| 2026-05-05 07:01 | 60.32748 | -177.58789 | 38133 ft | 486 kts | 232° |
| 2026-05-05 07:01 | 60.28300 | -177.68958 | 38133 ft | 487 kts | 232° |
| 2026-05-05 07:02 | 60.23814 | -177.79171 | 38148 ft | 487 kts | 232° |
| 2026-05-05 07:02 | 60.19326 | -177.89350 | 38145 ft | 487 kts | 232° |
| 2026-05-05 07:03 | 60.14917 | -177.99666 | 38134 ft | 486 kts | 234° |
| 2026-05-05 07:03 | 60.10591 | -178.10094 | 38133 ft | 486 kts | 234° |
| 2026-05-05 07:04 | 60.06248 | -178.20486 | 38133 ft | 486 kts | 234° |
| 2026-05-05 07:04 | 60.01878 | -178.30826 | 38141 ft | 487 kts | 233° |
| 2026-05-05 07:05 | 59.97495 | -178.41123 | 38144 ft | 486 kts | 233° |
| 2026-05-05 07:05 | 59.93104 | -178.51397 | 38134 ft | 486 kts | 233° |
| 2026-05-05 07:06 | 59.88705 | -178.61639 | 38132 ft | 486 kts | 233° |
| 2026-05-05 07:06 | 59.84303 | -178.71843 | 38133 ft | 486 kts | 233° |
| 2026-05-05 07:07 | 59.79888 | -178.82031 | 38140 ft | 486 kts | 233° |
| 2026-05-05 07:07 | 59.75466 | -178.92194 | 38139 ft | 486 kts | 233° |
| 2026-05-05 07:08 | 59.71036 | -179.02325 | 38132 ft | 486 kts | 233° |
| 2026-05-05 07:08 | 59.66603 | -179.12433 | 38153 ft | 486 kts | 233° |
| 2026-05-05 07:09 | 59.62160 | -179.22512 | 38151 ft | 486 kts | 233° |
| 2026-05-05 07:09 | 59.57707 | -179.32562 | 38141 ft | 486 kts | 232° |
| 2026-05-05 07:10 | 59.53279 | -179.42521 | 38147 ft | 486 kts | 232° |
| 2026-05-05 07:10 | 59.48784 | -179.52580 | 38147 ft | 486 kts | 232° |
| 2026-05-05 07:11 | 59.44316 | -179.62537 | 38139 ft | 486 kts | 232° |
| 2026-05-05 07:11 | 59.39866 | -179.72411 | 38172 ft | 486 kts | 232° |
| 2026-05-05 07:12 | 59.35376 | -179.82330 | 38183 ft | 486 kts | 232° |
| 2026-05-05 07:12 | 59.30880 | -179.92223 | 38191 ft | 486 kts | 232° |
| 2026-05-05 07:13 | 59.26374 | 179.97907 | 38192 ft | 486 kts | 232° |
| 2026-05-05 07:13 | 59.21867 | 179.88067 | 38123 ft | 485 kts | 232° |
| 2026-05-05 07:14 | 59.17354 | 179.78270 | 38119 ft | 485 kts | 232° |
| 2026-05-05 07:14 | 59.12837 | 179.68506 | 38119 ft | 485 kts | 232° |
| 2026-05-05 07:15 | 59.08312 | 179.58762 | 38120 ft | 485 kts | 231° |
| 2026-05-05 07:15 | 59.03781 | 179.49047 | 38119 ft | 485 kts | 231° |
| 2026-05-05 07:16 | 58.99246 | 179.39367 | 38119 ft | 485 kts | 231° |
| 2026-05-05 07:16 | 58.94706 | 179.29710 | 38118 ft | 484 kts | 231° |
| 2026-05-05 07:17 | 58.90160 | 179.20082 | 38126 ft | 484 kts | 231° |
| 2026-05-05 07:17 | 58.85610 | 179.10485 | 38128 ft | 484 kts | 231° |
| 2026-05-05 07:18 | 58.81059 | 179.00928 | 38129 ft | 484 kts | 231° |
| 2026-05-05 07:18 | 58.76493 | 178.91382 | 38128 ft | 484 kts | 231° |
| 2026-05-05 07:19 | 58.71922 | 178.81866 | 38128 ft | 484 kts | 231° |
| 2026-05-05 07:19 | 58.67346 | 178.72376 | 38128 ft | 484 kts | 231° |
| 2026-05-05 07:20 | 58.62764 | 178.62915 | 38128 ft | 484 kts | 230° |
| 2026-05-05 07:20 | 58.58175 | 178.53483 | 38128 ft | 483 kts | 230° |
| 2026-05-05 07:21 | 58.53585 | 178.44084 | 38128 ft | 484 kts | 230° |
| 2026-05-05 07:21 | 58.48985 | 178.34699 | 38128 ft | 483 kts | 230° |
| 2026-05-05 07:22 | 58.44380 | 178.25342 | 38128 ft | 483 kts | 230° |
| 2026-05-05 07:22 | 58.39768 | 178.16010 | 38128 ft | 483 kts | 230° |
| 2026-05-05 07:23 | 58.35148 | 178.06703 | 38129 ft | 483 kts | 230° |
| 2026-05-05 07:23 | 58.30551 | 177.97478 | 38128 ft | 484 kts | 230° |
| 2026-05-05 07:24 | 58.25916 | 177.88215 | 38127 ft | 483 kts | 230° |
| 2026-05-05 07:24 | 58.21280 | 177.78988 | 38128 ft | 483 kts | 230° |
| 2026-05-05 07:25 | 58.16633 | 177.69776 | 38129 ft | 483 kts | 230° |
| 2026-05-05 07:25 | 58.11983 | 177.60595 | 38128 ft | 483 kts | 230° |
| 2026-05-05 07:26 | 58.07326 | 177.51438 | 38127 ft | 483 kts | 230° |
| 2026-05-05 07:26 | 58.02663 | 177.42307 | 38080 ft | 483 kts | 229° |
| 2026-05-05 07:27 | 57.97997 | 177.33209 | 38080 ft | 482 kts | 230° |
| 2026-05-05 07:27 | 57.93326 | 177.24133 | 38080 ft | 482 kts | 229° |
| 2026-05-05 07:28 | 57.88649 | 177.15082 | 38080 ft | 482 kts | 229° |
| 2026-05-05 07:28 | 57.83968 | 177.06060 | 38081 ft | 482 kts | 229° |
| 2026-05-05 07:29 | 57.79286 | 176.97066 | 38085 ft | 482 kts | 229° |
| 2026-05-05 07:29 | 57.74606 | 176.88117 | 38080 ft | 481 kts | 229° |
| 2026-05-05 07:30 | 57.69915 | 176.79187 | 38080 ft | 481 kts | 229° |
| 2026-05-05 07:30 | 57.62902 | 176.65889 | 38082 ft | 481 kts | 229° |
| 2026-05-05 07:31 | 57.58204 | 176.57021 | 38097 ft | 480 kts | 229° |
| 2026-05-05 07:31 | 57.53501 | 176.48184 | 38088 ft | 480 kts | 229° |
| 2026-05-05 07:32 | 57.48791 | 176.39371 | 38093 ft | 480 kts | 229° |
| 2026-05-05 07:32 | 57.44125 | 176.30516 | 38094 ft | 480 kts | 229° |
| 2026-05-05 07:33 | 57.39471 | 176.21634 | 38096 ft | 480 kts | 229° |
| 2026-05-05 07:33 | 57.34804 | 176.12782 | 38092 ft | 480 kts | 229° |
| 2026-05-05 07:34 | 57.30126 | 176.03962 | 38091 ft | 480 kts | 229° |
| 2026-05-05 07:34 | 57.25442 | 175.95174 | 38092 ft | 480 kts | 229° |
| 2026-05-05 07:35 | 57.20761 | 175.86424 | 38094 ft | 478 kts | 229° |
| 2026-05-05 07:35 | 57.16083 | 175.77714 | 38088 ft | 478 kts | 229° |
| 2026-05-05 07:36 | 57.11403 | 175.69033 | 38091 ft | 478 kts | 229° |
| 2026-05-05 07:36 | 57.06714 | 175.60373 | 38089 ft | 478 kts | 229° |
| 2026-05-05 07:37 | 57.02021 | 175.51729 | 38099 ft | 478 kts | 229° |
| 2026-05-05 07:37 | 56.97321 | 175.43101 | 38102 ft | 478 kts | 229° |
| 2026-05-05 07:38 | 56.92612 | 175.34502 | 38099 ft | 478 kts | 229° |
| 2026-05-05 07:38 | 56.87902 | 175.25933 | 38105 ft | 477 kts | 229° |
| 2026-05-05 07:39 | 56.83194 | 175.17395 | 38104 ft | 477 kts | 229° |
| 2026-05-05 07:39 | 56.78477 | 175.08870 | 38099 ft | 477 kts | 229° |
| 2026-05-05 07:40 | 56.73758 | 175.00373 | 38099 ft | 477 kts | 229° |
| 2026-05-05 07:40 | 56.69831 | 174.93327 | 38103 ft | 476 kts | 228° |
| 2026-05-05 07:41 | 56.65105 | 174.84882 | 38103 ft | 476 kts | 228° |
| 2026-05-05 07:41 | 56.59611 | 174.75095 | 38100 ft | 476 kts | 228° |
| 2026-05-05 07:42 | 56.55652 | 174.68070 | 38109 ft | 475 kts | 228° |
| 2026-05-05 07:42 | 56.50920 | 174.59706 | 38110 ft | 475 kts | 228° |
| 2026-05-05 07:43 | 56.46184 | 174.51367 | 38111 ft | 475 kts | 228° |
| 2026-05-05 07:43 | 56.41447 | 174.43057 | 38110 ft | 474 kts | 228° |
| 2026-05-05 07:44 | 56.36709 | 174.34774 | 38111 ft | 474 kts | 228° |
| 2026-05-05 07:44 | 56.32003 | 174.26572 | 38109 ft | 473 kts | 228° |
| 2026-05-05 07:45 | 56.27228 | 174.18282 | 38109 ft | 474 kts | 228° |
| 2026-05-05 07:45 | 56.22521 | 174.10137 | 38110 ft | 473 kts | 228° |
| 2026-05-05 07:46 | 56.17775 | 174.01955 | 38040 ft | 472 kts | 228° |
| 2026-05-05 07:46 | 56.13025 | 173.93800 | 38026 ft | 472 kts | 228° |
| 2026-05-05 07:47 | 56.08269 | 173.85664 | 38025 ft | 473 kts | 228° |
| 2026-05-05 07:47 | 56.03507 | 173.77545 | 38034 ft | 473 kts | 227° |
| 2026-05-05 07:48 | 55.98740 | 173.69450 | 38036 ft | 472 kts | 228° |
| 2026-05-05 07:48 | 55.93975 | 173.61385 | 38036 ft | 472 kts | 228° |
| 2026-05-05 07:49 | 55.89207 | 173.53342 | 38036 ft | 472 kts | 227° |
| 2026-05-05 07:49 | 55.84444 | 173.45334 | 38036 ft | 471 kts | 228° |
| 2026-05-05 07:50 | 55.79675 | 173.37350 | 38036 ft | 470 kts | 228° |
| 2026-05-05 07:50 | 55.74909 | 173.29400 | 38036 ft | 470 kts | 228° |
| 2026-05-05 07:51 | 55.70177 | 173.21529 | 38045 ft | 469 kts | 228° |
| 2026-05-05 07:51 | 55.65415 | 173.13640 | 38045 ft | 468 kts | 228° |
| 2026-05-05 07:52 | 55.60658 | 173.05788 | 38045 ft | 467 kts | 228° |
| 2026-05-05 07:52 | 55.55908 | 172.97968 | 38045 ft | 466 kts | 228° |
| 2026-05-05 07:53 | 55.51156 | 172.90173 | 38045 ft | 466 kts | 228° |
| 2026-05-05 07:53 | 55.46403 | 172.82403 | 38045 ft | 466 kts | 228° |
| 2026-05-05 07:54 | 55.41647 | 172.74659 | 38045 ft | 465 kts | 228° |
| 2026-05-05 07:54 | 55.36891 | 172.66939 | 38053 ft | 465 kts | 228° |
| 2026-05-05 07:55 | 55.32133 | 172.59245 | 38054 ft | 465 kts | 228° |
| 2026-05-05 07:55 | 55.27381 | 172.51579 | 38054 ft | 464 kts | 228° |
| 2026-05-05 07:56 | 55.22623 | 172.43934 | 38054 ft | 464 kts | 228° |
| 2026-05-05 07:56 | 55.17865 | 172.36315 | 38055 ft | 463 kts | 228° |
| 2026-05-05 07:57 | 55.13106 | 172.28724 | 38054 ft | 463 kts | 228° |
| 2026-05-05 07:57 | 55.08372 | 172.21199 | 38054 ft | 463 kts | 229° |
| 2026-05-05 07:58 | 55.03607 | 172.13644 | 38054 ft | 463 kts | 229° |
| 2026-05-05 07:58 | 54.98840 | 172.06113 | 38054 ft | 462 kts | 229° |
| 2026-05-05 07:59 | 54.94110 | 171.98569 | 38186 ft | 458 kts | 232° |
| 2026-05-05 07:59 | 54.91993 | 171.94489 | 38445 ft | 451 kts | 236° |
| 2026-05-05 07:59 | 54.89975 | 171.90355 | 38743 ft | 447 kts | 237° |
| 2026-05-05 08:00 | 54.87995 | 171.86205 | 38884 ft | 446 kts | 238° |
| 2026-05-05 08:00 | 54.86028 | 171.82034 | 38970 ft | 447 kts | 238° |
| 2026-05-05 08:00 | 54.82086 | 171.73663 | 39058 ft | 449 kts | 238° |
| 2026-05-05 08:01 | 54.78119 | 171.65289 | 39054 ft | 449 kts | 238° |
| 2026-05-05 08:01 | 54.74141 | 171.56958 | 39054 ft | 448 kts | 238° |
| 2026-05-05 08:02 | 54.70160 | 171.48654 | 39055 ft | 448 kts | 238° |
| 2026-05-05 08:02 | 54.66178 | 171.40370 | 39054 ft | 448 kts | 238° |
| 2026-05-05 08:03 | 54.62194 | 171.32106 | 39056 ft | 447 kts | 238° |
| 2026-05-05 08:03 | 54.58215 | 171.23883 | 39055 ft | 446 kts | 238° |
| 2026-05-05 08:04 | 54.54230 | 171.15676 | 39047 ft | 446 kts | 238° |
| 2026-05-05 08:04 | 54.50243 | 171.07491 | 39045 ft | 445 kts | 238° |
| 2026-05-05 08:05 | 54.46260 | 170.99344 | 39045 ft | 445 kts | 238° |
| 2026-05-05 08:05 | 54.42278 | 170.91220 | 39046 ft | 444 kts | 238° |
| 2026-05-05 08:06 | 54.38298 | 170.83139 | 39045 ft | 442 kts | 238° |
| 2026-05-05 08:06 | 54.34352 | 170.75140 | 39045 ft | 442 kts | 238° |
| 2026-05-05 08:07 | 54.30360 | 170.67076 | 39035 ft | 440 kts | 238° |
| 2026-05-05 08:07 | 54.26405 | 170.59118 | 39036 ft | 439 kts | 238° |
| 2026-05-05 08:08 | 54.22449 | 170.51184 | 39037 ft | 438 kts | 238° |
| 2026-05-05 08:08 | 54.18524 | 170.43335 | 39036 ft | 436 kts | 238° |
| 2026-05-05 08:09 | 54.14584 | 170.35483 | 39026 ft | 435 kts | 238° |
| 2026-05-05 08:09 | 54.10650 | 170.27668 | 39028 ft | 434 kts | 238° |
| 2026-05-05 08:10 | 54.06721 | 170.19886 | 39026 ft | 433 kts | 238° |
| 2026-05-05 08:10 | 54.02795 | 170.12130 | 39008 ft | 432 kts | 238° |
| 2026-05-05 08:11 | 53.98868 | 170.04398 | 39027 ft | 432 kts | 238° |
| 2026-05-05 08:11 | 53.94943 | 169.96695 | 39008 ft | 432 kts | 238° |
| 2026-05-05 08:12 | 53.91007 | 169.88997 | 39008 ft | 432 kts | 238° |
| 2026-05-05 08:12 | 53.87066 | 169.81313 | 39006 ft | 431 kts | 238° |
| 2026-05-05 08:13 | 53.83131 | 169.73666 | 39002 ft | 430 kts | 238° |
| 2026-05-05 08:13 | 53.79200 | 169.66052 | 39004 ft | 429 kts | 238° |
| 2026-05-05 08:14 | 53.75281 | 169.58487 | 38998 ft | 427 kts | 238° |
| 2026-05-05 08:14 | 53.71379 | 169.50975 | 38990 ft | 424 kts | 238° |
| 2026-05-05 08:15 | 53.67498 | 169.43525 | 38991 ft | 421 kts | 238° |
| 2026-05-05 08:15 | 53.63690 | 169.36085 | 38996 ft | 414 kts | 242° |
| 2026-05-05 08:16 | 53.60679 | 169.28017 | 39004 ft | 402 kts | 248° |
| 2026-05-05 08:16 | 53.58023 | 169.19790 | 38992 ft | 398 kts | 249° |
| 2026-05-05 08:17 | 53.55423 | 169.11586 | 38984 ft | 396 kts | 249° |
| 2026-05-05 08:17 | 53.52824 | 169.03447 | 38978 ft | 394 kts | 249° |
| 2026-05-05 08:18 | 53.50241 | 168.95425 | 38974 ft | 392 kts | 249° |
| 2026-05-05 08:18 | 53.47644 | 168.87400 | 38966 ft | 390 kts | 248° |
| 2026-05-05 08:19 | 53.45054 | 168.79428 | 38962 ft | 389 kts | 248° |
| 2026-05-05 08:19 | 53.42466 | 168.71481 | 38954 ft | 388 kts | 248° |
| 2026-05-05 08:20 | 53.39880 | 168.63572 | 38952 ft | 386 kts | 248° |
| 2026-05-05 08:20 | 53.37296 | 168.55687 | 38945 ft | 386 kts | 248° |
| 2026-05-05 08:21 | 53.34711 | 168.47827 | 38936 ft | 385 kts | 248° |
| 2026-05-05 08:21 | 53.32126 | 168.39990 | 38932 ft | 384 kts | 248° |
| 2026-05-05 08:22 | 53.30833 | 168.36083 | 39036 ft | 384 kts | 248° |
| 2026-05-05 08:22 | 53.29539 | 168.32189 | 39204 ft | 383 kts | 247° |
| 2026-05-05 08:22 | 53.26941 | 168.24390 | 39349 ft | 385 kts | 247° |
| 2026-05-05 08:23 | 53.24327 | 168.16573 | 39496 ft | 387 kts | 247° |
| 2026-05-05 08:23 | 53.21700 | 168.08738 | 39653 ft | 388 kts | 247° |
| 2026-05-05 08:24 | 53.19054 | 168.00873 | 39756 ft | 390 kts | 246° |
| 2026-05-05 08:24 | 53.16393 | 167.92983 | 39886 ft | 390 kts | 245° |
| 2026-05-05 08:25 | 53.13729 | 167.85118 | 39888 ft | 389 kts | 245° |
| 2026-05-05 08:25 | 53.11068 | 167.77293 | 39878 ft | 388 kts | 245° |
| 2026-05-05 08:26 | 53.08407 | 167.69484 | 39869 ft | 387 kts | 245° |
| 2026-05-05 08:26 | 53.05751 | 167.61707 | 39859 ft | 386 kts | 245° |
| 2026-05-05 08:27 | 53.03093 | 167.53947 | 39855 ft | 386 kts | 245° |
| 2026-05-05 08:27 | 53.00452 | 167.46270 | 39853 ft | 385 kts | 245° |
| 2026-05-05 08:28 | 52.97790 | 167.38560 | 39839 ft | 385 kts | 244° |
| 2026-05-05 08:28 | 52.95129 | 167.30875 | 39833 ft | 384 kts | 244° |
| 2026-05-05 08:29 | 52.92473 | 167.23226 | 39820 ft | 382 kts | 244° |
| 2026-05-05 08:30 | 52.88494 | 167.11808 | 39795 ft | 382 kts | 244° |
| 2026-05-05 08:30 | 52.85835 | 167.04210 | 39785 ft | 381 kts | 244° |
| 2026-05-05 08:31 | 52.83625 | 166.97909 | 39782 ft | 381 kts | 244° |
| 2026-05-05 08:31 | 52.80966 | 166.90344 | 39773 ft | 381 kts | 244° |
| 2026-05-05 08:32 | 52.78303 | 166.82795 | 39764 ft | 380 kts | 244° |
| 2026-05-05 08:32 | 52.75643 | 166.75287 | 39756 ft | 379 kts | 243° |
| 2026-05-05 08:33 | 52.72985 | 166.67804 | 39749 ft | 377 kts | 243° |
| 2026-05-05 08:33 | 52.70332 | 166.60346 | 39739 ft | 376 kts | 243° |
| 2026-05-05 08:34 | 52.67680 | 166.52912 | 39732 ft | 376 kts | 243° |
| 2026-05-05 08:34 | 52.65031 | 166.45512 | 39728 ft | 374 kts | 243° |
| 2026-05-05 08:35 | 52.62380 | 166.38150 | 39718 ft | 373 kts | 243° |
| 2026-05-05 08:35 | 52.59737 | 166.30825 | 39715 ft | 372 kts | 243° |
| 2026-05-05 08:36 | 52.57100 | 166.23519 | 39695 ft | 371 kts | 242° |
| 2026-05-05 08:36 | 52.54465 | 166.16249 | 39695 ft | 370 kts | 242° |
| 2026-05-05 08:37 | 52.51833 | 166.09006 | 39688 ft | 368 kts | 242° |
| 2026-05-05 08:37 | 52.49204 | 166.01794 | 39673 ft | 368 kts | 242° |
| 2026-05-05 08:38 | 52.46581 | 165.94602 | 39675 ft | 367 kts | 242° |
| 2026-05-05 08:38 | 52.43948 | 165.87419 | 39665 ft | 368 kts | 242° |
| 2026-05-05 08:39 | 52.41326 | 165.80291 | 39654 ft | 367 kts | 242° |
| 2026-05-05 08:39 | 52.38689 | 165.73135 | 39645 ft | 367 kts | 242° |
| 2026-05-05 08:40 | 52.36048 | 165.65994 | 39640 ft | 367 kts | 242° |
| 2026-05-05 08:40 | 52.33407 | 165.58872 | 39631 ft | 367 kts | 241° |
| 2026-05-05 08:41 | 52.30758 | 165.51739 | 39627 ft | 368 kts | 241° |
| 2026-05-05 08:41 | 52.28092 | 165.44599 | 39617 ft | 369 kts | 241° |
| 2026-05-05 08:42 | 52.25424 | 165.37456 | 39609 ft | 368 kts | 241° |
| 2026-05-05 08:42 | 52.22749 | 165.30309 | 39606 ft | 370 kts | 241° |
| 2026-05-05 08:43 | 52.20061 | 165.23151 | 39598 ft | 371 kts | 241° |
| 2026-05-05 08:43 | 52.17355 | 165.15975 | 39590 ft | 372 kts | 240° |
| 2026-05-05 08:44 | 52.14640 | 165.08800 | 39581 ft | 372 kts | 240° |
| 2026-05-05 08:44 | 52.11915 | 165.01616 | 39574 ft | 373 kts | 240° |
| 2026-05-05 08:45 | 52.09179 | 164.94437 | 39567 ft | 374 kts | 240° |
| 2026-05-05 08:45 | 52.06432 | 164.87230 | 39566 ft | 375 kts | 240° |
| 2026-05-05 08:46 | 52.03677 | 164.80022 | 39558 ft | 376 kts | 239° |
| 2026-05-05 08:46 | 52.00909 | 164.72801 | 39545 ft | 377 kts | 239° |
| 2026-05-05 08:47 | 51.98132 | 164.65580 | 39546 ft | 377 kts | 239° |
| 2026-05-05 08:47 | 51.95359 | 164.58393 | 39535 ft | 376 kts | 239° |
| 2026-05-05 08:48 | 51.92601 | 164.51259 | 39535 ft | 376 kts | 239° |
| 2026-05-05 08:48 | 51.89815 | 164.44075 | 39522 ft | 377 kts | 239° |
| 2026-05-05 08:49 | 51.87019 | 164.36884 | 39515 ft | 378 kts | 238° |
| 2026-05-05 08:49 | 51.84215 | 164.29695 | 39515 ft | 378 kts | 238° |
| 2026-05-05 08:50 | 51.81408 | 164.22511 | 39507 ft | 378 kts | 238° |
| 2026-05-05 08:50 | 51.78596 | 164.15343 | 39494 ft | 378 kts | 238° |
| 2026-05-05 08:51 | 51.75776 | 164.08178 | 39495 ft | 378 kts | 238° |
| 2026-05-05 08:51 | 51.72952 | 164.01027 | 39488 ft | 378 kts | 238° |
| 2026-05-05 08:52 | 51.70126 | 163.93880 | 39483 ft | 378 kts | 238° |
| 2026-05-05 08:52 | 51.67287 | 163.86720 | 39480 ft | 379 kts | 238° |
| 2026-05-05 08:53 | 51.64445 | 163.79575 | 39471 ft | 379 kts | 238° |
| 2026-05-05 08:53 | 51.61599 | 163.72439 | 39461 ft | 379 kts | 238° |
| 2026-05-05 08:54 | 51.58747 | 163.65307 | 39471 ft | 379 kts | 237° |
| 2026-05-05 08:54 | 51.55895 | 163.58193 | 39460 ft | 379 kts | 237° |
| 2026-05-05 08:55 | 51.53038 | 163.51080 | 39454 ft | 379 kts | 237° |
| 2026-05-05 08:55 | 51.50193 | 163.44026 | 39447 ft | 379 kts | 237° |
| 2026-05-05 08:56 | 51.47324 | 163.36932 | 39445 ft | 379 kts | 237° |
| 2026-05-05 08:56 | 51.44454 | 163.29849 | 39439 ft | 378 kts | 237° |
| 2026-05-05 08:57 | 51.41582 | 163.22785 | 39440 ft | 378 kts | 237° |
| 2026-05-05 08:57 | 51.38704 | 163.15725 | 39431 ft | 379 kts | 237° |
| 2026-05-05 08:58 | 51.35823 | 163.08675 | 39429 ft | 379 kts | 237° |
| 2026-05-05 08:58 | 51.32934 | 163.01624 | 39423 ft | 379 kts | 237° |
| 2026-05-05 08:59 | 51.30037 | 162.94578 | 39420 ft | 379 kts | 236° |
| 2026-05-05 08:59 | 51.27134 | 162.87536 | 39421 ft | 380 kts | 236° |
| 2026-05-05 09:00 | 51.24223 | 162.80491 | 39411 ft | 380 kts | 236° |
| 2026-05-05 09:00 | 51.21308 | 162.73452 | 39411 ft | 380 kts | 236° |
| 2026-05-05 09:01 | 51.18387 | 162.66422 | 39411 ft | 380 kts | 236° |
| 2026-05-05 09:01 | 51.15461 | 162.59402 | 39402 ft | 380 kts | 236° |
| 2026-05-05 09:02 | 51.12527 | 162.52377 | 39402 ft | 381 kts | 236° |
| 2026-05-05 09:02 | 51.09608 | 162.45405 | 39401 ft | 381 kts | 236° |
| 2026-05-05 09:03 | 51.06668 | 162.38405 | 39389 ft | 381 kts | 236° |
| 2026-05-05 09:03 | 51.03724 | 162.31412 | 39393 ft | 381 kts | 236° |
| 2026-05-05 09:04 | 51.00777 | 162.24428 | 39390 ft | 380 kts | 236° |
| 2026-05-05 09:04 | 50.97826 | 162.17451 | 39394 ft | 381 kts | 236° |
| 2026-05-05 09:05 | 50.94868 | 162.10488 | 39387 ft | 380 kts | 235° |
| 2026-05-05 09:05 | 50.91912 | 162.03546 | 39382 ft | 379 kts | 235° |
| 2026-05-05 09:06 | 50.88954 | 161.96622 | 39381 ft | 379 kts | 234° |
| 2026-05-05 09:06 | 50.85989 | 161.89694 | 39383 ft | 382 kts | 234° |
| 2026-05-05 09:07 | 50.83002 | 161.82728 | 39381 ft | 383 kts | 234° |
| 2026-05-05 09:07 | 50.80009 | 161.75768 | 39374 ft | 382 kts | 234° |
| 2026-05-05 09:08 | 50.77016 | 161.68831 | 39373 ft | 382 kts | 234° |
| 2026-05-05 09:08 | 50.74020 | 161.61906 | 39374 ft | 382 kts | 234° |
| 2026-05-05 09:09 | 50.71022 | 161.54986 | 39373 ft | 382 kts | 234° |
| 2026-05-05 09:09 | 50.68017 | 161.48078 | 39373 ft | 382 kts | 234° |
| 2026-05-05 09:10 | 50.65004 | 161.41166 | 39374 ft | 383 kts | 234° |
| 2026-05-05 09:10 | 50.61984 | 161.34261 | 39373 ft | 383 kts | 234° |
| 2026-05-05 09:11 | 50.58979 | 161.27407 | 39374 ft | 383 kts | 234° |
| 2026-05-05 09:11 | 50.55944 | 161.20495 | 39364 ft | 384 kts | 234° |
| 2026-05-05 09:12 | 50.52905 | 161.13594 | 39363 ft | 384 kts | 234° |
| 2026-05-05 09:12 | 50.49851 | 161.06678 | 39364 ft | 386 kts | 233° |
| 2026-05-05 09:13 | 50.46782 | 160.99750 | 39364 ft | 387 kts | 233° |
| 2026-05-05 09:13 | 50.43704 | 160.92817 | 39364 ft | 387 kts | 233° |
| 2026-05-05 09:14 | 50.40616 | 160.85883 | 39364 ft | 388 kts | 233° |
| 2026-05-05 09:14 | 50.37518 | 160.78942 | 39363 ft | 389 kts | 233° |
| 2026-05-05 09:15 | 50.34406 | 160.71991 | 39364 ft | 390 kts | 233° |
| 2026-05-05 09:15 | 50.31286 | 160.65037 | 39363 ft | 391 kts | 233° |
| 2026-05-05 09:16 | 50.28155 | 160.58079 | 39365 ft | 392 kts | 233° |
| 2026-05-05 09:16 | 50.25022 | 160.51131 | 39364 ft | 392 kts | 232° |
| 2026-05-05 09:17 | 50.21874 | 160.44173 | 39346 ft | 392 kts | 232° |
| 2026-05-05 09:17 | 50.18717 | 160.37213 | 39345 ft | 393 kts | 232° |
| 2026-05-05 09:18 | 50.15540 | 160.30257 | 39345 ft | 394 kts | 232° |
| 2026-05-05 09:18 | 50.12352 | 160.23310 | 39345 ft | 394 kts | 232° |
| 2026-05-05 09:19 | 50.09699 | 160.17538 | 39345 ft | 394 kts | 232° |
| 2026-05-05 09:19 | 50.06506 | 160.10612 | 39345 ft | 394 kts | 232° |
| 2026-05-05 09:20 | 50.03308 | 160.03674 | 39345 ft | 395 kts | 232° |
| 2026-05-05 09:20 | 50.00108 | 159.96743 | 39345 ft | 394 kts | 232° |
| 2026-05-05 09:21 | 49.96902 | 159.89826 | 39344 ft | 394 kts | 232° |
| 2026-05-05 09:21 | 49.93681 | 159.82928 | 39345 ft | 395 kts | 232° |
| 2026-05-05 09:22 | 49.90462 | 159.76030 | 39345 ft | 394 kts | 232° |
| 2026-05-05 09:22 | 49.87244 | 159.69139 | 39345 ft | 395 kts | 232° |
| 2026-05-05 09:23 | 49.84018 | 159.62257 | 39345 ft | 395 kts | 232° |
| 2026-05-05 09:23 | 49.80810 | 159.55430 | 39348 ft | 394 kts | 232° |
| 2026-05-05 09:24 | 49.77564 | 159.48545 | 39355 ft | 393 kts | 232° |
| 2026-05-05 09:24 | 49.74356 | 159.41757 | 39355 ft | 394 kts | 232° |
| 2026-05-05 09:25 | 49.71120 | 159.34925 | 39355 ft | 394 kts | 232° |
| 2026-05-05 09:25 | 49.67842 | 159.28141 | 39355 ft | 394 kts | 231° |
| 2026-05-05 09:26 | 49.64525 | 159.21404 | 39355 ft | 394 kts | 231° |
| 2026-05-05 09:26 | 49.61203 | 159.14670 | 39355 ft | 394 kts | 231° |
| 2026-05-05 09:27 | 49.57886 | 159.07943 | 39362 ft | 395 kts | 231° |
| 2026-05-05 09:27 | 49.54562 | 159.01212 | 39365 ft | 395 kts | 231° |
| 2026-05-05 09:28 | 49.51234 | 158.94480 | 39364 ft | 395 kts | 231° |
| 2026-05-05 09:28 | 49.47899 | 158.87757 | 39364 ft | 395 kts | 231° |
| 2026-05-05 09:29 | 49.44558 | 158.81041 | 39364 ft | 396 kts | 231° |
| 2026-05-05 09:29 | 49.41206 | 158.74320 | 39364 ft | 397 kts | 231° |
| 2026-05-05 09:30 | 49.37846 | 158.67599 | 39374 ft | 397 kts | 231° |
| 2026-05-05 09:30 | 49.34481 | 158.60884 | 39373 ft | 397 kts | 231° |
| 2026-05-05 09:31 | 49.31114 | 158.54184 | 39373 ft | 397 kts | 231° |
| 2026-05-05 09:31 | 49.27740 | 158.47481 | 39374 ft | 397 kts | 231° |
| 2026-05-05 09:32 | 49.24346 | 158.40766 | 39355 ft | 402 kts | 231° |
| 2026-05-05 09:32 | 49.20916 | 158.33994 | 39309 ft | 409 kts | 231° |
| 2026-05-05 09:33 | 49.17409 | 158.27085 | 39309 ft | 414 kts | 231° |
| 2026-05-05 09:33 | 49.13854 | 158.20100 | 39309 ft | 419 kts | 231° |
| 2026-05-05 09:34 | 49.10253 | 158.13042 | 39307 ft | 424 kts | 231° |
| 2026-05-05 09:34 | 49.06607 | 158.05919 | 39317 ft | 428 kts | 231° |
| 2026-05-05 09:35 | 49.02925 | 157.98738 | 39317 ft | 432 kts | 231° |
| 2026-05-05 09:35 | 48.97339 | 157.87878 | 39319 ft | 437 kts | 231° |
| 2026-05-05 09:36 | 48.93579 | 157.80601 | 39326 ft | 437 kts | 231° |
| 2026-05-05 09:36 | 48.89816 | 157.73334 | 39328 ft | 437 kts | 231° |
| 2026-05-05 09:37 | 48.86050 | 157.66083 | 39330 ft | 437 kts | 231° |
| 2026-05-05 09:37 | 48.82314 | 157.58904 | 39332 ft | 436 kts | 231° |
| 2026-05-05 09:38 | 48.78549 | 157.51694 | 39335 ft | 436 kts | 231° |
| 2026-05-05 09:38 | 48.74781 | 157.44501 | 39337 ft | 436 kts | 231° |
| 2026-05-05 09:39 | 48.71000 | 157.37301 | 39343 ft | 437 kts | 231° |
| 2026-05-05 09:39 | 48.67216 | 157.30108 | 39345 ft | 437 kts | 231° |
| 2026-05-05 09:40 | 48.63427 | 157.22924 | 39345 ft | 437 kts | 231° |
| 2026-05-05 09:40 | 48.59635 | 157.15755 | 39348 ft | 437 kts | 231° |
| 2026-05-05 09:41 | 48.55826 | 157.08577 | 39354 ft | 438 kts | 231° |
| 2026-05-05 09:41 | 48.52010 | 157.01405 | 39355 ft | 439 kts | 231° |
| 2026-05-05 09:42 | 48.48185 | 156.94235 | 39362 ft | 439 kts | 231° |
| 2026-05-05 09:42 | 48.44351 | 156.87068 | 39364 ft | 440 kts | 231° |
| 2026-05-05 09:43 | 48.40507 | 156.79902 | 39363 ft | 440 kts | 231° |
| 2026-05-05 09:43 | 48.36654 | 156.72738 | 39373 ft | 441 kts | 231° |
| 2026-05-05 09:44 | 48.32794 | 156.65578 | 39374 ft | 441 kts | 231° |
| 2026-05-05 09:44 | 48.28932 | 156.58431 | 39373 ft | 441 kts | 231° |
| 2026-05-05 09:45 | 48.25065 | 156.51298 | 39384 ft | 441 kts | 231° |
| 2026-05-05 09:45 | 48.21190 | 156.44165 | 39382 ft | 441 kts | 231° |
| 2026-05-05 09:46 | 48.17311 | 156.37040 | 39388 ft | 441 kts | 231° |
| 2026-05-05 09:46 | 48.13418 | 156.29920 | 39392 ft | 442 kts | 230° |
| 2026-05-05 09:47 | 48.09547 | 156.22855 | 39391 ft | 442 kts | 230° |
| 2026-05-05 09:47 | 48.05647 | 156.15751 | 39403 ft | 442 kts | 230° |
| 2026-05-05 09:48 | 48.01741 | 156.08657 | 39403 ft | 442 kts | 230° |
| 2026-05-05 09:48 | 47.97834 | 156.01584 | 39411 ft | 442 kts | 230° |
| 2026-05-05 09:49 | 47.93920 | 155.94512 | 39411 ft | 442 kts | 230° |
| 2026-05-05 09:49 | 47.90001 | 155.87453 | 39415 ft | 442 kts | 230° |
| 2026-05-05 09:50 | 47.86078 | 155.80404 | 39420 ft | 442 kts | 230° |
| 2026-05-05 09:50 | 47.82153 | 155.73366 | 39420 ft | 442 kts | 230° |
| 2026-05-05 09:51 | 47.78223 | 155.66343 | 39429 ft | 441 kts | 230° |
| 2026-05-05 09:51 | 47.74298 | 155.59344 | 39430 ft | 441 kts | 230° |
| 2026-05-05 09:52 | 47.70367 | 155.52356 | 39441 ft | 441 kts | 230° |
| 2026-05-05 09:52 | 47.66433 | 155.45378 | 39441 ft | 440 kts | 230° |
| 2026-05-05 09:53 | 47.62506 | 155.38432 | 39448 ft | 440 kts | 230° |
| 2026-05-05 09:53 | 47.58575 | 155.31491 | 39470 ft | 439 kts | 230° |
| 2026-05-05 09:54 | 47.54636 | 155.24562 | 39492 ft | 440 kts | 230° |
| 2026-05-05 09:54 | 47.50720 | 155.17691 | 39497 ft | 439 kts | 231° |
| 2026-05-05 09:55 | 47.46782 | 155.10791 | 39503 ft | 439 kts | 230° |
| 2026-05-05 09:55 | 47.42836 | 155.03895 | 39507 ft | 440 kts | 230° |
| 2026-05-05 09:56 | 47.38881 | 154.97005 | 39510 ft | 440 kts | 230° |
| 2026-05-05 09:56 | 47.34925 | 154.90127 | 39513 ft | 440 kts | 230° |
| 2026-05-05 09:57 | 47.30957 | 154.83251 | 39515 ft | 440 kts | 230° |
| 2026-05-05 09:57 | 47.26986 | 154.76387 | 39523 ft | 440 kts | 230° |
| 2026-05-05 09:58 | 47.23012 | 154.69534 | 39525 ft | 440 kts | 230° |
| 2026-05-05 09:58 | 47.19035 | 154.62690 | 39534 ft | 440 kts | 231° |
| 2026-05-05 09:59 | 47.15053 | 154.55854 | 39537 ft | 441 kts | 230° |
| 2026-05-05 09:59 | 47.11064 | 154.49025 | 39540 ft | 440 kts | 230° |
| 2026-05-05 10:00 | 47.07076 | 154.42219 | 39544 ft | 439 kts | 231° |
| 2026-05-05 10:00 | 47.03090 | 154.35431 | 39552 ft | 439 kts | 230° |
| 2026-05-05 10:01 | 46.99104 | 154.28660 | 39556 ft | 439 kts | 230° |
| 2026-05-05 10:01 | 46.95118 | 154.21907 | 39555 ft | 438 kts | 230° |
| 2026-05-05 10:02 | 46.91130 | 154.15166 | 39563 ft | 438 kts | 230° |
| 2026-05-05 10:02 | 46.87143 | 154.08442 | 39562 ft | 437 kts | 230° |
| 2026-05-05 10:03 | 46.83184 | 154.01780 | 39568 ft | 437 kts | 230° |
| 2026-05-05 10:03 | 46.79198 | 153.95093 | 39571 ft | 437 kts | 231° |
| 2026-05-05 10:04 | 46.75201 | 153.88398 | 39578 ft | 438 kts | 231° |
| 2026-05-05 10:04 | 46.71194 | 153.81709 | 39580 ft | 438 kts | 231° |
| 2026-05-05 10:05 | 46.67191 | 153.75042 | 39587 ft | 437 kts | 231° |
| 2026-05-05 10:05 | 46.63184 | 153.68382 | 39589 ft | 437 kts | 231° |
| 2026-05-05 10:06 | 46.59174 | 153.61737 | 39590 ft | 437 kts | 231° |
| 2026-05-05 10:06 | 46.55160 | 153.55101 | 39599 ft | 437 kts | 231° |
| 2026-05-05 10:07 | 46.51141 | 153.48472 | 39598 ft | 437 kts | 230° |
| 2026-05-05 10:07 | 46.47119 | 153.41855 | 39603 ft | 437 kts | 230° |
| 2026-05-05 10:08 | 46.43092 | 153.35243 | 39609 ft | 438 kts | 230° |
| 2026-05-05 10:08 | 46.39742 | 153.29754 | 39608 ft | 438 kts | 230° |
| 2026-05-05 10:09 | 46.35702 | 153.23152 | 39618 ft | 438 kts | 230° |
| 2026-05-05 10:09 | 46.31657 | 153.16555 | 39618 ft | 438 kts | 230° |
| 2026-05-05 10:10 | 46.27598 | 153.09959 | 39619 ft | 439 kts | 230° |
| 2026-05-05 10:10 | 46.23534 | 153.03367 | 39628 ft | 439 kts | 230° |
| 2026-05-05 10:11 | 46.19457 | 152.96781 | 39627 ft | 440 kts | 230° |
| 2026-05-05 10:11 | 46.15354 | 152.90235 | 39636 ft | 441 kts | 230° |
| 2026-05-05 10:12 | 46.11233 | 152.83687 | 39636 ft | 441 kts | 230° |
| 2026-05-05 10:12 | 46.07110 | 152.77142 | 39636 ft | 441 kts | 230° |
| 2026-05-05 10:13 | 46.02980 | 152.70596 | 39645 ft | 442 kts | 230° |
| 2026-05-05 10:13 | 45.98842 | 152.64055 | 39648 ft | 442 kts | 230° |
| 2026-05-05 10:14 | 45.94706 | 152.57531 | 39651 ft | 440 kts | 230° |
| 2026-05-05 10:14 | 45.90579 | 152.51038 | 39655 ft | 440 kts | 230° |
| 2026-05-05 10:15 | 45.86447 | 152.44553 | 39656 ft | 440 kts | 230° |
| 2026-05-05 10:15 | 45.82309 | 152.38070 | 39657 ft | 441 kts | 230° |
| 2026-05-05 10:16 | 45.78165 | 152.31594 | 39665 ft | 441 kts | 230° |
| 2026-05-05 10:16 | 45.74012 | 152.25116 | 39663 ft | 441 kts | 230° |
| 2026-05-05 10:17 | 45.69880 | 152.18687 | 39672 ft | 442 kts | 230° |
| 2026-05-05 10:17 | 45.65714 | 152.12224 | 39673 ft | 442 kts | 230° |
| 2026-05-05 10:18 | 45.61546 | 152.05776 | 39676 ft | 441 kts | 229° |
| 2026-05-05 10:18 | 45.57377 | 151.99340 | 39685 ft | 441 kts | 229° |
| 2026-05-05 10:19 | 45.53201 | 151.92911 | 39687 ft | 442 kts | 229° |
| 2026-05-05 10:19 | 45.49022 | 151.86485 | 39683 ft | 442 kts | 230° |
| 2026-05-05 10:20 | 45.44840 | 151.80068 | 39690 ft | 442 kts | 230° |
| 2026-05-05 10:20 | 45.40654 | 151.73665 | 39690 ft | 442 kts | 229° |
| 2026-05-05 10:21 | 45.36468 | 151.67279 | 39698 ft | 441 kts | 229° |
| 2026-05-05 10:21 | 45.32282 | 151.60906 | 39712 ft | 441 kts | 229° |
| 2026-05-05 10:22 | 45.28106 | 151.54559 | 39695 ft | 440 kts | 229° |
| 2026-05-05 10:22 | 45.23927 | 151.48226 | 39694 ft | 439 kts | 230° |
| 2026-05-05 10:23 | 45.19745 | 151.41904 | 39712 ft | 439 kts | 229° |
| 2026-05-05 10:23 | 45.15564 | 151.35597 | 39700 ft | 439 kts | 229° |
| 2026-05-05 10:24 | 45.11383 | 151.29300 | 39712 ft | 439 kts | 229° |
| 2026-05-05 10:24 | 45.07226 | 151.23058 | 39711 ft | 439 kts | 229° |
| 2026-05-05 10:25 | 45.03042 | 151.16786 | 39721 ft | 438 kts | 230° |
| 2026-05-05 10:25 | 44.98863 | 151.10540 | 39720 ft | 438 kts | 229° |
| 2026-05-05 10:26 | 44.94675 | 151.04297 | 39719 ft | 438 kts | 229° |
| 2026-05-05 10:26 | 44.90485 | 150.98063 | 39726 ft | 438 kts | 229° |
| 2026-05-05 10:27 | 44.86291 | 150.91837 | 39729 ft | 438 kts | 229° |
| 2026-05-05 10:27 | 44.82090 | 150.85614 | 39729 ft | 438 kts | 229° |
| 2026-05-05 10:28 | 44.77885 | 150.79398 | 39729 ft | 438 kts | 229° |
| 2026-05-05 10:28 | 44.73678 | 150.73192 | 39739 ft | 438 kts | 229° |
| 2026-05-05 10:29 | 44.69468 | 150.66996 | 39739 ft | 438 kts | 229° |
| 2026-05-05 10:29 | 44.65255 | 150.60812 | 39739 ft | 438 kts | 229° |
| 2026-05-05 10:30 | 44.61039 | 150.54640 | 39744 ft | 438 kts | 229° |
| 2026-05-05 10:30 | 44.56823 | 150.48482 | 39749 ft | 438 kts | 229° |
| 2026-05-05 10:31 | 44.52602 | 150.42323 | 39747 ft | 438 kts | 229° |
| 2026-05-05 10:31 | 44.48376 | 150.36169 | 39773 ft | 438 kts | 229° |
| 2026-05-05 10:32 | 44.44145 | 150.30027 | 39788 ft | 438 kts | 229° |
| 2026-05-05 10:32 | 44.39912 | 150.23897 | 39795 ft | 438 kts | 229° |
| 2026-05-05 10:33 | 44.35704 | 150.17816 | 39795 ft | 438 kts | 229° |
| 2026-05-05 10:33 | 44.31467 | 150.11703 | 39795 ft | 438 kts | 229° |
| 2026-05-05 10:34 | 44.27220 | 150.05593 | 39795 ft | 439 kts | 229° |
| 2026-05-05 10:34 | 44.22966 | 149.99490 | 39795 ft | 439 kts | 229° |
| 2026-05-05 10:35 | 44.18712 | 149.93395 | 39804 ft | 439 kts | 229° |
| 2026-05-05 10:35 | 44.14454 | 149.87309 | 39804 ft | 438 kts | 229° |
| 2026-05-05 10:36 | 44.10194 | 149.81232 | 39804 ft | 438 kts | 229° |
| 2026-05-05 10:36 | 44.05932 | 149.75164 | 39804 ft | 438 kts | 229° |
| 2026-05-05 10:37 | 44.01666 | 149.69105 | 39804 ft | 439 kts | 229° |
| 2026-05-05 10:37 | 43.97397 | 149.63057 | 39810 ft | 439 kts | 229° |
| 2026-05-05 10:38 | 43.93123 | 149.57015 | 39810 ft | 438 kts | 229° |
| 2026-05-05 10:38 | 43.88851 | 149.50987 | 39824 ft | 438 kts | 229° |
| 2026-05-05 10:39 | 43.84578 | 149.44971 | 39825 ft | 438 kts | 229° |
| 2026-05-05 10:39 | 43.80335 | 149.39012 | 39824 ft | 437 kts | 229° |
| 2026-05-05 10:40 | 43.76069 | 149.33034 | 39828 ft | 436 kts | 229° |
| 2026-05-05 10:40 | 43.71799 | 149.27060 | 39820 ft | 437 kts | 229° |
| 2026-05-05 10:41 | 43.67525 | 149.21092 | 39815 ft | 437 kts | 229° |
| 2026-05-05 10:41 | 43.63252 | 149.15142 | 39818 ft | 437 kts | 229° |
| 2026-05-05 10:42 | 43.56827 | 149.06218 | 39869 ft | 437 kts | 229° |
| 2026-05-05 10:43 | 43.52540 | 149.00282 | 39870 ft | 437 kts | 229° |
| 2026-05-05 10:43 | 43.48249 | 148.94347 | 39869 ft | 437 kts | 229° |
| 2026-05-05 10:44 | 43.43955 | 148.88425 | 39869 ft | 437 kts | 229° |
| 2026-05-05 10:44 | 43.39662 | 148.82514 | 39869 ft | 437 kts | 229° |
| 2026-05-05 10:45 | 43.35365 | 148.76614 | 39869 ft | 437 kts | 229° |
| 2026-05-05 10:45 | 43.31066 | 148.70723 | 39878 ft | 437 kts | 229° |
| 2026-05-05 10:46 | 43.26767 | 148.64843 | 39879 ft | 437 kts | 229° |
| 2026-05-05 10:46 | 43.22458 | 148.58965 | 39877 ft | 437 kts | 229° |
| 2026-05-05 10:47 | 43.18146 | 148.53093 | 39878 ft | 437 kts | 229° |
| 2026-05-05 10:47 | 43.13831 | 148.47231 | 39879 ft | 437 kts | 229° |
| 2026-05-05 10:48 | 43.09521 | 148.41384 | 39879 ft | 436 kts | 229° |
| 2026-05-05 10:48 | 43.05213 | 148.35553 | 39869 ft | 436 kts | 229° |
| 2026-05-05 10:49 | 43.00904 | 148.29732 | 39868 ft | 435 kts | 229° |
| 2026-05-05 10:49 | 42.96598 | 148.23929 | 39869 ft | 435 kts | 229° |
| 2026-05-05 10:50 | 42.92300 | 148.18150 | 39869 ft | 434 kts | 229° |
| 2026-05-05 10:50 | 42.88001 | 148.12380 | 39869 ft | 433 kts | 229° |
| 2026-05-05 10:51 | 42.83705 | 148.06627 | 39869 ft | 433 kts | 229° |
| 2026-05-05 10:51 | 42.79442 | 148.00927 | 39876 ft | 432 kts | 229° |
| 2026-05-05 10:52 | 42.75148 | 147.95196 | 39888 ft | 433 kts | 229° |
| 2026-05-05 10:52 | 42.70836 | 147.89458 | 39888 ft | 434 kts | 229° |
| 2026-05-05 10:53 | 42.66522 | 147.83730 | 39888 ft | 433 kts | 229° |
| 2026-05-05 10:53 | 42.62209 | 147.78013 | 39896 ft | 433 kts | 229° |
| 2026-05-05 10:54 | 42.57898 | 147.72314 | 39896 ft | 433 kts | 229° |
| 2026-05-05 10:54 | 42.53587 | 147.66623 | 39898 ft | 432 kts | 229° |
| 2026-05-05 10:55 | 42.49275 | 147.60940 | 39897 ft | 432 kts | 229° |
| 2026-05-05 10:55 | 42.44960 | 147.55266 | 39897 ft | 432 kts | 229° |
| 2026-05-05 10:56 | 42.40645 | 147.49601 | 39952 ft | 432 kts | 229° |
| 2026-05-05 10:56 | 42.38484 | 147.46769 | 40091 ft | 432 kts | 229° |
| 2026-05-05 10:56 | 42.36324 | 147.43941 | 40238 ft | 432 kts | 229° |
| 2026-05-05 10:56 | 42.34167 | 147.41114 | 40373 ft | 432 kts | 229° |
| 2026-05-05 10:57 | 42.32011 | 147.38291 | 40510 ft | 431 kts | 229° |
| 2026-05-05 10:57 | 42.28424 | 147.33599 | 40627 ft | 433 kts | 228° |
| 2026-05-05 10:57 | 42.26260 | 147.30773 | 40763 ft | 432 kts | 228° |
| 2026-05-05 10:58 | 42.24096 | 147.27951 | 40883 ft | 432 kts | 228° |
| 2026-05-05 10:58 | 42.19749 | 147.22288 | 40895 ft | 436 kts | 228° |
| 2026-05-05 10:59 | 42.15380 | 147.16612 | 40898 ft | 437 kts | 228° |
| 2026-05-05 10:59 | 42.11002 | 147.10935 | 40900 ft | 437 kts | 228° |
| 2026-05-05 11:00 | 42.06620 | 147.05266 | 40894 ft | 437 kts | 228° |
| 2026-05-05 11:00 | 42.02236 | 146.99604 | 40897 ft | 437 kts | 228° |
| 2026-05-05 11:01 | 41.97846 | 146.93945 | 40907 ft | 437 kts | 228° |
| 2026-05-05 11:01 | 41.93476 | 146.88327 | 40906 ft | 433 kts | 228° |
| 2026-05-05 11:02 | 41.89124 | 146.82732 | 40907 ft | 433 kts | 228° |
| 2026-05-05 11:02 | 41.84775 | 146.77144 | 40906 ft | 433 kts | 228° |
| 2026-05-05 11:03 | 41.80422 | 146.71565 | 40906 ft | 434 kts | 228° |
| 2026-05-05 11:03 | 41.76058 | 146.65982 | 40907 ft | 434 kts | 228° |
| 2026-05-05 11:04 | 41.71684 | 146.60400 | 40905 ft | 434 kts | 228° |
| 2026-05-05 11:04 | 41.67331 | 146.54854 | 40906 ft | 435 kts | 228° |
| 2026-05-05 11:05 | 41.62942 | 146.49274 | 40906 ft | 435 kts | 227° |
| 2026-05-05 11:05 | 41.58521 | 146.43664 | 40914 ft | 435 kts | 227° |
| 2026-05-05 11:06 | 41.54126 | 146.38099 | 40917 ft | 435 kts | 227° |
| 2026-05-05 11:06 | 41.49758 | 146.32578 | 40916 ft | 435 kts | 227° |
| 2026-05-05 11:07 | 41.45336 | 146.26999 | 40917 ft | 435 kts | 227° |
| 2026-05-05 11:07 | 41.40963 | 146.21494 | 40914 ft | 435 kts | 227° |
| 2026-05-05 11:08 | 41.36559 | 146.15959 | 40915 ft | 435 kts | 227° |
| 2026-05-05 11:08 | 41.32153 | 146.10434 | 40917 ft | 435 kts | 227° |
| 2026-05-05 11:09 | 41.27751 | 146.04925 | 40925 ft | 434 kts | 227° |
| 2026-05-05 11:09 | 41.23353 | 145.99432 | 40925 ft | 434 kts | 227° |
| 2026-05-05 11:10 | 41.18957 | 145.93950 | 40943 ft | 434 kts | 227° |
| 2026-05-05 11:10 | 41.14545 | 145.88458 | 40943 ft | 435 kts | 227° |
| 2026-05-05 11:11 | 41.10136 | 145.82983 | 40943 ft | 434 kts | 227° |
| 2026-05-05 11:11 | 41.05724 | 145.77514 | 40943 ft | 434 kts | 227° |
| 2026-05-05 11:12 | 41.01316 | 145.72061 | 40943 ft | 433 kts | 227° |
| 2026-05-05 11:12 | 40.96911 | 145.66621 | 40945 ft | 433 kts | 227° |
| 2026-05-05 11:13 | 40.92508 | 145.61195 | 40943 ft | 432 kts | 228° |
| 2026-05-05 11:13 | 40.88139 | 145.55820 | 40943 ft | 432 kts | 228° |
| 2026-05-05 11:14 | 40.83741 | 145.50421 | 40953 ft | 431 kts | 227° |
| 2026-05-05 11:14 | 40.79348 | 145.45036 | 40952 ft | 431 kts | 228° |
| 2026-05-05 11:15 | 40.74953 | 145.39661 | 40959 ft | 430 kts | 227° |
| 2026-05-05 11:15 | 40.70559 | 145.34295 | 40981 ft | 430 kts | 228° |
| 2026-05-05 11:16 | 40.66166 | 145.28943 | 40982 ft | 430 kts | 227° |
| 2026-05-05 11:16 | 40.61775 | 145.23602 | 40984 ft | 430 kts | 227° |
| 2026-05-05 11:17 | 40.57381 | 145.18268 | 41004 ft | 430 kts | 228° |
| 2026-05-05 11:17 | 40.52982 | 145.12937 | 41011 ft | 430 kts | 228° |
| 2026-05-05 11:18 | 40.48577 | 145.07609 | 41009 ft | 430 kts | 227° |
| 2026-05-05 11:18 | 40.44169 | 145.02288 | 41012 ft | 430 kts | 227° |
| 2026-05-05 11:19 | 40.39761 | 144.96980 | 41019 ft | 430 kts | 227° |
| 2026-05-05 11:19 | 40.35349 | 144.91672 | 40992 ft | 430 kts | 227° |
| 2026-05-05 11:20 | 40.30965 | 144.86405 | 40988 ft | 430 kts | 227° |
| 2026-05-05 11:20 | 40.26548 | 144.81111 | 40998 ft | 430 kts | 227° |
| 2026-05-05 11:21 | 40.22129 | 144.75824 | 41001 ft | 430 kts | 227° |
| 2026-05-05 11:21 | 40.17705 | 144.70541 | 40997 ft | 431 kts | 227° |
| 2026-05-05 11:22 | 40.13275 | 144.65260 | 41009 ft | 431 kts | 227° |
| 2026-05-05 11:22 | 40.08841 | 144.59985 | 41008 ft | 431 kts | 227° |
| 2026-05-05 11:23 | 40.04410 | 144.54723 | 41007 ft | 431 kts | 227° |
| 2026-05-05 11:23 | 39.99972 | 144.49463 | 40998 ft | 431 kts | 227° |
| 2026-05-05 11:24 | 39.95533 | 144.44212 | 40998 ft | 430 kts | 227° |
| 2026-05-05 11:24 | 39.91111 | 144.38991 | 41000 ft | 428 kts | 227° |
| 2026-05-05 11:25 | 39.86719 | 144.33812 | 41007 ft | 429 kts | 227° |
| 2026-05-05 11:25 | 39.82292 | 144.28601 | 41028 ft | 429 kts | 227° |
| 2026-05-05 11:26 | 39.77860 | 144.23395 | 41070 ft | 430 kts | 227° |
| 2026-05-05 11:26 | 39.73425 | 144.18195 | 41082 ft | 430 kts | 227° |
| 2026-05-05 11:27 | 39.68980 | 144.12992 | 41085 ft | 430 kts | 227° |
| 2026-05-05 11:27 | 39.64533 | 144.07798 | 41080 ft | 430 kts | 227° |
| 2026-05-05 11:28 | 39.60089 | 144.02617 | 41082 ft | 429 kts | 227° |
| 2026-05-05 11:28 | 39.55649 | 143.97448 | 41082 ft | 429 kts | 227° |
| 2026-05-05 11:29 | 39.51234 | 143.92317 | 41085 ft | 429 kts | 227° |
| 2026-05-05 11:29 | 39.46786 | 143.87158 | 41091 ft | 429 kts | 227° |
| 2026-05-05 11:30 | 39.42342 | 143.82015 | 41101 ft | 428 kts | 227° |
| 2026-05-05 11:30 | 39.37912 | 143.76894 | 41129 ft | 427 kts | 227° |
| 2026-05-05 11:31 | 39.33478 | 143.71778 | 41128 ft | 427 kts | 227° |
| 2026-05-05 11:31 | 39.29047 | 143.66676 | 41135 ft | 426 kts | 227° |
| 2026-05-05 11:32 | 39.24623 | 143.61591 | 41137 ft | 426 kts | 227° |
| 2026-05-05 11:32 | 39.20202 | 143.56516 | 41137 ft | 425 kts | 227° |
| 2026-05-05 11:33 | 39.15784 | 143.51455 | 41137 ft | 425 kts | 227° |
| 2026-05-05 11:33 | 39.11369 | 143.46406 | 41137 ft | 424 kts | 227° |
| 2026-05-05 11:34 | 39.06963 | 143.41377 | 41143 ft | 423 kts | 227° |
| 2026-05-05 11:34 | 39.02570 | 143.36371 | 41147 ft | 422 kts | 227° |
| 2026-05-05 11:35 | 38.98176 | 143.31372 | 41146 ft | 421 kts | 227° |
| 2026-05-05 11:35 | 38.93745 | 143.26523 | 41147 ft | 425 kts | 223° |
| 2026-05-05 11:36 | 38.88511 | 143.22804 | 41146 ft | 440 kts | 209° |
| 2026-05-05 11:36 | 38.82518 | 143.20854 | 41140 ft | 452 kts | 200° |
| 2026-05-05 11:37 | 38.76301 | 143.19484 | 41138 ft | 454 kts | 199° |
| 2026-05-05 11:37 | 38.70071 | 143.18182 | 41146 ft | 453 kts | 199° |
| 2026-05-05 11:38 | 38.63872 | 143.16843 | 41147 ft | 451 kts | 199° |
| 2026-05-05 11:38 | 38.57684 | 143.15475 | 41147 ft | 451 kts | 199° |
| 2026-05-05 11:39 | 38.51503 | 143.14102 | 41147 ft | 451 kts | 199° |
| 2026-05-05 11:39 | 38.45324 | 143.12734 | 41146 ft | 450 kts | 199° |
| 2026-05-05 11:40 | 38.39151 | 143.11371 | 41146 ft | 450 kts | 199° |
| 2026-05-05 11:40 | 38.32974 | 143.10011 | 41147 ft | 450 kts | 199° |
| 2026-05-05 11:41 | 38.26800 | 143.08654 | 41146 ft | 450 kts | 199° |
| 2026-05-05 11:41 | 38.20634 | 143.07300 | 41146 ft | 450 kts | 199° |
| 2026-05-05 11:42 | 38.14465 | 143.05948 | 41146 ft | 450 kts | 199° |
| 2026-05-05 11:42 | 38.08302 | 143.04600 | 41164 ft | 449 kts | 200° |
| 2026-05-05 11:43 | 38.02140 | 143.03255 | 41172 ft | 449 kts | 200° |
| 2026-05-05 11:43 | 37.95979 | 143.01912 | 41174 ft | 448 kts | 200° |
| 2026-05-05 11:44 | 37.89877 | 143.00591 | 41173 ft | 443 kts | 200° |
| 2026-05-05 11:44 | 37.83812 | 142.99272 | 41173 ft | 442 kts | 200° |
| 2026-05-05 11:45 | 37.77757 | 142.97955 | 41175 ft | 442 kts | 200° |
| 2026-05-05 11:45 | 37.71701 | 142.96641 | 41173 ft | 442 kts | 200° |
| 2026-05-05 11:46 | 37.65687 | 142.95340 | 41173 ft | 442 kts | 200° |
| 2026-05-05 11:46 | 37.59631 | 142.94033 | 41175 ft | 441 kts | 200° |
| 2026-05-05 11:47 | 37.53577 | 142.92730 | 41179 ft | 441 kts | 200° |
| 2026-05-05 11:47 | 37.47530 | 142.91429 | 41173 ft | 441 kts | 200° |
| 2026-05-05 11:48 | 37.38478 | 142.89487 | 41173 ft | 439 kts | 200° |
| 2026-05-05 11:48 | 37.32459 | 142.88198 | 41174 ft | 439 kts | 200° |
| 2026-05-05 11:49 | 37.27417 | 142.87118 | 41173 ft | 438 kts | 200° |
| 2026-05-05 11:49 | 37.21406 | 142.85836 | 41177 ft | 438 kts | 200° |
| 2026-05-05 11:50 | 37.15398 | 142.84550 | 41182 ft | 436 kts | 201° |
| 2026-05-05 11:50 | 37.09746 | 142.82343 | 41183 ft | 417 kts | 214° |
| 2026-05-05 11:51 | 37.04653 | 142.79004 | 41189 ft | 411 kts | 218° |
| 2026-05-05 11:51 | 36.99688 | 142.75473 | 41193 ft | 410 kts | 218° |
| 2026-05-05 11:52 | 36.94766 | 142.71953 | 41193 ft | 410 kts | 218° |
| 2026-05-05 11:52 | 36.89797 | 142.68436 | 41192 ft | 410 kts | 218° |
| 2026-05-05 11:53 | 36.84828 | 142.64943 | 41193 ft | 410 kts | 218° |
| 2026-05-05 11:53 | 36.79862 | 142.61462 | 41192 ft | 409 kts | 218° |
| 2026-05-05 11:54 | 36.74913 | 142.57997 | 41193 ft | 408 kts | 218° |
| 2026-05-05 11:54 | 36.69970 | 142.54539 | 41192 ft | 407 kts | 218° |
| 2026-05-05 11:55 | 36.65035 | 142.51092 | 41202 ft | 407 kts | 218° |
| 2026-05-05 11:55 | 36.60099 | 142.47649 | 41210 ft | 406 kts | 218° |
| 2026-05-05 11:56 | 36.55170 | 142.44217 | 41211 ft | 406 kts | 218° |
| 2026-05-05 11:56 | 36.50243 | 142.40791 | 41211 ft | 405 kts | 218° |
| 2026-05-05 11:57 | 36.45326 | 142.37378 | 41211 ft | 405 kts | 218° |
| 2026-05-05 11:57 | 36.40415 | 142.33974 | 41211 ft | 404 kts | 218° |
| 2026-05-05 11:58 | 36.35539 | 142.30597 | 41211 ft | 404 kts | 218° |
| 2026-05-05 11:58 | 36.30632 | 142.27205 | 41213 ft | 404 kts | 218° |
| 2026-05-05 11:59 | 36.25720 | 142.23823 | 41224 ft | 403 kts | 218° |
| 2026-05-05 11:59 | 36.20821 | 142.20447 | 41220 ft | 403 kts | 218° |
| 2026-05-05 12:00 | 36.15921 | 142.17071 | 41222 ft | 403 kts | 218° |
| 2026-05-05 12:00 | 36.11103 | 142.13581 | 41237 ft | 396 kts | 223° |
| 2026-05-05 12:01 | 36.07075 | 142.09125 | 41236 ft | 383 kts | 235° |
| 2026-05-05 12:01 | 36.04222 | 142.03665 | 41246 ft | 377 kts | 246° |
| 2026-05-05 12:02 | 36.02037 | 141.97783 | 41245 ft | 377 kts | 248° |
| 2026-05-05 12:02 | 35.99944 | 141.91849 | 41250 ft | 377 kts | 248° |
| 2026-05-05 12:03 | 35.97837 | 141.85929 | 41249 ft | 377 kts | 248° |
| 2026-05-05 12:03 | 35.95776 | 141.80035 | 41192 ft | 374 kts | 251° |
| 2026-05-05 12:04 | 35.95008 | 141.76987 | 40631 ft | 371 kts | 256° |
| 2026-05-05 12:04 | 35.94558 | 141.73846 | 39913 ft | 373 kts | 262° |
| 2026-05-05 12:04 | 35.94423 | 141.70645 | 39246 ft | 372 kts | 265° |
| 2026-05-05 12:04 | 35.94398 | 141.67484 | 38270 ft | 366 kts | 266° |
| 2026-05-05 12:05 | 35.94418 | 141.64354 | 37111 ft | 364 kts | 266° |
| 2026-05-05 12:05 | 35.94455 | 141.61261 | 36230 ft | 355 kts | 266° |
| 2026-05-05 12:05 | 35.94493 | 141.58246 | 35750 ft | 349 kts | 266° |
| 2026-05-05 12:05 | 35.94523 | 141.55382 | 35289 ft | 344 kts | 265° |
| 2026-05-05 12:06 | 35.94538 | 141.53555 | 34995 ft | 341 kts | 265° |
| 2026-05-05 12:06 | 35.94556 | 141.50643 | 34512 ft | 337 kts | 265° |
| 2026-05-05 12:06 | 35.94570 | 141.47769 | 34031 ft | 333 kts | 265° |
| 2026-05-05 12:06 | 35.94581 | 141.44929 | 33579 ft | 329 kts | 265° |
| 2026-05-05 12:07 | 35.94589 | 141.42128 | 33120 ft | 325 kts | 265° |
| 2026-05-05 12:07 | 35.94598 | 141.39359 | 32664 ft | 320 kts | 265° |
| 2026-05-05 12:07 | 35.94607 | 141.36626 | 32218 ft | 317 kts | 266° |
| 2026-05-05 12:07 | 35.94617 | 141.33917 | 31766 ft | 316 kts | 266° |
| 2026-05-05 12:08 | 35.94626 | 141.31217 | 31318 ft | 312 kts | 266° |
| 2026-05-05 12:08 | 35.94643 | 141.28552 | 30877 ft | 308 kts | 266° |
| 2026-05-05 12:08 | 35.94646 | 141.25935 | 30444 ft | 303 kts | 266° |
| 2026-05-05 12:08 | 35.94642 | 141.23344 | 30024 ft | 302 kts | 267° |
| 2026-05-05 12:09 | 35.94644 | 141.20750 | 29584 ft | 301 kts | 267° |
| 2026-05-05 12:09 | 35.94647 | 141.18181 | 29169 ft | 298 kts | 268° |
| 2026-05-05 12:09 | 35.94648 | 141.15618 | 28748 ft | 300 kts | 267° |
| 2026-05-05 12:09 | 35.94647 | 141.13039 | 28317 ft | 302 kts | 268° |
| 2026-05-05 12:10 | 35.94652 | 141.10440 | 27878 ft | 304 kts | 268° |
| 2026-05-05 12:10 | 35.94663 | 141.07840 | 27432 ft | 303 kts | 268° |
| 2026-05-05 12:10 | 35.94668 | 141.05267 | 26999 ft | 305 kts | 268° |
| 2026-05-05 12:10 | 35.94667 | 141.02644 | 26552 ft | 307 kts | 269° |
| 2026-05-05 12:11 | 35.94665 | 141.00009 | 26097 ft | 308 kts | 269° |
| 2026-05-05 12:11 | 35.94830 | 140.97362 | 25626 ft | 312 kts | 277° |
| 2026-05-05 12:11 | 35.95430 | 140.94775 | 25173 ft | 317 kts | 289° |
| 2026-05-05 12:11 | 35.96418 | 140.92327 | 24686 ft | 320 kts | 295° |
| 2026-05-05 12:12 | 35.97546 | 140.89946 | 24198 ft | 322 kts | 297° |
| 2026-05-05 12:12 | 35.98742 | 140.87603 | 23729 ft | 323 kts | 299° |
| 2026-05-05 12:12 | 35.99966 | 140.85271 | 23222 ft | 324 kts | 300° |
| 2026-05-05 12:12 | 36.01193 | 140.82937 | 22734 ft | 324 kts | 300° |
| 2026-05-05 12:13 | 36.02411 | 140.80602 | 22246 ft | 323 kts | 300° |
| 2026-05-05 12:13 | 36.03622 | 140.78265 | 21758 ft | 323 kts | 300° |
| 2026-05-05 12:13 | 36.04827 | 140.75925 | 21273 ft | 322 kts | 300° |
| 2026-05-05 12:13 | 36.06027 | 140.73580 | 20781 ft | 323 kts | 300° |
| 2026-05-05 12:14 | 36.07225 | 140.71228 | 20309 ft | 324 kts | 300° |
| 2026-05-05 12:14 | 36.08422 | 140.68874 | 19845 ft | 323 kts | 300° |
| 2026-05-05 12:14 | 36.09618 | 140.66526 | 19413 ft | 322 kts | 300° |
| 2026-05-05 12:14 | 36.10807 | 140.64180 | 18981 ft | 322 kts | 301° |
| 2026-05-05 12:15 | 36.11996 | 140.61838 | 18535 ft | 321 kts | 301° |
| 2026-05-05 12:15 | 36.13181 | 140.59497 | 18097 ft | 321 kts | 301° |
| 2026-05-05 12:15 | 36.14362 | 140.57160 | 17656 ft | 320 kts | 301° |
| 2026-05-05 12:15 | 36.15541 | 140.54830 | 17224 ft | 319 kts | 301° |
| 2026-05-05 12:16 | 36.16718 | 140.52505 | 16794 ft | 318 kts | 301° |
| 2026-05-05 12:16 | 36.17891 | 140.50182 | 16370 ft | 318 kts | 301° |
| 2026-05-05 12:16 | 36.19062 | 140.47865 | 15924 ft | 317 kts | 301° |
| 2026-05-05 12:16 | 36.20244 | 140.45565 | 15510 ft | 316 kts | 302° |
| 2026-05-05 12:17 | 36.21705 | 140.43532 | 15135 ft | 317 kts | 319° |
| 2026-05-05 12:17 | 36.23535 | 140.41925 | 14956 ft | 328 kts | 324° |
| 2026-05-05 12:17 | 36.25459 | 140.40392 | 14744 ft | 330 kts | 325° |
| 2026-05-05 12:17 | 36.27393 | 140.38863 | 14525 ft | 329 kts | 325° |
| 2026-05-05 12:18 | 36.29318 | 140.37335 | 14306 ft | 328 kts | 324° |
| 2026-05-05 12:18 | 36.31232 | 140.35810 | 14072 ft | 327 kts | 324° |
| 2026-05-05 12:18 | 36.33141 | 140.34286 | 13851 ft | 326 kts | 324° |
| 2026-05-05 12:18 | 36.35043 | 140.32766 | 13437 ft | 323 kts | 324° |
| 2026-05-05 12:19 | 36.36924 | 140.31254 | 13176 ft | 322 kts | 324° |
| 2026-05-05 12:19 | 36.38593 | 140.29495 | 12961 ft | 318 kts | 308° |
| 2026-05-05 12:19 | 36.39662 | 140.27135 | 12738 ft | 314 kts | 286° |
| 2026-05-05 12:19 | 36.39909 | 140.24438 | 12537 ft | 312 kts | 265° |
| 2026-05-05 12:20 | 36.39522 | 140.21833 | 12320 ft | 311 kts | 257° |
| 2026-05-05 12:20 | 36.38996 | 140.19227 | 12106 ft | 311 kts | 256° |
| 2026-05-05 12:20 | 36.38465 | 140.16627 | 11912 ft | 310 kts | 257° |
| 2026-05-05 12:20 | 36.37942 | 140.14033 | 11693 ft | 310 kts | 257° |
| 2026-05-05 12:21 | 36.37427 | 140.11442 | 11495 ft | 309 kts | 257° |
| 2026-05-05 12:21 | 36.36914 | 140.08854 | 11278 ft | 308 kts | 257° |
| 2026-05-05 12:21 | 36.36406 | 140.06276 | 11077 ft | 308 kts | 257° |
| 2026-05-05 12:21 | 36.35775 | 140.03742 | 10867 ft | 308 kts | 246° |
| 2026-05-05 12:22 | 36.34548 | 140.01578 | 10650 ft | 310 kts | 224° |
| 2026-05-05 12:22 | 36.32711 | 140.00204 | 10460 ft | 312 kts | 200° |
| 2026-05-05 12:22 | 36.30611 | 139.99757 | 10286 ft | 302 kts | 186° |
| 2026-05-05 12:22 | 36.28549 | 139.99627 | 10098 ft | 292 kts | 184° |
| 2026-05-05 12:23 | 36.26531 | 139.99522 | 9872 ft | 289 kts | 184° |
| 2026-05-05 12:23 | 36.24521 | 139.99409 | 9662 ft | 289 kts | 184° |
| 2026-05-05 12:23 | 36.22519 | 139.99286 | 9473 ft | 288 kts | 184° |
| 2026-05-05 12:23 | 36.20521 | 139.99160 | 9274 ft | 287 kts | 184° |
| 2026-05-05 12:24 | 36.18528 | 139.99032 | 9081 ft | 286 kts | 184° |
| 2026-05-05 12:24 | 36.16545 | 139.98902 | 8882 ft | 285 kts | 184° |
| 2026-05-05 12:24 | 36.14569 | 139.98772 | 8708 ft | 284 kts | 184° |
| 2026-05-05 12:24 | 36.12601 | 139.98641 | 8519 ft | 282 kts | 184° |
| 2026-05-05 12:25 | 36.10648 | 139.98511 | 8338 ft | 280 kts | 184° |
| 2026-05-05 12:25 | 36.08705 | 139.98385 | 8146 ft | 279 kts | 184° |
| 2026-05-05 12:25 | 36.06771 | 139.98259 | 7967 ft | 278 kts | 184° |
| 2026-05-05 12:25 | 36.04848 | 139.98159 | 7768 ft | 276 kts | 182° |
| 2026-05-05 12:26 | 36.02930 | 139.98113 | 7585 ft | 274 kts | 182° |
| 2026-05-05 12:26 | 36.01025 | 139.98072 | 7399 ft | 273 kts | 182° |
| 2026-05-05 12:26 | 35.99155 | 139.98026 | 7220 ft | 272 kts | 182° |
| 2026-05-05 12:26 | 35.97272 | 139.97980 | 7039 ft | 270 kts | 182° |
| 2026-05-05 12:27 | 35.95395 | 139.97930 | 6864 ft | 269 kts | 182° |
| 2026-05-05 12:27 | 35.93531 | 139.97876 | 6680 ft | 267 kts | 182° |
| 2026-05-05 12:27 | 35.91648 | 139.97821 | 6499 ft | 267 kts | 182° |
| 2026-05-05 12:27 | 35.89821 | 139.97770 | 6337 ft | 264 kts | 182° |
| 2026-05-05 12:28 | 35.88010 | 139.97720 | 6230 ft | 250 kts | 182° |
| 2026-05-05 12:28 | 35.86315 | 139.97674 | 6126 ft | 238 kts | 182° |
| 2026-05-05 12:28 | 35.84730 | 139.97632 | 6034 ft | 225 kts | 182° |
| 2026-05-05 12:28 | 35.83209 | 139.97650 | 5936 ft | 212 kts | 180° |
| 2026-05-05 12:29 | 35.81774 | 139.97704 | 5845 ft | 200 kts | 181° |
| 2026-05-05 12:29 | 35.80400 | 139.97510 | 5721 ft | 195 kts | 195° |
| 2026-05-05 12:29 | 35.79144 | 139.96921 | 5499 ft | 193 kts | 207° |
| 2026-05-05 12:29 | 35.78015 | 139.96073 | 5345 ft | 185 kts | 213° |
| 2026-05-05 12:30 | 35.77010 | 139.95211 | 5223 ft | 174 kts | 214° |
| 2026-05-05 12:30 | 35.76023 | 139.94352 | 4884 ft | 176 kts | 213° |
| 2026-05-05 12:30 | 35.75004 | 139.93471 | 4452 ft | 182 kts | 213° |
| 2026-05-05 12:30 | 35.73965 | 139.92572 | 4095 ft | 183 kts | 213° |
| 2026-05-05 12:31 | 35.72933 | 139.91680 | 3819 ft | 179 kts | 212° |
| 2026-05-05 12:31 | 35.71935 | 139.90814 | 3581 ft | 172 kts | 212° |
| 2026-05-05 12:31 | 35.70979 | 139.89986 | 3391 ft | 164 kts | 211° |
| 2026-05-05 12:31 | 35.70067 | 139.89198 | 3190 ft | 157 kts | 211° |
| 2026-05-05 12:32 | 35.69192 | 139.88444 | 2990 ft | 150 kts | 211° |
| 2026-05-05 12:32 | 35.68370 | 139.87733 | 2797 ft | 139 kts | 211° |
| 2026-05-05 12:32 | 35.67601 | 139.87068 | 2620 ft | 133 kts | 211° |
| 2026-05-05 12:32 | 35.66856 | 139.86425 | 2454 ft | 128 kts | 211° |
| 2026-05-05 12:33 | 35.66128 | 139.85798 | 2282 ft | 128 kts | 211° |
| 2026-05-05 12:33 | 35.65396 | 139.85166 | 2116 ft | 129 kts | 211° |
| 2026-05-05 12:33 | 35.64665 | 139.84536 | 1942 ft | 128 kts | 211° |
| 2026-05-05 12:33 | 35.63939 | 139.83910 | 1774 ft | 127 kts | 211° |
| 2026-05-05 12:34 | 35.63215 | 139.83285 | 1607 ft | 128 kts | 211° |
| 2026-05-05 12:34 | 35.62486 | 139.82655 | 1434 ft | 128 kts | 211° |
| 2026-05-05 12:34 | 35.61754 | 139.82025 | 1266 ft | 129 kts | 211° |
| 2026-05-05 12:34 | 35.61018 | 139.81389 | 1089 ft | 129 kts | 211° |
| 2026-05-05 12:35 | 35.60283 | 139.80756 | 925 ft | 129 kts | 211° |
| 2026-05-05 12:35 | 35.59550 | 139.80125 | 745 ft | 128 kts | 211° |
| 2026-05-05 12:35 | 35.58817 | 139.79492 | 576 ft | 129 kts | 211° |
| 2026-05-05 12:35 | 35.58081 | 139.78859 | 403 ft | 129 kts | 211° |
| 2026-05-05 12:36 | 35.57344 | 139.78224 | 238 ft | 130 kts | 212° |
| 2026-05-05 12:36 | 35.56605 | 139.77584 | 50 ft | 129 kts | 212° |
| 2026-05-05 12:36 | 35.55919 | 139.76998 | 31 ft | 103 kts | 214° |
| 2026-05-05 12:36 | 35.55444 | 139.76594 | 31 ft | 63 kts | 215° |
| 2026-05-05 12:37 | 35.55163 | 139.76364 | 31 ft | 40 kts | 205° |
| 2026-05-05 12:37 | 35.55022 | 139.76311 | 31 ft | 12 kts | 189° |
| 2026-05-05 12:37 | 35.54938 | 139.76318 | 29 ft | 13 kts | 150° |
| 2026-05-05 12:37 | 35.54878 | 139.76406 | 29 ft | 14 kts | 123° |
| 2026-05-05 12:38 | 35.54871 | 139.76521 | 29 ft | 15 kts | 65° |
| 2026-05-05 12:38 | 35.54923 | 139.76629 | 29 ft | 10 kts | 57° |
| 2026-05-05 12:38 | 35.54964 | 139.76717 | 29 ft | 13 kts | 62° |
| 2026-05-05 12:38 | 35.55014 | 139.76827 | 29 ft | 14 kts | 59° |
| 2026-05-05 12:39 | 35.55033 | 139.76911 | 29 ft | 8 kts | 116° |
| 2026-05-05 12:39 | 35.55009 | 139.76943 | 29 ft | 5 kts | 143° |
| 2026-05-05 12:39 | 35.54993 | 139.76955 | 29 ft | 0 kts | 147° |